PWSweather.com
Personal Weather Stations
Station Observations
KNJSTAFF6
Village Harbor, Beach Haven West, Manahawkin, NJ 08050

Village Harbor, Beach Haven WestManahawkin, NJ 08050

Lat: 39.67889410559905, Lon: -74.24244902883606

Elevation: 15

Station Type: Oregon Scientific WMR88A

High Low Average
Temperature 54.7°F12.6°C 34.5°F1.4°C 46.3°F7.9°C
Dew Point 48.9°F9.4°C -11.1°F-23.9°C 25.1°F-3.8°C
Winds 14.7 mph 23.7 kmh 0.3 mph 0.5 kmh 7.0 mph W11.3 kmh W
Wind Gusts 23.5 mph37.8 kmh 1.6 mph2.6 kmh 12.0 mph19.3 kmh
Humidity 98% 8% 55%
Pressure 30.09 in1019.0 mb 29.68 in1005.1 mb -
Precipitation 0.00 in0.0 mm - -
Hour Temp Dew Point Humidity Winds Wind Gusts Pressure Precip Precip Rate Daily Precip Total
12:00 AM 45.5°F7.5°C 45.0°F7.2°C 98% 4.3 mph S6.9 kmh S 8.5 mph13.7 kmh 29.89 in1012.2 mb 0.00 in0.0 mm 0.00 in0.0 mm 0.00 in0.0 mm
12:01 AM 45.5°F7.5°C 45.0°F7.2°C 98% 4.4 mph S7.1 kmh S 8.5 mph13.7 kmh 29.89 in1012.2 mb 0.00 in0.0 mm 0.00 in0.0 mm 0.00 in0.0 mm
12:02 AM 45.5°F7.5°C 45.0°F7.2°C 98% 4.5 mph S7.2 kmh S 8.5 mph13.7 kmh 29.89 in1012.2 mb 0.00 in0.0 mm 0.00 in0.0 mm 0.00 in0.0 mm
12:03 AM 45.5°F7.5°C 45.0°F7.2°C 98% 4.3 mph S6.9 kmh S 8.5 mph13.7 kmh 29.89 in1012.2 mb 0.00 in0.0 mm 0.00 in0.0 mm 0.00 in0.0 mm
12:04 AM 45.5°F7.5°C 45.0°F7.2°C 98% 4.4 mph S7.1 kmh S 8.5 mph13.7 kmh 29.89 in1012.2 mb 0.00 in0.0 mm 0.00 in0.0 mm 0.00 in0.0 mm
12:05 AM 45.5°F7.5°C 45.0°F7.2°C 98% 4.3 mph S6.9 kmh S 8.5 mph13.7 kmh 29.89 in1012.2 mb 0.00 in0.0 mm 0.00 in0.0 mm 0.00 in0.0 mm
12:06 AM 45.5°F7.5°C 45.0°F7.2°C 98% 4.4 mph S7.1 kmh S 8.5 mph13.7 kmh 29.89 in1012.2 mb 0.00 in0.0 mm 0.00 in0.0 mm 0.00 in0.0 mm
12:07 AM 45.5°F7.5°C 45.0°F7.2°C 98% 4.7 mph S7.6 kmh S 8.5 mph13.7 kmh 29.89 in1012.2 mb 0.00 in0.0 mm 0.00 in0.0 mm 0.00 in0.0 mm
12:08 AM 45.5°F7.5°C 45.0°F7.2°C 98% 4.8 mph S7.7 kmh S 8.5 mph13.7 kmh 29.89 in1012.2 mb 0.00 in0.0 mm 0.00 in0.0 mm 0.00 in0.0 mm
12:09 AM 45.5°F7.5°C 45.0°F7.2°C 98% 4.7 mph S7.6 kmh S 8.5 mph13.7 kmh 29.89 in1012.2 mb 0.00 in0.0 mm 0.00 in0.0 mm 0.00 in0.0 mm
12:10 AM 45.5°F7.5°C 45.0°F7.2°C 98% 4.1 mph SSE6.6 kmh SSE 6.5 mph10.5 kmh 29.89 in1012.2 mb 0.00 in0.0 mm 0.00 in0.0 mm 0.00 in0.0 mm
12:11 AM 45.5°F7.5°C 45.0°F7.2°C 98% 4.2 mph SSE6.8 kmh SSE 6.5 mph10.5 kmh 29.89 in1012.2 mb 0.00 in0.0 mm 0.00 in0.0 mm 0.00 in0.0 mm
12:12 AM 45.5°F7.5°C 45.0°F7.2°C 98% 4.3 mph SSE6.9 kmh SSE 6.5 mph10.5 kmh 29.89 in1012.2 mb 0.00 in0.0 mm 0.00 in0.0 mm 0.00 in0.0 mm
12:13 AM 45.5°F7.5°C 45.0°F7.2°C 98% 4.3 mph SE6.9 kmh SE 6.5 mph10.5 kmh 29.89 in1012.2 mb 0.00 in0.0 mm 0.00 in0.0 mm 0.00 in0.0 mm
12:14 AM 45.5°F7.5°C 45.0°F7.2°C 98% 4.2 mph SE6.8 kmh SE 6.5 mph10.5 kmh 29.86 in1011.2 mb 0.00 in0.0 mm 0.00 in0.0 mm 0.00 in0.0 mm
12:15 AM 45.5°F7.5°C 45.0°F7.2°C 98% 4.0 mph SE6.4 kmh SE 6.5 mph10.5 kmh 29.86 in1011.2 mb 0.00 in0.0 mm 0.00 in0.0 mm 0.00 in0.0 mm
12:16 AM 45.5°F7.5°C 45.0°F7.2°C 98% 4.0 mph SE6.4 kmh SE 6.5 mph10.5 kmh 29.86 in1011.2 mb 0.00 in0.0 mm 0.00 in0.0 mm 0.00 in0.0 mm
12:17 AM 45.5°F7.5°C 45.0°F7.2°C 98% 3.8 mph SSE6.1 kmh SSE 6.5 mph10.5 kmh 29.86 in1011.2 mb 0.00 in0.0 mm 0.00 in0.0 mm 0.00 in0.0 mm
12:18 AM 45.5°F7.5°C 45.0°F7.2°C 98% 3.7 mph S6.0 kmh S 5.6 mph9.0 kmh 29.86 in1011.2 mb 0.00 in0.0 mm 0.00 in0.0 mm 0.00 in0.0 mm
12:19 AM 45.5°F7.5°C 45.0°F7.2°C 98% 3.7 mph S6.0 kmh S 5.6 mph9.0 kmh 29.86 in1011.2 mb 0.00 in0.0 mm 0.00 in0.0 mm 0.00 in0.0 mm
12:20 AM 45.5°F7.5°C 45.0°F7.2°C 98% 3.7 mph S6.0 kmh S 5.6 mph9.0 kmh 29.86 in1011.2 mb 0.00 in0.0 mm 0.00 in0.0 mm 0.00 in0.0 mm
12:21 AM 45.3°F7.4°C 44.8°F7.1°C 98% 4.5 mph SSW7.2 kmh SSW 8.1 mph13.0 kmh 29.86 in1011.2 mb 0.00 in0.0 mm 0.00 in0.0 mm 0.00 in0.0 mm
12:22 AM 45.3°F7.4°C 44.8°F7.1°C 98% 4.3 mph SSW6.9 kmh SSW 8.1 mph13.0 kmh 29.86 in1011.2 mb 0.00 in0.0 mm 0.00 in0.0 mm 0.00 in0.0 mm
12:23 AM 45.3°F7.4°C 44.8°F7.1°C 98% 4.3 mph SSW6.9 kmh SSW 8.1 mph13.0 kmh 29.86 in1011.2 mb 0.00 in0.0 mm 0.00 in0.0 mm 0.00 in0.0 mm
12:24 AM 45.3°F7.4°C 44.8°F7.1°C 98% 4.5 mph SSW7.2 kmh SSW 8.1 mph13.0 kmh 29.86 in1011.2 mb 0.00 in0.0 mm 0.00 in0.0 mm 0.00 in0.0 mm
12:25 AM 45.3°F7.4°C 44.8°F7.1°C 98% 5.3 mph SSW8.5 kmh SSW 11.0 mph17.7 kmh 29.86 in1011.2 mb 0.00 in0.0 mm 0.00 in0.0 mm 0.00 in0.0 mm
12:26 AM 45.3°F7.4°C 44.8°F7.1°C 98% 5.4 mph SSW8.7 kmh SSW 11.0 mph17.7 kmh 29.86 in1011.2 mb 0.00 in0.0 mm 0.00 in0.0 mm 0.00 in0.0 mm
12:27 AM 45.3°F7.4°C 44.8°F7.1°C 98% 5.5 mph SSW8.9 kmh SSW 11.0 mph17.7 kmh 29.86 in1011.2 mb 0.00 in0.0 mm 0.00 in0.0 mm 0.00 in0.0 mm
12:28 AM 45.3°F7.4°C 44.8°F7.1°C 98% 5.5 mph SSW8.9 kmh SSW 11.0 mph17.7 kmh 29.86 in1011.2 mb 0.00 in0.0 mm 0.00 in0.0 mm 0.00 in0.0 mm
12:29 AM 45.3°F7.4°C 44.8°F7.1°C 98% 5.7 mph S9.2 kmh S 11.0 mph17.7 kmh 29.86 in1011.2 mb 0.00 in0.0 mm 0.00 in0.0 mm 0.00 in0.0 mm
12:30 AM 45.3°F7.4°C 44.8°F7.1°C 98% 6.0 mph S9.7 kmh S 11.0 mph17.7 kmh 29.86 in1011.2 mb 0.00 in0.0 mm 0.00 in0.0 mm 0.00 in0.0 mm
12:31 AM 45.3°F7.4°C 44.8°F7.1°C 98% 5.7 mph S9.2 kmh S 11.0 mph17.7 kmh 29.86 in1011.2 mb 0.00 in0.0 mm 0.00 in0.0 mm 0.00 in0.0 mm
12:32 AM 45.3°F7.4°C 44.8°F7.1°C 98% 5.5 mph S8.9 kmh S 11.0 mph17.7 kmh 29.86 in1011.2 mb 0.00 in0.0 mm 0.00 in0.0 mm 0.00 in0.0 mm
12:33 AM 45.3°F7.4°C 44.8°F7.1°C 98% 5.3 mph S8.5 kmh S 11.0 mph17.7 kmh 29.86 in1011.2 mb 0.00 in0.0 mm 0.00 in0.0 mm 0.00 in0.0 mm
12:34 AM 45.3°F7.4°C 44.8°F7.1°C 98% 5.2 mph S8.4 kmh S 11.0 mph17.7 kmh 29.86 in1011.2 mb 0.00 in0.0 mm 0.00 in0.0 mm 0.00 in0.0 mm
12:35 AM 45.3°F7.4°C 44.8°F7.1°C 98% 4.5 mph S7.2 kmh S 11.0 mph17.7 kmh 29.86 in1011.2 mb 0.00 in0.0 mm 0.00 in0.0 mm 0.00 in0.0 mm
12:36 AM 45.3°F7.4°C 44.8°F7.1°C 98% 4.2 mph S6.8 kmh S 6.5 mph10.5 kmh 29.86 in1011.2 mb 0.00 in0.0 mm 0.00 in0.0 mm 0.00 in0.0 mm
12:37 AM 45.3°F7.4°C 44.8°F7.1°C 98% 4.4 mph S7.1 kmh S 6.5 mph10.5 kmh 29.86 in1011.2 mb 0.00 in0.0 mm 0.00 in0.0 mm 0.00 in0.0 mm
12:38 AM 45.3°F7.4°C 44.8°F7.1°C 98% 4.3 mph S6.9 kmh S 6.5 mph10.5 kmh 29.86 in1011.2 mb 0.00 in0.0 mm 0.00 in0.0 mm 0.00 in0.0 mm
12:39 AM 45.3°F7.4°C 44.8°F7.1°C 98% 3.9 mph S6.3 kmh S 6.5 mph10.5 kmh 29.86 in1011.2 mb 0.00 in0.0 mm 0.00 in0.0 mm 0.00 in0.0 mm
12:40 AM 45.5°F7.5°C 45.0°F7.2°C 98% 3.6 mph S5.8 kmh S 6.0 mph9.7 kmh 29.86 in1011.2 mb 0.00 in0.0 mm 0.00 in0.0 mm 0.00 in0.0 mm
12:41 AM 45.5°F7.5°C 45.0°F7.2°C 98% 3.5 mph S5.6 kmh S 6.0 mph9.7 kmh 29.86 in1011.2 mb 0.00 in0.0 mm 0.00 in0.0 mm 0.00 in0.0 mm
12:42 AM 45.5°F7.5°C 45.0°F7.2°C 98% 3.3 mph S5.3 kmh S 6.0 mph9.7 kmh 29.86 in1011.2 mb 0.00 in0.0 mm 0.00 in0.0 mm 0.00 in0.0 mm
12:43 AM 45.5°F7.5°C 45.0°F7.2°C 98% 3.4 mph S5.5 kmh S 6.0 mph9.7 kmh 29.86 in1011.2 mb 0.00 in0.0 mm 0.00 in0.0 mm 0.00 in0.0 mm
12:44 AM 45.5°F7.5°C 45.0°F7.2°C 98% 3.4 mph S5.5 kmh S 6.0 mph9.7 kmh 29.86 in1011.2 mb 0.00 in0.0 mm 0.00 in0.0 mm 0.00 in0.0 mm
12:45 AM 45.5°F7.5°C 45.0°F7.2°C 98% 3.5 mph S5.6 kmh S 6.0 mph9.7 kmh 29.86 in1011.2 mb 0.00 in0.0 mm 0.00 in0.0 mm 0.00 in0.0 mm
12:46 AM 45.5°F7.5°C 45.0°F7.2°C 98% 3.3 mph SSE5.3 kmh SSE 5.6 mph9.0 kmh 29.86 in1011.2 mb 0.00 in0.0 mm 0.00 in0.0 mm 0.00 in0.0 mm
12:47 AM 45.5°F7.5°C 45.0°F7.2°C 98% 3.4 mph S5.5 kmh S 6.7 mph10.8 kmh 29.86 in1011.2 mb 0.00 in0.0 mm 0.00 in0.0 mm 0.00 in0.0 mm
12:48 AM 45.5°F7.5°C 45.0°F7.2°C 98% 3.6 mph S5.8 kmh S 6.7 mph10.8 kmh 29.86 in1011.2 mb 0.00 in0.0 mm 0.00 in0.0 mm 0.00 in0.0 mm
12:49 AM 45.5°F7.5°C 45.0°F7.2°C 98% 3.7 mph S6.0 kmh S 6.7 mph10.8 kmh 29.86 in1011.2 mb 0.00 in0.0 mm 0.00 in0.0 mm 0.00 in0.0 mm
12:50 AM 45.5°F7.5°C 45.0°F7.2°C 98% 3.8 mph S6.1 kmh S 6.7 mph10.8 kmh 29.86 in1011.2 mb 0.00 in0.0 mm 0.00 in0.0 mm 0.00 in0.0 mm
12:51 AM 45.5°F7.5°C 45.0°F7.2°C 98% 3.4 mph S5.5 kmh S 6.7 mph10.8 kmh 29.86 in1011.2 mb 0.00 in0.0 mm 0.00 in0.0 mm 0.00 in0.0 mm
12:52 AM 45.5°F7.5°C 45.0°F7.2°C 98% 3.6 mph S5.8 kmh S 6.7 mph10.8 kmh 29.86 in1011.2 mb 0.00 in0.0 mm 0.00 in0.0 mm 0.00 in0.0 mm
12:53 AM 45.5°F7.5°C 45.0°F7.2°C 98% 3.6 mph SSE5.8 kmh SSE 6.7 mph10.8 kmh 29.86 in1011.2 mb 0.00 in0.0 mm 0.00 in0.0 mm 0.00 in0.0 mm
12:54 AM 45.5°F7.5°C 45.0°F7.2°C 98% 3.9 mph SSE6.3 kmh SSE 8.7 mph14.0 kmh 29.86 in1011.2 mb 0.00 in0.0 mm 0.00 in0.0 mm 0.00 in0.0 mm
12:55 AM 45.5°F7.5°C 45.0°F7.2°C 98% 4.3 mph SSE6.9 kmh SSE 8.7 mph14.0 kmh 29.86 in1011.2 mb 0.00 in0.0 mm 0.00 in0.0 mm 0.00 in0.0 mm
12:56 AM 45.5°F7.5°C 45.0°F7.2°C 98% 4.2 mph SSE6.8 kmh SSE 8.7 mph14.0 kmh 29.86 in1011.2 mb 0.00 in0.0 mm 0.00 in0.0 mm 0.00 in0.0 mm
12:57 AM 45.5°F7.5°C 45.0°F7.2°C 98% 3.9 mph SSE6.3 kmh SSE 8.7 mph14.0 kmh 29.86 in1011.2 mb 0.00 in0.0 mm 0.00 in0.0 mm 0.00 in0.0 mm
12:58 AM 45.5°F7.5°C 45.0°F7.2°C 98% 3.6 mph SSE5.8 kmh SSE 8.7 mph14.0 kmh 29.86 in1011.2 mb 0.00 in0.0 mm 0.00 in0.0 mm 0.00 in0.0 mm
12:59 AM 45.5°F7.5°C 45.0°F7.2°C 98% 3.7 mph SSE6.0 kmh SSE 8.7 mph14.0 kmh 29.83 in1010.2 mb 0.00 in0.0 mm 0.00 in0.0 mm 0.00 in0.0 mm
01:00 AM 45.7°F7.6°C 45.1°F7.3°C 98% 4.0 mph SSE6.4 kmh SSE 8.7 mph14.0 kmh 29.83 in1010.2 mb 0.00 in0.0 mm 0.00 in0.0 mm 0.00 in0.0 mm
01:01 AM 45.7°F7.6°C 45.1°F7.3°C 98% 4.2 mph SSE6.8 kmh SSE 8.7 mph14.0 kmh 29.83 in1010.2 mb 0.00 in0.0 mm 0.00 in0.0 mm 0.00 in0.0 mm
01:02 AM 45.7°F7.6°C 45.1°F7.3°C 98% 4.3 mph SSE6.9 kmh SSE 8.7 mph14.0 kmh 29.83 in1010.2 mb 0.00 in0.0 mm 0.00 in0.0 mm 0.00 in0.0 mm
01:03 AM 45.7°F7.6°C 45.1°F7.3°C 98% 4.4 mph SSE7.1 kmh SSE 8.7 mph14.0 kmh 29.83 in1010.2 mb 0.00 in0.0 mm 0.00 in0.0 mm 0.00 in0.0 mm
01:04 AM 45.7°F7.6°C 45.1°F7.3°C 98% 4.5 mph SSE7.2 kmh SSE 8.7 mph14.0 kmh 29.83 in1010.2 mb 0.00 in0.0 mm 0.00 in0.0 mm 0.00 in0.0 mm
01:05 AM 45.7°F7.6°C 45.1°F7.3°C 98% 4.3 mph S6.9 kmh S 6.5 mph10.5 kmh 29.83 in1010.2 mb 0.00 in0.0 mm 0.00 in0.0 mm 0.00 in0.0 mm
01:06 AM 45.7°F7.6°C 45.1°F7.3°C 98% 4.1 mph S6.6 kmh S 6.5 mph10.5 kmh 29.83 in1010.2 mb 0.00 in0.0 mm 0.00 in0.0 mm 0.00 in0.0 mm
01:07 AM 45.7°F7.6°C 45.1°F7.3°C 98% 4.8 mph SSE7.7 kmh SSE 7.6 mph12.2 kmh 29.83 in1010.2 mb 0.00 in0.0 mm 0.00 in0.0 mm 0.00 in0.0 mm
01:08 AM 45.7°F7.6°C 45.1°F7.3°C 98% 5.1 mph S8.2 kmh S 7.6 mph12.2 kmh 29.83 in1010.2 mb 0.00 in0.0 mm 0.00 in0.0 mm 0.00 in0.0 mm
01:09 AM 45.9°F7.7°C 45.3°F7.4°C 98% 5.0 mph S8.0 kmh S 7.6 mph12.2 kmh 29.83 in1010.2 mb 0.00 in0.0 mm 0.00 in0.0 mm 0.00 in0.0 mm
01:10 AM 45.9°F7.7°C 45.3°F7.4°C 98% 4.9 mph S7.9 kmh S 7.6 mph12.2 kmh 29.83 in1010.2 mb 0.00 in0.0 mm 0.00 in0.0 mm 0.00 in0.0 mm
01:11 AM 45.9°F7.7°C 45.3°F7.4°C 98% 4.8 mph SSE7.7 kmh SSE 7.6 mph12.2 kmh 29.83 in1010.2 mb 0.00 in0.0 mm 0.00 in0.0 mm 0.00 in0.0 mm
01:12 AM 45.9°F7.7°C 45.3°F7.4°C 98% 4.9 mph SSE7.9 kmh SSE 7.6 mph12.2 kmh 29.83 in1010.2 mb 0.00 in0.0 mm 0.00 in0.0 mm 0.00 in0.0 mm
01:13 AM 45.9°F7.7°C 45.3°F7.4°C 98% 4.9 mph SSE7.9 kmh SSE 7.6 mph12.2 kmh 29.83 in1010.2 mb 0.00 in0.0 mm 0.00 in0.0 mm 0.00 in0.0 mm
01:14 AM 45.9°F7.7°C 45.3°F7.4°C 98% 4.6 mph S7.4 kmh S 7.6 mph12.2 kmh 29.83 in1010.2 mb 0.00 in0.0 mm 0.00 in0.0 mm 0.00 in0.0 mm
01:15 AM 45.9°F7.7°C 45.3°F7.4°C 98% 4.7 mph S7.6 kmh S 7.6 mph12.2 kmh 29.83 in1010.2 mb 0.00 in0.0 mm 0.00 in0.0 mm 0.00 in0.0 mm
01:16 AM 45.9°F7.7°C 45.3°F7.4°C 98% 4.7 mph SSE7.6 kmh SSE 7.6 mph12.2 kmh 29.83 in1010.2 mb 0.00 in0.0 mm 0.00 in0.0 mm 0.00 in0.0 mm
01:17 AM 45.9°F7.7°C 45.3°F7.4°C 98% 4.6 mph S7.4 kmh S 7.6 mph12.2 kmh 29.83 in1010.2 mb 0.00 in0.0 mm 0.00 in0.0 mm 0.00 in0.0 mm
01:18 AM 45.9°F7.7°C 45.3°F7.4°C 98% 4.4 mph S7.1 kmh S 7.2 mph11.6 kmh 29.83 in1010.2 mb 0.00 in0.0 mm 0.00 in0.0 mm 0.00 in0.0 mm
01:19 AM 45.9°F7.7°C 45.3°F7.4°C 98% 4.4 mph S7.1 kmh S 7.2 mph11.6 kmh 29.83 in1010.2 mb 0.00 in0.0 mm 0.00 in0.0 mm 0.00 in0.0 mm
01:20 AM 45.9°F7.7°C 45.3°F7.4°C 98% 4.4 mph S7.1 kmh S 7.2 mph11.6 kmh 29.83 in1010.2 mb 0.00 in0.0 mm 0.00 in0.0 mm 0.00 in0.0 mm
01:21 AM 45.9°F7.7°C 45.3°F7.4°C 98% 4.3 mph S6.9 kmh S 7.2 mph11.6 kmh 29.83 in1010.2 mb 0.00 in0.0 mm 0.00 in0.0 mm 0.00 in0.0 mm
01:22 AM 45.9°F7.7°C 45.3°F7.4°C 98% 4.5 mph S7.2 kmh S 7.2 mph11.6 kmh 29.83 in1010.2 mb 0.00 in0.0 mm 0.00 in0.0 mm 0.00 in0.0 mm
01:23 AM 45.9°F7.7°C 45.3°F7.4°C 98% 4.2 mph S6.8 kmh S 7.2 mph11.6 kmh 29.83 in1010.2 mb 0.00 in0.0 mm 0.00 in0.0 mm 0.00 in0.0 mm
01:24 AM 45.9°F7.7°C 45.3°F7.4°C 98% 4.4 mph S7.1 kmh S 7.2 mph11.6 kmh 29.83 in1010.2 mb 0.00 in0.0 mm 0.00 in0.0 mm 0.00 in0.0 mm
01:25 AM 45.9°F7.7°C 45.3°F7.4°C 98% 4.5 mph S7.2 kmh S 7.2 mph11.6 kmh 29.83 in1010.2 mb 0.00 in0.0 mm 0.00 in0.0 mm 0.00 in0.0 mm
01:26 AM 45.9°F7.7°C 45.3°F7.4°C 98% 4.1 mph S6.6 kmh S 6.5 mph10.5 kmh 29.83 in1010.2 mb 0.00 in0.0 mm 0.00 in0.0 mm 0.00 in0.0 mm
01:27 AM 45.9°F7.7°C 45.3°F7.4°C 98% 3.9 mph S6.3 kmh S 6.5 mph10.5 kmh 29.83 in1010.2 mb 0.00 in0.0 mm 0.00 in0.0 mm 0.00 in0.0 mm
01:28 AM 45.9°F7.7°C 45.3°F7.4°C 98% 4.0 mph SSE6.4 kmh SSE 6.5 mph10.5 kmh 29.83 in1010.2 mb 0.00 in0.0 mm 0.00 in0.0 mm 0.00 in0.0 mm
01:29 AM 45.9°F7.7°C 45.3°F7.4°C 98% 3.9 mph SSE6.3 kmh SSE 6.5 mph10.5 kmh 29.80 in1009.1 mb 0.00 in0.0 mm 0.00 in0.0 mm 0.00 in0.0 mm
01:30 AM 45.9°F7.7°C 45.3°F7.4°C 98% 3.7 mph SSE6.0 kmh SSE 6.5 mph10.5 kmh 29.80 in1009.1 mb 0.00 in0.0 mm 0.00 in0.0 mm 0.00 in0.0 mm
01:31 AM 45.9°F7.7°C 45.3°F7.4°C 98% 3.5 mph SSE5.6 kmh SSE 6.5 mph10.5 kmh 29.80 in1009.1 mb 0.00 in0.0 mm 0.00 in0.0 mm 0.00 in0.0 mm
01:32 AM 45.9°F7.7°C 45.3°F7.4°C 98% 3.2 mph SE5.1 kmh SE 6.5 mph10.5 kmh 29.80 in1009.1 mb 0.00 in0.0 mm 0.00 in0.0 mm 0.00 in0.0 mm
01:33 AM 45.9°F7.7°C 45.3°F7.4°C 98% 4.0 mph SE6.4 kmh SE 7.8 mph12.6 kmh 29.80 in1009.1 mb 0.00 in0.0 mm 0.00 in0.0 mm 0.00 in0.0 mm
01:34 AM 45.9°F7.7°C 45.3°F7.4°C 98% 3.7 mph SE6.0 kmh SE 7.8 mph12.6 kmh 29.80 in1009.1 mb 0.00 in0.0 mm 0.00 in0.0 mm 0.00 in0.0 mm
01:35 AM 45.9°F7.7°C 45.3°F7.4°C 98% 3.5 mph SE5.6 kmh SE 7.8 mph12.6 kmh 29.80 in1009.1 mb 0.00 in0.0 mm 0.00 in0.0 mm 0.00 in0.0 mm
01:36 AM 45.9°F7.7°C 45.3°F7.4°C 98% 3.1 mph SE5.0 kmh SE 7.8 mph12.6 kmh 29.80 in1009.1 mb 0.00 in0.0 mm 0.00 in0.0 mm 0.00 in0.0 mm
01:37 AM 45.9°F7.7°C 45.3°F7.4°C 98% 4.2 mph SE6.8 kmh SE 8.5 mph13.7 kmh 29.80 in1009.1 mb 0.00 in0.0 mm 0.00 in0.0 mm 0.00 in0.0 mm
01:38 AM 45.9°F7.7°C 45.3°F7.4°C 98% 3.8 mph SSE6.1 kmh SSE 8.5 mph13.7 kmh 29.80 in1009.1 mb 0.00 in0.0 mm 0.00 in0.0 mm 0.00 in0.0 mm
01:39 AM 45.9°F7.7°C 45.3°F7.4°C 98% 3.9 mph SSE6.3 kmh SSE 8.5 mph13.7 kmh 29.80 in1009.1 mb 0.00 in0.0 mm 0.00 in0.0 mm 0.00 in0.0 mm
01:40 AM 45.9°F7.7°C 45.3°F7.4°C 98% 4.2 mph SSE6.8 kmh SSE 8.5 mph13.7 kmh 29.80 in1009.1 mb 0.00 in0.0 mm 0.00 in0.0 mm 0.00 in0.0 mm
01:41 AM 45.9°F7.7°C 45.3°F7.4°C 98% 4.3 mph SSE6.9 kmh SSE 8.5 mph13.7 kmh 29.80 in1009.1 mb 0.00 in0.0 mm 0.00 in0.0 mm 0.00 in0.0 mm
01:42 AM 45.9°F7.7°C 45.3°F7.4°C 98% 4.9 mph SSE7.9 kmh SSE 8.5 mph13.7 kmh 29.80 in1009.1 mb 0.00 in0.0 mm 0.00 in0.0 mm 0.00 in0.0 mm
01:43 AM 45.9°F7.7°C 45.3°F7.4°C 98% 4.6 mph SSE7.4 kmh SSE 8.5 mph13.7 kmh 29.80 in1009.1 mb 0.00 in0.0 mm 0.00 in0.0 mm 0.00 in0.0 mm
01:44 AM 45.9°F7.7°C 45.3°F7.4°C 98% 4.5 mph SSE7.2 kmh SSE 8.5 mph13.7 kmh 29.80 in1009.1 mb 0.00 in0.0 mm 0.00 in0.0 mm 0.00 in0.0 mm
01:45 AM 45.9°F7.7°C 45.3°F7.4°C 98% 4.5 mph SSE7.2 kmh SSE 8.5 mph13.7 kmh 29.80 in1009.1 mb 0.00 in0.0 mm 0.00 in0.0 mm 0.00 in0.0 mm
01:46 AM 46.0°F7.8°C 45.5°F7.5°C 98% 4.3 mph SSE6.9 kmh SSE 8.5 mph13.7 kmh 29.80 in1009.1 mb 0.00 in0.0 mm 0.00 in0.0 mm 0.00 in0.0 mm
01:47 AM 46.0°F7.8°C 45.5°F7.5°C 98% 4.0 mph SSE6.4 kmh SSE 8.5 mph13.7 kmh 29.80 in1009.1 mb 0.00 in0.0 mm 0.00 in0.0 mm 0.00 in0.0 mm
01:48 AM 46.0°F7.8°C 45.5°F7.5°C 98% 3.2 mph S5.1 kmh S 6.0 mph9.7 kmh 29.80 in1009.1 mb 0.00 in0.0 mm 0.00 in0.0 mm 0.00 in0.0 mm
01:49 AM 46.0°F7.8°C 45.5°F7.5°C 98% 3.2 mph S5.1 kmh S 6.0 mph9.7 kmh 29.80 in1009.1 mb 0.00 in0.0 mm 0.00 in0.0 mm 0.00 in0.0 mm
01:50 AM 46.0°F7.8°C 45.5°F7.5°C 98% 3.3 mph S5.3 kmh S 6.0 mph9.7 kmh 29.80 in1009.1 mb 0.00 in0.0 mm 0.00 in0.0 mm 0.00 in0.0 mm
01:51 AM 46.0°F7.8°C 45.5°F7.5°C 98% 2.7 mph S4.3 kmh S 4.3 mph6.9 kmh 29.80 in1009.1 mb 0.00 in0.0 mm 0.00 in0.0 mm 0.00 in0.0 mm
01:52 AM 46.0°F7.8°C 45.5°F7.5°C 98% 2.5 mph S4.0 kmh S 4.3 mph6.9 kmh 29.80 in1009.1 mb 0.00 in0.0 mm 0.00 in0.0 mm 0.00 in0.0 mm
01:53 AM 46.0°F7.8°C 45.5°F7.5°C 98% 2.6 mph S4.2 kmh S 5.6 mph9.0 kmh 29.80 in1009.1 mb 0.00 in0.0 mm 0.00 in0.0 mm 0.00 in0.0 mm
01:54 AM 46.0°F7.8°C 45.5°F7.5°C 98% 2.3 mph S3.7 kmh S 5.6 mph9.0 kmh 29.80 in1009.1 mb 0.00 in0.0 mm 0.00 in0.0 mm 0.00 in0.0 mm
01:55 AM 46.0°F7.8°C 45.5°F7.5°C 98% 2.2 mph SSE3.5 kmh SSE 5.6 mph9.0 kmh 29.80 in1009.1 mb 0.00 in0.0 mm 0.00 in0.0 mm 0.00 in0.0 mm
01:56 AM 46.2°F7.9°C 45.7°F7.6°C 98% 2.2 mph S3.5 kmh S 5.6 mph9.0 kmh 29.80 in1009.1 mb 0.00 in0.0 mm 0.00 in0.0 mm 0.00 in0.0 mm
01:57 AM 46.2°F7.9°C 45.7°F7.6°C 98% 2.1 mph S3.4 kmh S 5.6 mph9.0 kmh 29.80 in1009.1 mb 0.00 in0.0 mm 0.00 in0.0 mm 0.00 in0.0 mm
01:58 AM 46.2°F7.9°C 45.7°F7.6°C 98% 2.5 mph S4.0 kmh S 5.6 mph9.0 kmh 29.80 in1009.1 mb 0.00 in0.0 mm 0.00 in0.0 mm 0.00 in0.0 mm
01:59 AM 46.2°F7.9°C 45.7°F7.6°C 98% 2.4 mph S3.9 kmh S 5.6 mph9.0 kmh 29.80 in1009.1 mb 0.00 in0.0 mm 0.00 in0.0 mm 0.00 in0.0 mm
02:00 AM 46.2°F7.9°C 45.7°F7.6°C 98% 2.4 mph S3.9 kmh S 5.6 mph9.0 kmh 29.80 in1009.1 mb 0.00 in0.0 mm 0.00 in0.0 mm 0.00 in0.0 mm
02:01 AM 46.2°F7.9°C 45.7°F7.6°C 98% 2.3 mph S3.7 kmh S 5.6 mph9.0 kmh 29.80 in1009.1 mb 0.00 in0.0 mm 0.00 in0.0 mm 0.00 in0.0 mm
02:02 AM 46.2°F7.9°C 45.7°F7.6°C 98% 2.3 mph SSE3.7 kmh SSE 5.6 mph9.0 kmh 29.80 in1009.1 mb 0.00 in0.0 mm 0.00 in0.0 mm 0.00 in0.0 mm
02:03 AM 46.2°F7.9°C 45.7°F7.6°C 98% 2.2 mph SSE3.5 kmh SSE 5.6 mph9.0 kmh 29.80 in1009.1 mb 0.00 in0.0 mm 0.00 in0.0 mm 0.00 in0.0 mm
02:04 AM 46.2°F7.9°C 45.7°F7.6°C 98% 2.0 mph S3.2 kmh S 4.3 mph6.9 kmh 29.80 in1009.1 mb 0.00 in0.0 mm 0.00 in0.0 mm 0.00 in0.0 mm
02:05 AM 46.2°F7.9°C 45.7°F7.6°C 98% 2.1 mph S3.4 kmh S 4.3 mph6.9 kmh 29.80 in1009.1 mb 0.00 in0.0 mm 0.00 in0.0 mm 0.00 in0.0 mm
02:06 AM 46.2°F7.9°C 45.7°F7.6°C 98% 2.2 mph S3.5 kmh S 4.3 mph6.9 kmh 29.80 in1009.1 mb 0.00 in0.0 mm 0.00 in0.0 mm 0.00 in0.0 mm
02:07 AM 46.2°F7.9°C 45.7°F7.6°C 98% 2.2 mph S3.5 kmh S 4.3 mph6.9 kmh 29.80 in1009.1 mb 0.00 in0.0 mm 0.00 in0.0 mm 0.00 in0.0 mm
02:08 AM 46.2°F7.9°C 45.7°F7.6°C 98% 2.2 mph S3.5 kmh S 4.3 mph6.9 kmh 29.80 in1009.1 mb 0.00 in0.0 mm 0.00 in0.0 mm 0.00 in0.0 mm
02:09 AM 46.4°F8.0°C 45.9°F7.7°C 98% 2.3 mph SSE3.7 kmh SSE 4.3 mph6.9 kmh 29.80 in1009.1 mb 0.00 in0.0 mm 0.00 in0.0 mm 0.00 in0.0 mm
02:10 AM 46.4°F8.0°C 45.9°F7.7°C 98% 2.1 mph SSE3.4 kmh SSE 4.3 mph6.9 kmh 29.80 in1009.1 mb 0.00 in0.0 mm 0.00 in0.0 mm 0.00 in0.0 mm
02:11 AM 46.4°F8.0°C 45.9°F7.7°C 98% 2.4 mph SSE3.9 kmh SSE 4.7 mph7.6 kmh 29.80 in1009.1 mb 0.00 in0.0 mm 0.00 in0.0 mm 0.00 in0.0 mm
02:12 AM 46.4°F8.0°C 45.9°F7.7°C 98% 2.7 mph S4.3 kmh S 4.7 mph7.6 kmh 29.80 in1009.1 mb 0.00 in0.0 mm 0.00 in0.0 mm 0.00 in0.0 mm
02:13 AM 46.4°F8.0°C 45.9°F7.7°C 98% 2.9 mph S4.7 kmh S 4.7 mph7.6 kmh 29.80 in1009.1 mb 0.00 in0.0 mm 0.00 in0.0 mm 0.00 in0.0 mm
02:14 AM 46.4°F8.0°C 45.9°F7.7°C 98% 3.1 mph S5.0 kmh S 4.7 mph7.6 kmh 29.80 in1009.1 mb 0.00 in0.0 mm 0.00 in0.0 mm 0.00 in0.0 mm
02:15 AM 46.4°F8.0°C 45.9°F7.7°C 98% 3.1 mph S5.0 kmh S 4.7 mph7.6 kmh 29.80 in1009.1 mb 0.00 in0.0 mm 0.00 in0.0 mm 0.00 in0.0 mm
02:16 AM 46.4°F8.0°C 45.9°F7.7°C 98% 3.2 mph S5.1 kmh S 4.7 mph7.6 kmh 29.80 in1009.1 mb 0.00 in0.0 mm 0.00 in0.0 mm 0.00 in0.0 mm
02:17 AM 46.4°F8.0°C 45.9°F7.7°C 98% 3.3 mph S5.3 kmh S 4.7 mph7.6 kmh 29.80 in1009.1 mb 0.00 in0.0 mm 0.00 in0.0 mm 0.00 in0.0 mm
02:18 AM 46.4°F8.0°C 45.9°F7.7°C 98% 3.7 mph S6.0 kmh S 5.4 mph8.7 kmh 29.80 in1009.1 mb 0.00 in0.0 mm 0.00 in0.0 mm 0.00 in0.0 mm
02:19 AM 46.4°F8.0°C 45.9°F7.7°C 98% 3.7 mph S6.0 kmh S 5.4 mph8.7 kmh 29.80 in1009.1 mb 0.00 in0.0 mm 0.00 in0.0 mm 0.00 in0.0 mm
02:20 AM 46.4°F8.0°C 45.9°F7.7°C 98% 3.8 mph S6.1 kmh S 5.4 mph8.7 kmh 29.80 in1009.1 mb 0.00 in0.0 mm 0.00 in0.0 mm 0.00 in0.0 mm
02:21 AM 46.4°F8.0°C 45.9°F7.7°C 98% 3.9 mph S6.3 kmh S 5.4 mph8.7 kmh 29.80 in1009.1 mb 0.00 in0.0 mm 0.00 in0.0 mm 0.00 in0.0 mm
02:22 AM 46.4°F8.0°C 45.9°F7.7°C 98% 4.3 mph S6.9 kmh S 10.1 mph16.3 kmh 29.80 in1009.1 mb 0.00 in0.0 mm 0.00 in0.0 mm 0.00 in0.0 mm
02:23 AM 46.4°F8.0°C 45.9°F7.7°C 98% 4.7 mph S7.6 kmh S 10.1 mph16.3 kmh 29.80 in1009.1 mb 0.00 in0.0 mm 0.00 in0.0 mm 0.00 in0.0 mm
02:24 AM 46.4°F8.0°C 45.9°F7.7°C 98% 4.9 mph S7.9 kmh S 10.1 mph16.3 kmh 29.80 in1009.1 mb 0.00 in0.0 mm 0.00 in0.0 mm 0.00 in0.0 mm
02:25 AM 46.4°F8.0°C 45.9°F7.7°C 98% 5.1 mph S8.2 kmh S 10.1 mph16.3 kmh 29.80 in1009.1 mb 0.00 in0.0 mm 0.00 in0.0 mm 0.00 in0.0 mm
02:26 AM 46.4°F8.0°C 45.9°F7.7°C 98% 5.1 mph S8.2 kmh S 10.1 mph16.3 kmh 29.80 in1009.1 mb 0.00 in0.0 mm 0.00 in0.0 mm 0.00 in0.0 mm
02:27 AM 46.4°F8.0°C 45.9°F7.7°C 98% 5.0 mph SSE8.0 kmh SSE 10.1 mph16.3 kmh 29.80 in1009.1 mb 0.00 in0.0 mm 0.00 in0.0 mm 0.00 in0.0 mm
02:28 AM 46.4°F8.0°C 45.9°F7.7°C 98% 5.0 mph SSE8.0 kmh SSE 10.1 mph16.3 kmh 29.80 in1009.1 mb 0.00 in0.0 mm 0.00 in0.0 mm 0.00 in0.0 mm
02:29 AM 46.4°F8.0°C 45.9°F7.7°C 98% 5.1 mph SSE8.2 kmh SSE 10.1 mph16.3 kmh 29.77 in1008.1 mb 0.00 in0.0 mm 0.00 in0.0 mm 0.00 in0.0 mm
02:30 AM 46.4°F8.0°C 45.9°F7.7°C 98% 5.1 mph SSE8.2 kmh SSE 10.1 mph16.3 kmh 29.77 in1008.1 mb 0.00 in0.0 mm 0.00 in0.0 mm 0.00 in0.0 mm
02:31 AM 46.4°F8.0°C 45.9°F7.7°C 98% 5.1 mph SSE8.2 kmh SSE 10.1 mph16.3 kmh 29.77 in1008.1 mb 0.00 in0.0 mm 0.00 in0.0 mm 0.00 in0.0 mm
02:32 AM 46.6°F8.1°C 46.0°F7.8°C 98% 5.8 mph SE9.3 kmh SE 10.1 mph16.3 kmh 29.77 in1008.1 mb 0.00 in0.0 mm 0.00 in0.0 mm 0.00 in0.0 mm
02:33 AM 46.6°F8.1°C 46.0°F7.8°C 98% 5.2 mph SE8.4 kmh SE 10.1 mph16.3 kmh 29.77 in1008.1 mb 0.00 in0.0 mm 0.00 in0.0 mm 0.00 in0.0 mm
02:34 AM 46.6°F8.1°C 46.0°F7.8°C 98% 5.6 mph SE9.0 kmh SE 10.1 mph16.3 kmh 29.77 in1008.1 mb 0.00 in0.0 mm 0.00 in0.0 mm 0.00 in0.0 mm
02:35 AM 46.6°F8.1°C 46.0°F7.8°C 98% 5.1 mph SE8.2 kmh SE 10.1 mph16.3 kmh 29.77 in1008.1 mb 0.00 in0.0 mm 0.00 in0.0 mm 0.00 in0.0 mm
02:36 AM 46.6°F8.1°C 46.0°F7.8°C 98% 5.1 mph SE8.2 kmh SE 10.1 mph16.3 kmh 29.77 in1008.1 mb 0.00 in0.0 mm 0.00 in0.0 mm 0.00 in0.0 mm
02:37 AM 46.6°F8.1°C 46.0°F7.8°C 98% 4.9 mph SSE7.9 kmh SSE 10.1 mph16.3 kmh 29.77 in1008.1 mb 0.00 in0.0 mm 0.00 in0.0 mm 0.00 in0.0 mm
02:38 AM 46.6°F8.1°C 46.0°F7.8°C 98% 5.1 mph SSE8.2 kmh SSE 10.1 mph16.3 kmh 29.77 in1008.1 mb 0.00 in0.0 mm 0.00 in0.0 mm 0.00 in0.0 mm
02:39 AM 46.6°F8.1°C 46.0°F7.8°C 98% 5.0 mph SSE8.0 kmh SSE 10.1 mph16.3 kmh 29.77 in1008.1 mb 0.00 in0.0 mm 0.00 in0.0 mm 0.00 in0.0 mm
02:40 AM 46.6°F8.1°C 46.0°F7.8°C 98% 5.0 mph SSE8.0 kmh SSE 10.1 mph16.3 kmh 29.77 in1008.1 mb 0.00 in0.0 mm 0.00 in0.0 mm 0.00 in0.0 mm
02:41 AM 46.6°F8.1°C 46.0°F7.8°C 98% 4.9 mph SSE7.9 kmh SSE 10.1 mph16.3 kmh 29.77 in1008.1 mb 0.00 in0.0 mm 0.00 in0.0 mm 0.00 in0.0 mm
02:42 AM 46.6°F8.1°C 46.0°F7.8°C 98% 4.2 mph SSE6.8 kmh SSE 9.6 mph15.4 kmh 29.77 in1008.1 mb 0.00 in0.0 mm 0.00 in0.0 mm 0.00 in0.0 mm
02:43 AM 46.6°F8.1°C 46.0°F7.8°C 98% 4.1 mph SSE6.6 kmh SSE 9.6 mph15.4 kmh 29.77 in1008.1 mb 0.00 in0.0 mm 0.00 in0.0 mm 0.00 in0.0 mm
02:44 AM 46.6°F8.1°C 46.0°F7.8°C 98% 3.6 mph SSE5.8 kmh SSE 9.6 mph15.4 kmh 29.74 in1007.1 mb 0.00 in0.0 mm 0.00 in0.0 mm 0.00 in0.0 mm
02:45 AM 46.6°F8.1°C 46.0°F7.8°C 98% 3.2 mph SSE5.1 kmh SSE 8.1 mph13.0 kmh 29.74 in1007.1 mb 0.00 in0.0 mm 0.00 in0.0 mm 0.00 in0.0 mm
02:46 AM 46.6°F8.1°C 46.0°F7.8°C 98% 3.3 mph SSE5.3 kmh SSE 8.1 mph13.0 kmh 29.74 in1007.1 mb 0.00 in0.0 mm 0.00 in0.0 mm 0.00 in0.0 mm
02:47 AM 46.6°F8.1°C 46.0°F7.8°C 98% 3.6 mph SSE5.8 kmh SSE 8.1 mph13.0 kmh 29.74 in1007.1 mb 0.00 in0.0 mm 0.00 in0.0 mm 0.00 in0.0 mm
02:48 AM 46.6°F8.1°C 46.0°F7.8°C 98% 3.3 mph SSE5.3 kmh SSE 8.1 mph13.0 kmh 29.74 in1007.1 mb 0.00 in0.0 mm 0.00 in0.0 mm 0.00 in0.0 mm
02:49 AM 46.6°F8.1°C 46.0°F7.8°C 98% 3.4 mph SSE5.5 kmh SSE 5.6 mph9.0 kmh 29.74 in1007.1 mb 0.00 in0.0 mm 0.00 in0.0 mm 0.00 in0.0 mm
02:50 AM 46.6°F8.1°C 46.0°F7.8°C 98% 3.4 mph SSE5.5 kmh SSE 5.6 mph9.0 kmh 29.74 in1007.1 mb 0.00 in0.0 mm 0.00 in0.0 mm 0.00 in0.0 mm
02:51 AM 46.6°F8.1°C 46.0°F7.8°C 98% 3.4 mph SSE5.5 kmh SSE 5.6 mph9.0 kmh 29.74 in1007.1 mb 0.00 in0.0 mm 0.00 in0.0 mm 0.00 in0.0 mm
02:52 AM 46.6°F8.1°C 46.0°F7.8°C 98% 3.4 mph SSE5.5 kmh SSE 5.6 mph9.0 kmh 29.74 in1007.1 mb 0.00 in0.0 mm 0.00 in0.0 mm 0.00 in0.0 mm
02:53 AM 46.6°F8.1°C 46.0°F7.8°C 98% 3.3 mph SSE5.3 kmh SSE 5.6 mph9.0 kmh 29.74 in1007.1 mb 0.00 in0.0 mm 0.00 in0.0 mm 0.00 in0.0 mm
02:54 AM 46.6°F8.1°C 46.0°F7.8°C 98% 3.4 mph SSE5.5 kmh SSE 5.6 mph9.0 kmh 29.74 in1007.1 mb 0.00 in0.0 mm 0.00 in0.0 mm 0.00 in0.0 mm
02:55 AM 46.6°F8.1°C 46.0°F7.8°C 98% 3.4 mph SSE5.5 kmh SSE 5.6 mph9.0 kmh 29.74 in1007.1 mb 0.00 in0.0 mm 0.00 in0.0 mm 0.00 in0.0 mm
02:56 AM 46.6°F8.1°C 46.0°F7.8°C 98% 3.8 mph SSE6.1 kmh SSE 8.1 mph13.0 kmh 29.74 in1007.1 mb 0.00 in0.0 mm 0.00 in0.0 mm 0.00 in0.0 mm
02:57 AM 46.6°F8.1°C 46.0°F7.8°C 98% 4.2 mph S6.8 kmh S 8.1 mph13.0 kmh 29.74 in1007.1 mb 0.00 in0.0 mm 0.00 in0.0 mm 0.00 in0.0 mm
02:58 AM 46.8°F8.2°C 46.2°F7.9°C 98% 4.4 mph SSE7.1 kmh SSE 8.1 mph13.0 kmh 29.74 in1007.1 mb 0.00 in0.0 mm 0.00 in0.0 mm 0.00 in0.0 mm
02:59 AM 46.8°F8.2°C 46.2°F7.9°C 98% 4.5 mph SSE7.2 kmh SSE 8.1 mph13.0 kmh 29.74 in1007.1 mb 0.00 in0.0 mm 0.00 in0.0 mm 0.00 in0.0 mm
03:00 AM 46.8°F8.2°C 46.2°F7.9°C 98% 4.8 mph S7.7 kmh S 8.1 mph13.0 kmh 29.74 in1007.1 mb 0.00 in0.0 mm 0.00 in0.0 mm 0.00 in0.0 mm
03:01 AM 46.8°F8.2°C 46.2°F7.9°C 98% 4.9 mph S7.9 kmh S 8.1 mph13.0 kmh 29.74 in1007.1 mb 0.00 in0.0 mm 0.00 in0.0 mm 0.00 in0.0 mm
03:02 AM 46.8°F8.2°C 46.2°F7.9°C 98% 4.9 mph SSE7.9 kmh SSE 8.1 mph13.0 kmh 29.74 in1007.1 mb 0.00 in0.0 mm 0.00 in0.0 mm 0.00 in0.0 mm
03:03 AM 46.8°F8.2°C 46.2°F7.9°C 98% 4.8 mph SSE7.7 kmh SSE 8.1 mph13.0 kmh 29.74 in1007.1 mb 0.00 in0.0 mm 0.00 in0.0 mm 0.00 in0.0 mm
03:04 AM 46.8°F8.2°C 46.2°F7.9°C 98% 4.5 mph S7.2 kmh S 8.1 mph13.0 kmh 29.74 in1007.1 mb 0.00 in0.0 mm 0.00 in0.0 mm 0.00 in0.0 mm
03:05 AM 46.8°F8.2°C 46.2°F7.9°C 98% 4.6 mph S7.4 kmh S 8.1 mph13.0 kmh 29.74 in1007.1 mb 0.00 in0.0 mm 0.00 in0.0 mm 0.00 in0.0 mm
03:06 AM 46.8°F8.2°C 46.2°F7.9°C 98% 4.3 mph S6.9 kmh S 8.1 mph13.0 kmh 29.74 in1007.1 mb 0.00 in0.0 mm 0.00 in0.0 mm 0.00 in0.0 mm
03:07 AM 46.8°F8.2°C 46.2°F7.9°C 98% 4.5 mph S7.2 kmh S 7.4 mph11.9 kmh 29.74 in1007.1 mb 0.00 in0.0 mm 0.00 in0.0 mm 0.00 in0.0 mm
03:08 AM 46.8°F8.2°C 46.2°F7.9°C 98% 4.3 mph S6.9 kmh S 7.4 mph11.9 kmh 29.74 in1007.1 mb 0.00 in0.0 mm 0.00 in0.0 mm 0.00 in0.0 mm
03:09 AM 46.9°F8.3°C 46.4°F8.0°C 98% 4.2 mph S6.8 kmh S 7.4 mph11.9 kmh 29.74 in1007.1 mb 0.00 in0.0 mm 0.00 in0.0 mm 0.00 in0.0 mm
03:10 AM 46.9°F8.3°C 46.4°F8.0°C 98% 4.1 mph S6.6 kmh S 7.4 mph11.9 kmh 29.74 in1007.1 mb 0.00 in0.0 mm 0.00 in0.0 mm 0.00 in0.0 mm
03:11 AM 46.9°F8.3°C 46.4°F8.0°C 98% 4.0 mph S6.4 kmh S 7.4 mph11.9 kmh 29.74 in1007.1 mb 0.00 in0.0 mm 0.00 in0.0 mm 0.00 in0.0 mm
03:12 AM 46.9°F8.3°C 46.4°F8.0°C 98% 3.8 mph S6.1 kmh S 7.4 mph11.9 kmh 29.74 in1007.1 mb 0.00 in0.0 mm 0.00 in0.0 mm 0.00 in0.0 mm
03:13 AM 46.9°F8.3°C 46.4°F8.0°C 98% 3.8 mph S6.1 kmh S 7.4 mph11.9 kmh 29.74 in1007.1 mb 0.00 in0.0 mm 0.00 in0.0 mm 0.00 in0.0 mm
03:14 AM 46.9°F8.3°C 46.4°F8.0°C 98% 4.8 mph S7.7 kmh S 8.1 mph13.0 kmh 29.74 in1007.1 mb 0.00 in0.0 mm 0.00 in0.0 mm 0.00 in0.0 mm
03:15 AM 46.9°F8.3°C 46.4°F8.0°C 98% 4.9 mph S7.9 kmh S 8.1 mph13.0 kmh 29.74 in1007.1 mb 0.00 in0.0 mm 0.00 in0.0 mm 0.00 in0.0 mm
03:16 AM 46.9°F8.3°C 46.4°F8.0°C 98% 4.9 mph S7.9 kmh S 8.1 mph13.0 kmh 29.74 in1007.1 mb 0.00 in0.0 mm 0.00 in0.0 mm 0.00 in0.0 mm
03:17 AM 46.9°F8.3°C 46.4°F8.0°C 98% 4.5 mph S7.2 kmh S 8.1 mph13.0 kmh 29.74 in1007.1 mb 0.00 in0.0 mm 0.00 in0.0 mm 0.00 in0.0 mm
03:18 AM 46.9°F8.3°C 46.4°F8.0°C 98% 4.4 mph S7.1 kmh S 8.1 mph13.0 kmh 29.74 in1007.1 mb 0.00 in0.0 mm 0.00 in0.0 mm 0.00 in0.0 mm
03:19 AM 46.9°F8.3°C 46.4°F8.0°C 98% 4.1 mph S6.6 kmh S 8.1 mph13.0 kmh 29.74 in1007.1 mb 0.00 in0.0 mm 0.00 in0.0 mm 0.00 in0.0 mm
03:20 AM 46.9°F8.3°C 46.4°F8.0°C 98% 4.1 mph S6.6 kmh S 8.1 mph13.0 kmh 29.74 in1007.1 mb 0.00 in0.0 mm 0.00 in0.0 mm 0.00 in0.0 mm
03:21 AM 47.1°F8.4°C 46.6°F8.1°C 98% 3.9 mph S6.3 kmh S 8.1 mph13.0 kmh 29.74 in1007.1 mb 0.00 in0.0 mm 0.00 in0.0 mm 0.00 in0.0 mm
03:22 AM 47.1°F8.4°C 46.6°F8.1°C 98% 3.7 mph S6.0 kmh S 8.1 mph13.0 kmh 29.74 in1007.1 mb 0.00 in0.0 mm 0.00 in0.0 mm 0.00 in0.0 mm
03:23 AM 47.1°F8.4°C 46.6°F8.1°C 98% 3.6 mph S5.8 kmh S 8.1 mph13.0 kmh 29.74 in1007.1 mb 0.00 in0.0 mm 0.00 in0.0 mm 0.00 in0.0 mm
03:24 AM 47.1°F8.4°C 46.6°F8.1°C 98% 3.2 mph S5.1 kmh S 8.1 mph13.0 kmh 29.74 in1007.1 mb 0.00 in0.0 mm 0.00 in0.0 mm 0.00 in0.0 mm
03:25 AM 47.1°F8.4°C 46.6°F8.1°C 98% 2.5 mph S4.0 kmh S 4.7 mph7.6 kmh 29.74 in1007.1 mb 0.00 in0.0 mm 0.00 in0.0 mm 0.00 in0.0 mm
03:26 AM 47.1°F8.4°C 46.6°F8.1°C 98% 2.4 mph SSW3.9 kmh SSW 4.7 mph7.6 kmh 29.74 in1007.1 mb 0.00 in0.0 mm 0.00 in0.0 mm 0.00 in0.0 mm
03:27 AM 47.1°F8.4°C 46.6°F8.1°C 98% 2.5 mph SW4.0 kmh SW 5.8 mph9.3 kmh 29.74 in1007.1 mb 0.00 in0.0 mm 0.00 in0.0 mm 0.00 in0.0 mm
03:28 AM 47.1°F8.4°C 46.6°F8.1°C 98% 2.2 mph SSW3.5 kmh SSW 5.8 mph9.3 kmh 29.74 in1007.1 mb 0.00 in0.0 mm 0.00 in0.0 mm 0.00 in0.0 mm
03:29 AM 47.1°F8.4°C 46.6°F8.1°C 98% 2.8 mph S4.5 kmh S 7.2 mph11.6 kmh 29.71 in1006.1 mb 0.00 in0.0 mm 0.00 in0.0 mm 0.00 in0.0 mm
03:30 AM 47.1°F8.4°C 46.6°F8.1°C 98% 3.0 mph S4.8 kmh S 7.2 mph11.6 kmh 29.71 in1006.1 mb 0.00 in0.0 mm 0.00 in0.0 mm 0.00 in0.0 mm
03:31 AM 47.1°F8.4°C 46.6°F8.1°C 98% 2.9 mph S4.7 kmh S 7.2 mph11.6 kmh 29.71 in1006.1 mb 0.00 in0.0 mm 0.00 in0.0 mm 0.00 in0.0 mm
03:32 AM 47.1°F8.4°C 46.6°F8.1°C 98% 3.1 mph S5.0 kmh S 7.2 mph11.6 kmh 29.71 in1006.1 mb 0.00 in0.0 mm 0.00 in0.0 mm 0.00 in0.0 mm
03:33 AM 47.1°F8.4°C 46.6°F8.1°C 98% 3.1 mph SSW5.0 kmh SSW 7.2 mph11.6 kmh 29.71 in1006.1 mb 0.00 in0.0 mm 0.00 in0.0 mm 0.00 in0.0 mm
03:34 AM 47.3°F8.5°C 46.8°F8.2°C 98% 3.1 mph SSW5.0 kmh SSW 7.2 mph11.6 kmh 29.71 in1006.1 mb 0.00 in0.0 mm 0.00 in0.0 mm 0.00 in0.0 mm
03:35 AM 47.3°F8.5°C 46.8°F8.2°C 98% 3.2 mph SSW5.1 kmh SSW 7.2 mph11.6 kmh 29.71 in1006.1 mb 0.00 in0.0 mm 0.00 in0.0 mm 0.00 in0.0 mm
03:36 AM 47.3°F8.5°C 46.8°F8.2°C 98% 3.5 mph SSW5.6 kmh SSW 7.2 mph11.6 kmh 29.71 in1006.1 mb 0.00 in0.0 mm 0.00 in0.0 mm 0.00 in0.0 mm
03:37 AM 47.3°F8.5°C 46.8°F8.2°C 98% 3.3 mph S5.3 kmh S 7.2 mph11.6 kmh 29.71 in1006.1 mb 0.00 in0.0 mm 0.00 in0.0 mm 0.00 in0.0 mm
03:38 AM 47.3°F8.5°C 46.8°F8.2°C 98% 3.6 mph S5.8 kmh S 7.2 mph11.6 kmh 29.71 in1006.1 mb 0.00 in0.0 mm 0.00 in0.0 mm 0.00 in0.0 mm
03:39 AM 47.3°F8.5°C 46.8°F8.2°C 98% 3.8 mph S6.1 kmh S 7.2 mph11.6 kmh 29.71 in1006.1 mb 0.00 in0.0 mm 0.00 in0.0 mm 0.00 in0.0 mm
03:40 AM 47.3°F8.5°C 46.8°F8.2°C 98% 3.4 mph SSW5.5 kmh SSW 7.2 mph11.6 kmh 29.71 in1006.1 mb 0.00 in0.0 mm 0.00 in0.0 mm 0.00 in0.0 mm
03:41 AM 47.3°F8.5°C 46.8°F8.2°C 98% 3.2 mph SSW5.1 kmh SSW 6.3 mph10.1 kmh 29.71 in1006.1 mb 0.00 in0.0 mm 0.00 in0.0 mm 0.00 in0.0 mm
03:42 AM 47.3°F8.5°C 46.8°F8.2°C 98% 3.3 mph SSW5.3 kmh SSW 6.3 mph10.1 kmh 29.71 in1006.1 mb 0.00 in0.0 mm 0.00 in0.0 mm 0.00 in0.0 mm
03:43 AM 47.3°F8.5°C 46.8°F8.2°C 98% 3.1 mph SSW5.0 kmh SSW 6.3 mph10.1 kmh 29.71 in1006.1 mb 0.00 in0.0 mm 0.00 in0.0 mm 0.00 in0.0 mm
03:44 AM 47.3°F8.5°C 46.8°F8.2°C 98% 2.7 mph SSW4.3 kmh SSW 6.3 mph10.1 kmh 29.71 in1006.1 mb 0.00 in0.0 mm 0.00 in0.0 mm 0.00 in0.0 mm
03:45 AM 47.3°F8.5°C 46.8°F8.2°C 98% 2.6 mph SSW4.2 kmh SSW 6.3 mph10.1 kmh 29.71 in1006.1 mb 0.00 in0.0 mm 0.00 in0.0 mm 0.00 in0.0 mm
03:46 AM 47.3°F8.5°C 46.8°F8.2°C 98% 2.2 mph SSW3.5 kmh SSW 5.6 mph9.0 kmh 29.71 in1006.1 mb 0.00 in0.0 mm 0.00 in0.0 mm 0.00 in0.0 mm
03:47 AM 47.3°F8.5°C 46.8°F8.2°C 98% 2.4 mph SW3.9 kmh SW 5.6 mph9.0 kmh 29.71 in1006.1 mb 0.00 in0.0 mm 0.00 in0.0 mm 0.00 in0.0 mm
03:48 AM 47.3°F8.5°C 46.8°F8.2°C 98% 2.4 mph SW3.9 kmh SW 4.9 mph7.9 kmh 29.71 in1006.1 mb 0.00 in0.0 mm 0.00 in0.0 mm 0.00 in0.0 mm
03:49 AM 47.3°F8.5°C 46.8°F8.2°C 98% 2.1 mph SW3.4 kmh SW 4.9 mph7.9 kmh 29.71 in1006.1 mb 0.00 in0.0 mm 0.00 in0.0 mm 0.00 in0.0 mm
03:50 AM 47.3°F8.5°C 46.8°F8.2°C 98% 2.6 mph SW4.2 kmh SW 7.4 mph11.9 kmh 29.71 in1006.1 mb 0.00 in0.0 mm 0.00 in0.0 mm 0.00 in0.0 mm
03:51 AM 47.5°F8.6°C 46.9°F8.3°C 98% 2.2 mph WSW3.5 kmh WSW 7.4 mph11.9 kmh 29.71 in1006.1 mb 0.00 in0.0 mm 0.00 in0.0 mm 0.00 in0.0 mm
03:52 AM 47.5°F8.6°C 46.9°F8.3°C 98% 2.1 mph WSW3.4 kmh WSW 7.4 mph11.9 kmh 29.71 in1006.1 mb 0.00 in0.0 mm 0.00 in0.0 mm 0.00 in0.0 mm
03:53 AM 47.5°F8.6°C 46.9°F8.3°C 98% 2.5 mph WSW4.0 kmh WSW 7.4 mph11.9 kmh 29.71 in1006.1 mb 0.00 in0.0 mm 0.00 in0.0 mm 0.00 in0.0 mm
03:54 AM 47.5°F8.6°C 46.9°F8.3°C 98% 2.9 mph WSW4.7 kmh WSW 7.4 mph11.9 kmh 29.71 in1006.1 mb 0.00 in0.0 mm 0.00 in0.0 mm 0.00 in0.0 mm
03:55 AM 47.5°F8.6°C 46.9°F8.3°C 98% 3.4 mph WSW5.5 kmh WSW 7.4 mph11.9 kmh 29.71 in1006.1 mb 0.00 in0.0 mm 0.00 in0.0 mm 0.00 in0.0 mm
03:56 AM 47.5°F8.6°C 46.9°F8.3°C 98% 3.7 mph WSW6.0 kmh WSW 7.4 mph11.9 kmh 29.71 in1006.1 mb 0.00 in0.0 mm 0.00 in0.0 mm 0.00 in0.0 mm
03:57 AM 47.5°F8.6°C 46.9°F8.3°C 98% 3.6 mph WSW5.8 kmh WSW 7.4 mph11.9 kmh 29.71 in1006.1 mb 0.00 in0.0 mm 0.00 in0.0 mm 0.00 in0.0 mm
03:58 AM 47.5°F8.6°C 46.9°F8.3°C 98% 3.1 mph WSW5.0 kmh WSW 7.4 mph11.9 kmh 29.71 in1006.1 mb 0.00 in0.0 mm 0.00 in0.0 mm 0.00 in0.0 mm
03:59 AM 47.5°F8.6°C 46.9°F8.3°C 98% 3.1 mph WSW5.0 kmh WSW 7.4 mph11.9 kmh 29.71 in1006.1 mb 0.00 in0.0 mm 0.00 in0.0 mm 0.00 in0.0 mm
04:00 AM 47.5°F8.6°C 46.9°F8.3°C 98% 2.6 mph WSW4.2 kmh WSW 6.5 mph10.5 kmh 29.71 in1006.1 mb 0.00 in0.0 mm 0.00 in0.0 mm 0.00 in0.0 mm
04:01 AM 47.5°F8.6°C 46.9°F8.3°C 98% 2.7 mph WSW4.3 kmh WSW 6.5 mph10.5 kmh 29.71 in1006.1 mb 0.00 in0.0 mm 0.00 in0.0 mm 0.00 in0.0 mm
04:02 AM 47.7°F8.7°C 47.1°F8.4°C 98% 2.6 mph WSW4.2 kmh WSW 6.5 mph10.5 kmh 29.71 in1006.1 mb 0.00 in0.0 mm 0.00 in0.0 mm 0.00 in0.0 mm
04:03 AM 47.7°F8.7°C 47.1°F8.4°C 98% 2.3 mph WSW3.7 kmh WSW 6.5 mph10.5 kmh 29.71 in1006.1 mb 0.00 in0.0 mm 0.00 in0.0 mm 0.00 in0.0 mm
04:04 AM 47.7°F8.7°C 47.1°F8.4°C 98% 1.8 mph WSW2.9 kmh WSW 4.9 mph7.9 kmh 29.71 in1006.1 mb 0.00 in0.0 mm 0.00 in0.0 mm 0.00 in0.0 mm
04:05 AM 47.7°F8.7°C 47.1°F8.4°C 98% 1.3 mph WSW2.1 kmh WSW 4.9 mph7.9 kmh 29.71 in1006.1 mb 0.00 in0.0 mm 0.00 in0.0 mm 0.00 in0.0 mm
04:06 AM 47.7°F8.7°C 47.1°F8.4°C 98% 1.3 mph WSW2.1 kmh WSW 4.9 mph7.9 kmh 29.71 in1006.1 mb 0.00 in0.0 mm 0.00 in0.0 mm 0.00 in0.0 mm
04:07 AM 47.7°F8.7°C 47.1°F8.4°C 98% 0.7 mph SW1.1 kmh SW 4.0 mph6.4 kmh 29.71 in1006.1 mb 0.00 in0.0 mm 0.00 in0.0 mm 0.00 in0.0 mm
04:08 AM 47.7°F8.7°C 47.1°F8.4°C 98% 0.6 mph SW1.0 kmh SW 4.0 mph6.4 kmh 29.71 in1006.1 mb 0.00 in0.0 mm 0.00 in0.0 mm 0.00 in0.0 mm
04:09 AM 47.8°F8.8°C 47.3°F8.5°C 98% 0.6 mph SW1.0 kmh SW 4.0 mph6.4 kmh 29.71 in1006.1 mb 0.00 in0.0 mm 0.00 in0.0 mm 0.00 in0.0 mm
04:10 AM 47.8°F8.8°C 47.3°F8.5°C 98% 0.8 mph SW1.3 kmh SW 4.0 mph6.4 kmh 29.71 in1006.1 mb 0.00 in0.0 mm 0.00 in0.0 mm 0.00 in0.0 mm
04:11 AM 47.8°F8.8°C 47.3°F8.5°C 98% 1.0 mph SW1.6 kmh SW 4.0 mph6.4 kmh 29.71 in1006.1 mb 0.00 in0.0 mm 0.00 in0.0 mm 0.00 in0.0 mm
04:12 AM 47.8°F8.8°C 47.3°F8.5°C 98% 1.1 mph SW1.8 kmh SW 4.0 mph6.4 kmh 29.71 in1006.1 mb 0.00 in0.0 mm 0.00 in0.0 mm 0.00 in0.0 mm
04:13 AM 47.8°F8.8°C 47.3°F8.5°C 98% 1.5 mph SW2.4 kmh SW 4.0 mph6.4 kmh 29.71 in1006.1 mb 0.00 in0.0 mm 0.00 in0.0 mm 0.00 in0.0 mm
04:14 AM 47.8°F8.8°C 47.3°F8.5°C 98% 1.3 mph SW2.1 kmh SW 3.8 mph6.1 kmh 29.71 in1006.1 mb 0.00 in0.0 mm 0.00 in0.0 mm 0.00 in0.0 mm
04:15 AM 47.8°F8.8°C 47.3°F8.5°C 98% 1.5 mph SW2.4 kmh SW 4.0 mph6.4 kmh 29.71 in1006.1 mb 0.00 in0.0 mm 0.00 in0.0 mm 0.00 in0.0 mm
04:16 AM 47.8°F8.8°C 47.3°F8.5°C 98% 1.9 mph SW3.1 kmh SW 4.5 mph7.2 kmh 29.71 in1006.1 mb 0.00 in0.0 mm 0.00 in0.0 mm 0.00 in0.0 mm
04:17 AM 47.8°F8.8°C 47.3°F8.5°C 98% 2.3 mph WSW3.7 kmh WSW 6.5 mph10.5 kmh 29.71 in1006.1 mb 0.00 in0.0 mm 0.00 in0.0 mm 0.00 in0.0 mm
04:18 AM 48.0°F8.9°C 47.5°F8.6°C 98% 3.0 mph WSW4.8 kmh WSW 6.5 mph10.5 kmh 29.71 in1006.1 mb 0.00 in0.0 mm 0.00 in0.0 mm 0.00 in0.0 mm
04:19 AM 48.0°F8.9°C 47.5°F8.6°C 98% 3.2 mph WSW5.1 kmh WSW 6.5 mph10.5 kmh 29.71 in1006.1 mb 0.00 in0.0 mm 0.00 in0.0 mm 0.00 in0.0 mm
04:20 AM 48.2°F9.0°C 47.7°F8.7°C 98% 3.7 mph WSW6.0 kmh WSW 6.5 mph10.5 kmh 29.71 in1006.1 mb 0.00 in0.0 mm 0.00 in0.0 mm 0.00 in0.0 mm
04:21 AM 48.2°F9.0°C 47.7°F8.7°C 98% 3.9 mph WSW6.3 kmh WSW 6.5 mph10.5 kmh 29.71 in1006.1 mb 0.00 in0.0 mm 0.00 in0.0 mm 0.00 in0.0 mm
04:22 AM 48.2°F9.0°C 47.7°F8.7°C 98% 3.9 mph WSW6.3 kmh WSW 6.5 mph10.5 kmh 29.71 in1006.1 mb 0.00 in0.0 mm 0.00 in0.0 mm 0.00 in0.0 mm
04:23 AM 48.2°F9.0°C 47.7°F8.7°C 98% 3.9 mph WSW6.3 kmh WSW 6.5 mph10.5 kmh 29.71 in1006.1 mb 0.00 in0.0 mm 0.00 in0.0 mm 0.00 in0.0 mm
04:24 AM 48.2°F9.0°C 47.7°F8.7°C 98% 3.9 mph SW6.3 kmh SW 6.5 mph10.5 kmh 29.71 in1006.1 mb 0.00 in0.0 mm 0.00 in0.0 mm 0.00 in0.0 mm
04:25 AM 48.4°F9.1°C 47.8°F8.8°C 98% 4.5 mph SW7.2 kmh SW 6.5 mph10.5 kmh 29.71 in1006.1 mb 0.00 in0.0 mm 0.00 in0.0 mm 0.00 in0.0 mm
04:26 AM 48.4°F9.1°C 47.8°F8.8°C 98% 4.5 mph SW7.2 kmh SW 6.5 mph10.5 kmh 29.71 in1006.1 mb 0.00 in0.0 mm 0.00 in0.0 mm 0.00 in0.0 mm
04:27 AM 48.4°F9.1°C 47.8°F8.8°C 98% 4.1 mph SW6.6 kmh SW 6.5 mph10.5 kmh 29.71 in1006.1 mb 0.00 in0.0 mm 0.00 in0.0 mm 0.00 in0.0 mm
04:28 AM 48.4°F9.1°C 47.8°F8.8°C 98% 3.8 mph SSW6.1 kmh SSW 6.0 mph9.7 kmh 29.71 in1006.1 mb 0.00 in0.0 mm 0.00 in0.0 mm 0.00 in0.0 mm
04:29 AM 48.4°F9.1°C 47.8°F8.8°C 98% 3.7 mph SSW6.0 kmh SSW 6.0 mph9.7 kmh 29.71 in1006.1 mb 0.00 in0.0 mm 0.00 in0.0 mm 0.00 in0.0 mm
04:30 AM 48.4°F9.1°C 47.8°F8.8°C 98% 3.1 mph SSW5.0 kmh SSW 4.9 mph7.9 kmh 29.71 in1006.1 mb 0.00 in0.0 mm 0.00 in0.0 mm 0.00 in0.0 mm
04:31 AM 48.4°F9.1°C 47.8°F8.8°C 98% 3.1 mph SSW5.0 kmh SSW 4.9 mph7.9 kmh 29.71 in1006.1 mb 0.00 in0.0 mm 0.00 in0.0 mm 0.00 in0.0 mm
04:32 AM 48.6°F9.2°C 48.0°F8.9°C 98% 3.3 mph SSW5.3 kmh SSW 5.6 mph9.0 kmh 29.71 in1006.1 mb 0.00 in0.0 mm 0.00 in0.0 mm 0.00 in0.0 mm
04:33 AM 48.6°F9.2°C 48.0°F8.9°C 98% 3.4 mph SSW5.5 kmh SSW 5.6 mph9.0 kmh 29.71 in1006.1 mb 0.00 in0.0 mm 0.00 in0.0 mm 0.00 in0.0 mm
04:34 AM 48.6°F9.2°C 48.0°F8.9°C 98% 3.4 mph SSW5.5 kmh SSW 5.6 mph9.0 kmh 29.71 in1006.1 mb 0.00 in0.0 mm 0.00 in0.0 mm 0.00 in0.0 mm
04:35 AM 48.6°F9.2°C 48.0°F8.9°C 98% 3.1 mph SSW5.0 kmh SSW 5.6 mph9.0 kmh 29.71 in1006.1 mb 0.00 in0.0 mm 0.00 in0.0 mm 0.00 in0.0 mm
04:36 AM 48.6°F9.2°C 48.0°F8.9°C 98% 2.6 mph SSW4.2 kmh SSW 5.6 mph9.0 kmh 29.71 in1006.1 mb 0.00 in0.0 mm 0.00 in0.0 mm 0.00 in0.0 mm
04:37 AM 48.6°F9.2°C 48.0°F8.9°C 98% 2.3 mph S3.7 kmh S 5.6 mph9.0 kmh 29.71 in1006.1 mb 0.00 in0.0 mm 0.00 in0.0 mm 0.00 in0.0 mm
04:38 AM 48.6°F9.2°C 48.0°F8.9°C 98% 2.4 mph S3.9 kmh S 6.3 mph10.1 kmh 29.71 in1006.1 mb 0.00 in0.0 mm 0.00 in0.0 mm 0.00 in0.0 mm
04:39 AM 48.6°F9.2°C 48.0°F8.9°C 98% 2.7 mph S4.3 kmh S 6.3 mph10.1 kmh 29.71 in1006.1 mb 0.00 in0.0 mm 0.00 in0.0 mm 0.00 in0.0 mm
04:40 AM 48.6°F9.2°C 48.0°F8.9°C 98% 2.9 mph S4.7 kmh S 6.3 mph10.1 kmh 29.71 in1006.1 mb 0.00 in0.0 mm 0.00 in0.0 mm 0.00 in0.0 mm
04:41 AM 48.6°F9.2°C 48.0°F8.9°C 98% 3.1 mph S5.0 kmh S 7.8 mph12.6 kmh 29.71 in1006.1 mb 0.00 in0.0 mm 0.00 in0.0 mm 0.00 in0.0 mm
04:42 AM 48.6°F9.2°C 48.0°F8.9°C 98% 2.7 mph S4.3 kmh S 7.8 mph12.6 kmh 29.71 in1006.1 mb 0.00 in0.0 mm 0.00 in0.0 mm 0.00 in0.0 mm
04:43 AM 48.6°F9.2°C 48.0°F8.9°C 98% 2.6 mph S4.2 kmh S 7.8 mph12.6 kmh 29.71 in1006.1 mb 0.00 in0.0 mm 0.00 in0.0 mm 0.00 in0.0 mm
04:44 AM 48.6°F9.2°C 48.0°F8.9°C 98% 2.7 mph S4.3 kmh S 7.8 mph12.6 kmh 29.68 in1005.1 mb 0.00 in0.0 mm 0.00 in0.0 mm 0.00 in0.0 mm
04:45 AM 48.6°F9.2°C 48.0°F8.9°C 98% 2.9 mph S4.7 kmh S 7.8 mph12.6 kmh 29.68 in1005.1 mb 0.00 in0.0 mm 0.00 in0.0 mm 0.00 in0.0 mm
04:46 AM 48.6°F9.2°C 48.0°F8.9°C 98% 3.4 mph S5.5 kmh S 7.8 mph12.6 kmh 29.68 in1005.1 mb 0.00 in0.0 mm 0.00 in0.0 mm 0.00 in0.0 mm
04:47 AM 48.6°F9.2°C 48.0°F8.9°C 98% 3.5 mph S5.6 kmh S 7.8 mph12.6 kmh 29.68 in1005.1 mb 0.00 in0.0 mm 0.00 in0.0 mm 0.00 in0.0 mm
04:48 AM 48.6°F9.2°C 48.0°F8.9°C 98% 3.6 mph S5.8 kmh S 7.8 mph12.6 kmh 29.68 in1005.1 mb 0.00 in0.0 mm 0.00 in0.0 mm 0.00 in0.0 mm
04:49 AM 48.6°F9.2°C 48.0°F8.9°C 98% 3.2 mph S5.1 kmh S 7.8 mph12.6 kmh 29.68 in1005.1 mb 0.00 in0.0 mm 0.00 in0.0 mm 0.00 in0.0 mm
04:50 AM 48.6°F9.2°C 48.0°F8.9°C 98% 2.7 mph S4.3 kmh S 7.8 mph12.6 kmh 29.68 in1005.1 mb 0.00 in0.0 mm 0.00 in0.0 mm 0.00 in0.0 mm
04:51 AM 48.6°F9.2°C 48.0°F8.9°C 98% 2.2 mph S3.5 kmh S 6.5 mph10.5 kmh 29.68 in1005.1 mb 0.00 in0.0 mm 0.00 in0.0 mm 0.00 in0.0 mm
04:52 AM 48.6°F9.2°C 48.0°F8.9°C 98% 2.2 mph S3.5 kmh S 6.5 mph10.5 kmh 29.68 in1005.1 mb 0.00 in0.0 mm 0.00 in0.0 mm 0.00 in0.0 mm
04:53 AM 48.6°F9.2°C 48.0°F8.9°C 98% 2.2 mph S3.5 kmh S 6.5 mph10.5 kmh 29.68 in1005.1 mb 0.00 in0.0 mm 0.00 in0.0 mm 0.00 in0.0 mm
04:54 AM 48.6°F9.2°C 48.0°F8.9°C 98% 1.6 mph S2.6 kmh S 4.3 mph6.9 kmh 29.68 in1005.1 mb 0.00 in0.0 mm 0.00 in0.0 mm 0.00 in0.0 mm
04:55 AM 48.6°F9.2°C 48.0°F8.9°C 98% 1.4 mph S2.3 kmh S 4.3 mph6.9 kmh 29.68 in1005.1 mb 0.00 in0.0 mm 0.00 in0.0 mm 0.00 in0.0 mm
04:56 AM 48.6°F9.2°C 48.0°F8.9°C 98% 1.1 mph SSW1.8 kmh SSW 2.7 mph4.3 kmh 29.68 in1005.1 mb 0.00 in0.0 mm 0.00 in0.0 mm 0.00 in0.0 mm
04:57 AM 48.6°F9.2°C 48.0°F8.9°C 98% 1.1 mph SW1.8 kmh SW 2.7 mph4.3 kmh 29.68 in1005.1 mb 0.00 in0.0 mm 0.00 in0.0 mm 0.00 in0.0 mm
04:58 AM 48.6°F9.2°C 48.0°F8.9°C 98% 0.9 mph SSW1.4 kmh SSW 2.7 mph4.3 kmh 29.68 in1005.1 mb 0.00 in0.0 mm 0.00 in0.0 mm 0.00 in0.0 mm
04:59 AM 48.6°F9.2°C 48.0°F8.9°C 98% 1.0 mph SSW1.6 kmh SSW 2.7 mph4.3 kmh 29.68 in1005.1 mb 0.00 in0.0 mm 0.00 in0.0 mm 0.00 in0.0 mm
05:00 AM 48.6°F9.2°C 48.0°F8.9°C 98% 0.8 mph SSW1.3 kmh SSW 2.0 mph3.2 kmh 29.68 in1005.1 mb 0.00 in0.0 mm 0.00 in0.0 mm 0.00 in0.0 mm
05:01 AM 48.6°F9.2°C 48.0°F8.9°C 98% 0.9 mph SW1.4 kmh SW 2.0 mph3.2 kmh 29.68 in1005.1 mb 0.00 in0.0 mm 0.00 in0.0 mm 0.00 in0.0 mm
05:02 AM 48.6°F9.2°C 48.0°F8.9°C 98% 1.1 mph SSW1.8 kmh SSW 2.7 mph4.3 kmh 29.68 in1005.1 mb 0.00 in0.0 mm 0.00 in0.0 mm 0.00 in0.0 mm
05:03 AM 48.6°F9.2°C 48.0°F8.9°C 98% 1.0 mph SSW1.6 kmh SSW 2.7 mph4.3 kmh 29.68 in1005.1 mb 0.00 in0.0 mm 0.00 in0.0 mm 0.00 in0.0 mm
05:04 AM 48.6°F9.2°C 48.0°F8.9°C 98% 0.9 mph SSW1.4 kmh SSW 2.7 mph4.3 kmh 29.68 in1005.1 mb 0.00 in0.0 mm 0.00 in0.0 mm 0.00 in0.0 mm
05:05 AM 48.6°F9.2°C 48.0°F8.9°C 98% 1.0 mph SSW1.6 kmh SSW 2.9 mph4.7 kmh 29.68 in1005.1 mb 0.00 in0.0 mm 0.00 in0.0 mm 0.00 in0.0 mm
05:06 AM 48.6°F9.2°C 48.0°F8.9°C 98% 1.0 mph SSW1.6 kmh SSW 2.9 mph4.7 kmh 29.68 in1005.1 mb 0.00 in0.0 mm 0.00 in0.0 mm 0.00 in0.0 mm
05:07 AM 48.6°F9.2°C 48.0°F8.9°C 98% 0.8 mph S1.3 kmh S 2.9 mph4.7 kmh 29.68 in1005.1 mb 0.00 in0.0 mm 0.00 in0.0 mm 0.00 in0.0 mm
05:08 AM 48.6°F9.2°C 48.0°F8.9°C 98% 0.8 mph S1.3 kmh S 2.9 mph4.7 kmh 29.68 in1005.1 mb 0.00 in0.0 mm 0.00 in0.0 mm 0.00 in0.0 mm
05:09 AM 48.6°F9.2°C 48.0°F8.9°C 98% 0.8 mph S1.3 kmh S 2.9 mph4.7 kmh 29.68 in1005.1 mb 0.00 in0.0 mm 0.00 in0.0 mm 0.00 in0.0 mm
05:10 AM 48.6°F9.2°C 48.0°F8.9°C 98% 0.8 mph S1.3 kmh S 2.9 mph4.7 kmh 29.68 in1005.1 mb 0.00 in0.0 mm 0.00 in0.0 mm 0.00 in0.0 mm
05:11 AM 48.6°F9.2°C 48.0°F8.9°C 98% 0.8 mph S1.3 kmh S 2.9 mph4.7 kmh 29.68 in1005.1 mb 0.00 in0.0 mm 0.00 in0.0 mm 0.00 in0.0 mm
05:12 AM 48.6°F9.2°C 48.0°F8.9°C 98% 0.8 mph S1.3 kmh S 2.9 mph4.7 kmh 29.68 in1005.1 mb 0.00 in0.0 mm 0.00 in0.0 mm 0.00 in0.0 mm
05:13 AM 48.6°F9.2°C 48.0°F8.9°C 98% 0.6 mph SW1.0 kmh SW 2.9 mph4.7 kmh 29.68 in1005.1 mb 0.00 in0.0 mm 0.00 in0.0 mm 0.00 in0.0 mm
05:14 AM 48.4°F9.1°C 47.8°F8.8°C 98% 0.6 mph SW1.0 kmh SW 2.9 mph4.7 kmh 29.68 in1005.1 mb 0.00 in0.0 mm 0.00 in0.0 mm 0.00 in0.0 mm
05:15 AM 48.4°F9.1°C 47.8°F8.8°C 98% 0.4 mph SW0.6 kmh SW 1.6 mph2.6 kmh 29.68 in1005.1 mb 0.00 in0.0 mm 0.00 in0.0 mm 0.00 in0.0 mm
05:16 AM 48.4°F9.1°C 47.8°F8.8°C 98% 0.5 mph SW0.8 kmh SW 1.6 mph2.6 kmh 29.68 in1005.1 mb 0.00 in0.0 mm 0.00 in0.0 mm 0.00 in0.0 mm
05:17 AM 48.4°F9.1°C 47.8°F8.8°C 98% 0.7 mph SSW1.1 kmh SSW 2.9 mph4.7 kmh 29.68 in1005.1 mb 0.00 in0.0 mm 0.00 in0.0 mm 0.00 in0.0 mm
05:18 AM 48.6°F9.2°C 48.0°F8.9°C 98% 0.6 mph SSW1.0 kmh SSW 2.9 mph4.7 kmh 29.68 in1005.1 mb 0.00 in0.0 mm 0.00 in0.0 mm 0.00 in0.0 mm
05:19 AM 48.6°F9.2°C 48.0°F8.9°C 98% 0.6 mph SSW1.0 kmh SSW 2.9 mph4.7 kmh 29.68 in1005.1 mb 0.00 in0.0 mm 0.00 in0.0 mm 0.00 in0.0 mm
05:20 AM 48.6°F9.2°C 48.0°F8.9°C 98% 0.5 mph SW0.8 kmh SW 2.9 mph4.7 kmh 29.68 in1005.1 mb 0.00 in0.0 mm 0.00 in0.0 mm 0.00 in0.0 mm
05:21 AM 48.7°F9.3°C 48.2°F9.0°C 98% 0.4 mph SSW0.6 kmh SSW 2.9 mph4.7 kmh 29.68 in1005.1 mb 0.00 in0.0 mm 0.00 in0.0 mm 0.00 in0.0 mm
05:22 AM 48.7°F9.3°C 48.2°F9.0°C 98% 0.4 mph SSW0.6 kmh SSW 2.9 mph4.7 kmh 29.68 in1005.1 mb 0.00 in0.0 mm 0.00 in0.0 mm 0.00 in0.0 mm
05:23 AM 48.7°F9.3°C 48.2°F9.0°C 98% 0.3 mph S0.5 kmh S 2.9 mph4.7 kmh 29.68 in1005.1 mb 0.00 in0.0 mm 0.00 in0.0 mm 0.00 in0.0 mm
05:24 AM 48.7°F9.3°C 48.2°F9.0°C 98% 0.8 mph SW1.3 kmh SW 4.7 mph7.6 kmh 29.68 in1005.1 mb 0.00 in0.0 mm 0.00 in0.0 mm 0.00 in0.0 mm
05:25 AM 48.9°F9.4°C 48.4°F9.1°C 98% 1.0 mph SW1.6 kmh SW 4.7 mph7.6 kmh 29.68 in1005.1 mb 0.00 in0.0 mm 0.00 in0.0 mm 0.00 in0.0 mm
05:26 AM 48.9°F9.4°C 48.4°F9.1°C 98% 1.1 mph SW1.8 kmh SW 4.7 mph7.6 kmh 29.68 in1005.1 mb 0.00 in0.0 mm 0.00 in0.0 mm 0.00 in0.0 mm
05:27 AM 48.9°F9.4°C 48.4°F9.1°C 98% 1.5 mph WSW2.4 kmh WSW 6.5 mph10.5 kmh 29.68 in1005.1 mb 0.00 in0.0 mm 0.00 in0.0 mm 0.00 in0.0 mm
05:28 AM 48.9°F9.4°C 48.4°F9.1°C 98% 1.8 mph WSW2.9 kmh WSW 6.5 mph10.5 kmh 29.68 in1005.1 mb 0.00 in0.0 mm 0.00 in0.0 mm 0.00 in0.0 mm
05:29 AM 49.1°F9.5°C 48.6°F9.2°C 98% 2.1 mph WSW3.4 kmh WSW 6.5 mph10.5 kmh 29.68 in1005.1 mb 0.00 in0.0 mm 0.00 in0.0 mm 0.00 in0.0 mm
05:30 AM 49.3°F9.6°C 48.7°F9.3°C 98% 2.6 mph WSW4.2 kmh WSW 6.5 mph10.5 kmh 29.68 in1005.1 mb 0.00 in0.0 mm 0.00 in0.0 mm 0.00 in0.0 mm
05:31 AM 49.3°F9.6°C 48.7°F9.3°C 98% 2.9 mph WSW4.7 kmh WSW 6.5 mph10.5 kmh 29.68 in1005.1 mb 0.00 in0.0 mm 0.00 in0.0 mm 0.00 in0.0 mm
05:32 AM 49.3°F9.6°C 48.7°F9.3°C 98% 3.5 mph WSW5.6 kmh WSW 6.5 mph10.5 kmh 29.68 in1005.1 mb 0.00 in0.0 mm 0.00 in0.0 mm 0.00 in0.0 mm
05:33 AM 49.3°F9.6°C 48.7°F9.3°C 98% 3.9 mph WSW6.3 kmh WSW 6.5 mph10.5 kmh 29.68 in1005.1 mb 0.00 in0.0 mm 0.00 in0.0 mm 0.00 in0.0 mm
05:34 AM 49.3°F9.6°C 48.7°F9.3°C 98% 4.1 mph WSW6.6 kmh WSW 6.5 mph10.5 kmh 29.68 in1005.1 mb 0.00 in0.0 mm 0.00 in0.0 mm 0.00 in0.0 mm
05:35 AM 49.3°F9.6°C 48.7°F9.3°C 98% 4.4 mph WSW7.1 kmh WSW 8.1 mph13.0 kmh 29.68 in1005.1 mb 0.00 in0.0 mm 0.00 in0.0 mm 0.00 in0.0 mm
05:36 AM 49.5°F9.7°C 48.9°F9.4°C 98% 4.9 mph WSW7.9 kmh WSW 8.1 mph13.0 kmh 29.68 in1005.1 mb 0.00 in0.0 mm 0.00 in0.0 mm 0.00 in0.0 mm
05:37 AM 49.3°F9.6°C 48.7°F9.3°C 98% 4.8 mph WSW7.7 kmh WSW 8.1 mph13.0 kmh 29.68 in1005.1 mb 0.00 in0.0 mm 0.00 in0.0 mm 0.00 in0.0 mm
05:38 AM 49.3°F9.6°C 48.7°F9.3°C 98% 4.6 mph WSW7.4 kmh WSW 8.1 mph13.0 kmh 29.68 in1005.1 mb 0.00 in0.0 mm 0.00 in0.0 mm 0.00 in0.0 mm
05:39 AM 49.3°F9.6°C 48.7°F9.3°C 98% 4.5 mph WSW7.2 kmh WSW 8.1 mph13.0 kmh 29.68 in1005.1 mb 0.00 in0.0 mm 0.00 in0.0 mm 0.00 in0.0 mm
05:40 AM 49.3°F9.6°C 48.7°F9.3°C 98% 4.5 mph WSW7.2 kmh WSW 8.1 mph13.0 kmh 29.68 in1005.1 mb 0.00 in0.0 mm 0.00 in0.0 mm 0.00 in0.0 mm
05:41 AM 49.3°F9.6°C 48.7°F9.3°C 98% 4.2 mph WSW6.8 kmh WSW 8.1 mph13.0 kmh 29.68 in1005.1 mb 0.00 in0.0 mm 0.00 in0.0 mm 0.00 in0.0 mm
05:42 AM 49.3°F9.6°C 48.7°F9.3°C 98% 3.9 mph WSW6.3 kmh WSW 8.1 mph13.0 kmh 29.68 in1005.1 mb 0.00 in0.0 mm 0.00 in0.0 mm 0.00 in0.0 mm
05:43 AM 49.1°F9.5°C 48.6°F9.2°C 98% 3.3 mph WSW5.3 kmh WSW 8.1 mph13.0 kmh 29.68 in1005.1 mb 0.00 in0.0 mm 0.00 in0.0 mm 0.00 in0.0 mm
05:44 AM 49.1°F9.5°C 48.6°F9.2°C 98% 2.9 mph WSW4.7 kmh WSW 8.1 mph13.0 kmh 29.68 in1005.1 mb 0.00 in0.0 mm 0.00 in0.0 mm 0.00 in0.0 mm
05:45 AM 49.1°F9.5°C 48.6°F9.2°C 98% 2.6 mph WSW4.2 kmh WSW 8.1 mph13.0 kmh 29.68 in1005.1 mb 0.00 in0.0 mm 0.00 in0.0 mm 0.00 in0.0 mm
05:46 AM 49.1°F9.5°C 48.6°F9.2°C 98% 2.2 mph WSW3.5 kmh WSW 5.6 mph9.0 kmh 29.68 in1005.1 mb 0.00 in0.0 mm 0.00 in0.0 mm 0.00 in0.0 mm
05:47 AM 49.1°F9.5°C 48.6°F9.2°C 98% 2.3 mph WSW3.7 kmh WSW 5.6 mph9.0 kmh 29.68 in1005.1 mb 0.00 in0.0 mm 0.00 in0.0 mm 0.00 in0.0 mm
05:48 AM 49.3°F9.6°C 48.7°F9.3°C 98% 2.5 mph WSW4.0 kmh WSW 5.6 mph9.0 kmh 29.68 in1005.1 mb 0.00 in0.0 mm 0.00 in0.0 mm 0.00 in0.0 mm
05:49 AM 49.3°F9.6°C 48.7°F9.3°C 98% 2.9 mph WSW4.7 kmh WSW 6.5 mph10.5 kmh 29.68 in1005.1 mb 0.00 in0.0 mm 0.00 in0.0 mm 0.00 in0.0 mm
05:50 AM 49.5°F9.7°C 48.9°F9.4°C 98% 2.7 mph WSW4.3 kmh WSW 6.5 mph10.5 kmh 29.68 in1005.1 mb 0.00 in0.0 mm 0.00 in0.0 mm 0.00 in0.0 mm
05:51 AM 49.5°F9.7°C 48.9°F9.4°C 98% 2.5 mph WSW4.0 kmh WSW 6.5 mph10.5 kmh 29.68 in1005.1 mb 0.00 in0.0 mm 0.00 in0.0 mm 0.00 in0.0 mm
05:52 AM 49.3°F9.6°C 48.7°F9.3°C 98% 2.8 mph WSW4.5 kmh WSW 7.8 mph12.6 kmh 29.68 in1005.1 mb 0.00 in0.0 mm 0.00 in0.0 mm 0.00 in0.0 mm
05:53 AM 49.3°F9.6°C 48.7°F9.3°C 98% 3.7 mph WSW6.0 kmh WSW 7.8 mph12.6 kmh 29.68 in1005.1 mb 0.00 in0.0 mm 0.00 in0.0 mm 0.00 in0.0 mm
05:54 AM 49.3°F9.6°C 48.7°F9.3°C 98% 3.9 mph WSW6.3 kmh WSW 7.8 mph12.6 kmh 29.68 in1005.1 mb 0.00 in0.0 mm 0.00 in0.0 mm 0.00 in0.0 mm
05:55 AM 49.1°F9.5°C 48.6°F9.2°C 98% 4.0 mph WSW6.4 kmh WSW 7.8 mph12.6 kmh 29.68 in1005.1 mb 0.00 in0.0 mm 0.00 in0.0 mm 0.00 in0.0 mm
05:56 AM 49.1°F9.5°C 48.6°F9.2°C 98% 4.0 mph WSW6.4 kmh WSW 7.8 mph12.6 kmh 29.68 in1005.1 mb 0.00 in0.0 mm 0.00 in0.0 mm 0.00 in0.0 mm
05:57 AM 49.1°F9.5°C 48.6°F9.2°C 98% 3.9 mph WSW6.3 kmh WSW 7.8 mph12.6 kmh 29.68 in1005.1 mb 0.00 in0.0 mm 0.00 in0.0 mm 0.00 in0.0 mm
05:58 AM 49.1°F9.5°C 48.6°F9.2°C 98% 3.7 mph WSW6.0 kmh WSW 7.8 mph12.6 kmh 29.68 in1005.1 mb 0.00 in0.0 mm 0.00 in0.0 mm 0.00 in0.0 mm
05:59 AM 48.9°F9.4°C 48.4°F9.1°C 98% 3.6 mph WSW5.8 kmh WSW 7.8 mph12.6 kmh 29.68 in1005.1 mb 0.00 in0.0 mm 0.00 in0.0 mm 0.00 in0.0 mm
06:00 AM 48.9°F9.4°C 48.4°F9.1°C 98% 4.2 mph WSW6.8 kmh WSW 7.8 mph12.6 kmh 29.68 in1005.1 mb 0.00 in0.0 mm 0.00 in0.0 mm 0.00 in0.0 mm
06:01 AM 48.9°F9.4°C 48.4°F9.1°C 98% 4.7 mph WSW7.6 kmh WSW 7.8 mph12.6 kmh 29.68 in1005.1 mb 0.00 in0.0 mm 0.00 in0.0 mm 0.00 in0.0 mm
06:02 AM 48.9°F9.4°C 48.4°F9.1°C 98% 4.5 mph WSW7.2 kmh WSW 7.8 mph12.6 kmh 29.68 in1005.1 mb 0.00 in0.0 mm 0.00 in0.0 mm 0.00 in0.0 mm
06:03 AM 48.9°F9.4°C 48.4°F9.1°C 98% 4.1 mph WSW6.6 kmh WSW 7.8 mph12.6 kmh 29.68 in1005.1 mb 0.00 in0.0 mm 0.00 in0.0 mm 0.00 in0.0 mm
06:04 AM 48.7°F9.3°C 48.2°F9.0°C 98% 3.2 mph WSW5.1 kmh WSW 7.8 mph12.6 kmh 29.68 in1005.1 mb 0.00 in0.0 mm 0.00 in0.0 mm 0.00 in0.0 mm
06:05 AM 48.7°F9.3°C 48.2°F9.0°C 98% 3.1 mph WSW5.0 kmh WSW 7.8 mph12.6 kmh 29.68 in1005.1 mb 0.00 in0.0 mm 0.00 in0.0 mm 0.00 in0.0 mm
06:06 AM 48.9°F9.4°C 48.4°F9.1°C 98% 3.5 mph WSW5.6 kmh WSW 7.8 mph12.6 kmh 29.68 in1005.1 mb 0.00 in0.0 mm 0.00 in0.0 mm 0.00 in0.0 mm
06:07 AM 48.9°F9.4°C 48.4°F9.1°C 98% 3.2 mph WSW5.1 kmh WSW 7.8 mph12.6 kmh 29.68 in1005.1 mb 0.00 in0.0 mm 0.00 in0.0 mm 0.00 in0.0 mm
06:08 AM 48.9°F9.4°C 48.4°F9.1°C 98% 3.4 mph WSW5.5 kmh WSW 7.8 mph12.6 kmh 29.68 in1005.1 mb 0.00 in0.0 mm 0.00 in0.0 mm 0.00 in0.0 mm
06:09 AM 48.7°F9.3°C 48.2°F9.0°C 98% 3.4 mph WSW5.5 kmh WSW 7.8 mph12.6 kmh 29.68 in1005.1 mb 0.00 in0.0 mm 0.00 in0.0 mm 0.00 in0.0 mm
06:10 AM 48.7°F9.3°C 48.2°F9.0°C 98% 3.3 mph WSW5.3 kmh WSW 7.8 mph12.6 kmh 29.68 in1005.1 mb 0.00 in0.0 mm 0.00 in0.0 mm 0.00 in0.0 mm
06:11 AM 48.7°F9.3°C 48.2°F9.0°C 98% 2.9 mph WSW4.7 kmh WSW 6.5 mph10.5 kmh 29.68 in1005.1 mb 0.00 in0.0 mm 0.00 in0.0 mm 0.00 in0.0 mm
06:12 AM 48.7°F9.3°C 48.2°F9.0°C 98% 3.0 mph WSW4.8 kmh WSW 6.5 mph10.5 kmh 29.68 in1005.1 mb 0.00 in0.0 mm 0.00 in0.0 mm 0.00 in0.0 mm
06:13 AM 48.7°F9.3°C 48.2°F9.0°C 98% 3.2 mph WSW5.1 kmh WSW 6.5 mph10.5 kmh 29.68 in1005.1 mb 0.00 in0.0 mm 0.00 in0.0 mm 0.00 in0.0 mm
06:14 AM 48.7°F9.3°C 48.2°F9.0°C 98% 3.4 mph WSW5.5 kmh WSW 6.5 mph10.5 kmh 29.68 in1005.1 mb 0.00 in0.0 mm 0.00 in0.0 mm 0.00 in0.0 mm
06:15 AM 48.7°F9.3°C 48.2°F9.0°C 98% 3.8 mph WSW6.1 kmh WSW 10.3 mph16.6 kmh 29.68 in1005.1 mb 0.00 in0.0 mm 0.00 in0.0 mm 0.00 in0.0 mm
06:16 AM 48.9°F9.4°C 48.4°F9.1°C 98% 3.4 mph WSW5.5 kmh WSW 10.3 mph16.6 kmh 29.68 in1005.1 mb 0.00 in0.0 mm 0.00 in0.0 mm 0.00 in0.0 mm
06:17 AM 48.9°F9.4°C 48.4°F9.1°C 98% 3.5 mph WSW5.6 kmh WSW 10.3 mph16.6 kmh 29.68 in1005.1 mb 0.00 in0.0 mm 0.00 in0.0 mm 0.00 in0.0 mm
06:18 AM 48.7°F9.3°C 48.2°F9.0°C 98% 3.9 mph WSW6.3 kmh WSW 10.3 mph16.6 kmh 29.68 in1005.1 mb 0.00 in0.0 mm 0.00 in0.0 mm 0.00 in0.0 mm
06:19 AM 48.7°F9.3°C 48.2°F9.0°C 98% 3.6 mph WSW5.8 kmh WSW 10.3 mph16.6 kmh 29.68 in1005.1 mb 0.00 in0.0 mm 0.00 in0.0 mm 0.00 in0.0 mm
06:20 AM 48.7°F9.3°C 48.2°F9.0°C 98% 3.6 mph WSW5.8 kmh WSW 10.3 mph16.6 kmh 29.68 in1005.1 mb 0.00 in0.0 mm 0.00 in0.0 mm 0.00 in0.0 mm
06:21 AM 48.7°F9.3°C 48.2°F9.0°C 98% 3.7 mph WSW6.0 kmh WSW 10.3 mph16.6 kmh 29.68 in1005.1 mb 0.00 in0.0 mm 0.00 in0.0 mm 0.00 in0.0 mm
06:22 AM 48.9°F9.4°C 48.4°F9.1°C 98% 4.1 mph WSW6.6 kmh WSW 10.3 mph16.6 kmh 29.68 in1005.1 mb 0.00 in0.0 mm 0.00 in0.0 mm 0.00 in0.0 mm
06:23 AM 49.1°F9.5°C 48.6°F9.2°C 98% 4.5 mph W7.2 kmh W 10.3 mph16.6 kmh 29.68 in1005.1 mb 0.00 in0.0 mm 0.00 in0.0 mm 0.00 in0.0 mm
06:24 AM 49.1°F9.5°C 48.6°F9.2°C 98% 4.5 mph W7.2 kmh W 10.3 mph16.6 kmh 29.68 in1005.1 mb 0.00 in0.0 mm 0.00 in0.0 mm 0.00 in0.0 mm
06:25 AM 49.1°F9.5°C 48.6°F9.2°C 98% 4.3 mph W6.9 kmh W 8.1 mph13.0 kmh 29.68 in1005.1 mb 0.00 in0.0 mm 0.00 in0.0 mm 0.00 in0.0 mm
06:26 AM 49.1°F9.5°C 48.6°F9.2°C 98% 4.5 mph W7.2 kmh W 8.1 mph13.0 kmh 29.68 in1005.1 mb 0.00 in0.0 mm 0.00 in0.0 mm 0.00 in0.0 mm
06:27 AM 49.1°F9.5°C 48.6°F9.2°C 98% 4.4 mph W7.1 kmh W 8.1 mph13.0 kmh 29.68 in1005.1 mb 0.00 in0.0 mm 0.00 in0.0 mm 0.00 in0.0 mm
06:28 AM 49.1°F9.5°C 48.6°F9.2°C 98% 4.4 mph W7.1 kmh W 8.1 mph13.0 kmh 29.68 in1005.1 mb 0.00 in0.0 mm 0.00 in0.0 mm 0.00 in0.0 mm
06:29 AM 49.1°F9.5°C 48.6°F9.2°C 98% 4.8 mph WNW7.7 kmh WNW 8.1 mph13.0 kmh 29.71 in1006.1 mb 0.00 in0.0 mm 0.00 in0.0 mm 0.00 in0.0 mm
06:30 AM 49.1°F9.5°C 48.6°F9.2°C 98% 4.8 mph WNW7.7 kmh WNW 8.1 mph13.0 kmh 29.71 in1006.1 mb 0.00 in0.0 mm 0.00 in0.0 mm 0.00 in0.0 mm
06:31 AM 49.1°F9.5°C 48.6°F9.2°C 98% 4.8 mph WNW7.7 kmh WNW 8.1 mph13.0 kmh 29.71 in1006.1 mb 0.00 in0.0 mm 0.00 in0.0 mm 0.00 in0.0 mm
06:32 AM 49.1°F9.5°C 48.6°F9.2°C 98% 4.8 mph W7.7 kmh W 8.1 mph13.0 kmh 29.71 in1006.1 mb 0.00 in0.0 mm 0.00 in0.0 mm 0.00 in0.0 mm
06:33 AM 49.1°F9.5°C 48.6°F9.2°C 98% 4.8 mph W7.7 kmh W 8.1 mph13.0 kmh 29.71 in1006.1 mb 0.00 in0.0 mm 0.00 in0.0 mm 0.00 in0.0 mm
06:34 AM 49.1°F9.5°C 48.6°F9.2°C 98% 5.3 mph W8.5 kmh W 10.3 mph16.6 kmh 29.71 in1006.1 mb 0.00 in0.0 mm 0.00 in0.0 mm 0.00 in0.0 mm
06:35 AM 49.1°F9.5°C 48.6°F9.2°C 98% 5.5 mph W8.9 kmh W 10.3 mph16.6 kmh 29.71 in1006.1 mb 0.00 in0.0 mm 0.00 in0.0 mm 0.00 in0.0 mm
06:36 AM 49.1°F9.5°C 48.6°F9.2°C 98% 5.4 mph W8.7 kmh W 10.3 mph16.6 kmh 29.71 in1006.1 mb 0.00 in0.0 mm 0.00 in0.0 mm 0.00 in0.0 mm
06:37 AM 49.1°F9.5°C 48.6°F9.2°C 98% 5.6 mph WSW9.0 kmh WSW 10.3 mph16.6 kmh 29.71 in1006.1 mb 0.00 in0.0 mm 0.00 in0.0 mm 0.00 in0.0 mm
06:38 AM 49.1°F9.5°C 48.6°F9.2°C 98% 5.8 mph WSW9.3 kmh WSW 10.3 mph16.6 kmh 29.71 in1006.1 mb 0.00 in0.0 mm 0.00 in0.0 mm 0.00 in0.0 mm
06:39 AM 49.1°F9.5°C 48.6°F9.2°C 98% 6.0 mph WSW9.7 kmh WSW 10.3 mph16.6 kmh 29.71 in1006.1 mb 0.00 in0.0 mm 0.00 in0.0 mm 0.00 in0.0 mm
06:40 AM 49.1°F9.5°C 48.6°F9.2°C 98% 6.0 mph WSW9.7 kmh WSW 10.3 mph16.6 kmh 29.71 in1006.1 mb 0.00 in0.0 mm 0.00 in0.0 mm 0.00 in0.0 mm
06:41 AM 49.3°F9.6°C 48.7°F9.3°C 98% 6.2 mph WSW10.0 kmh WSW 10.3 mph16.6 kmh 29.71 in1006.1 mb 0.00 in0.0 mm 0.00 in0.0 mm 0.00 in0.0 mm
06:42 AM 49.3°F9.6°C 48.7°F9.3°C 98% 6.2 mph WSW10.0 kmh WSW 10.3 mph16.6 kmh 29.71 in1006.1 mb 0.00 in0.0 mm 0.00 in0.0 mm 0.00 in0.0 mm
06:43 AM 49.1°F9.5°C 48.6°F9.2°C 98% 5.7 mph W9.2 kmh W 10.3 mph16.6 kmh 29.71 in1006.1 mb 0.00 in0.0 mm 0.00 in0.0 mm 0.00 in0.0 mm
06:44 AM 49.1°F9.5°C 48.6°F9.2°C 98% 5.7 mph W9.2 kmh W 10.3 mph16.6 kmh 29.71 in1006.1 mb 0.00 in0.0 mm 0.00 in0.0 mm 0.00 in0.0 mm
06:45 AM 49.1°F9.5°C 48.6°F9.2°C 98% 5.5 mph W8.9 kmh W 7.6 mph12.2 kmh 29.71 in1006.1 mb 0.00 in0.0 mm 0.00 in0.0 mm 0.00 in0.0 mm
06:46 AM 48.9°F9.4°C 48.4°F9.1°C 98% 5.2 mph W8.4 kmh W 7.6 mph12.2 kmh 29.71 in1006.1 mb 0.00 in0.0 mm 0.00 in0.0 mm 0.00 in0.0 mm
06:47 AM 48.9°F9.4°C 48.4°F9.1°C 98% 5.2 mph W8.4 kmh W 7.6 mph12.2 kmh 29.71 in1006.1 mb 0.00 in0.0 mm 0.00 in0.0 mm 0.00 in0.0 mm
06:48 AM 48.9°F9.4°C 48.4°F9.1°C 98% 5.7 mph W9.2 kmh W 11.0 mph17.7 kmh 29.71 in1006.1 mb 0.00 in0.0 mm 0.00 in0.0 mm 0.00 in0.0 mm
06:49 AM 48.9°F9.4°C 48.4°F9.1°C 98% 5.5 mph W8.9 kmh W 11.0 mph17.7 kmh 29.71 in1006.1 mb 0.00 in0.0 mm 0.00 in0.0 mm 0.00 in0.0 mm
06:50 AM 48.9°F9.4°C 48.4°F9.1°C 98% 5.5 mph W8.9 kmh W 11.0 mph17.7 kmh 29.71 in1006.1 mb 0.00 in0.0 mm 0.00 in0.0 mm 0.00 in0.0 mm
06:51 AM 48.9°F9.4°C 48.4°F9.1°C 98% 5.4 mph W8.7 kmh W 11.0 mph17.7 kmh 29.71 in1006.1 mb 0.00 in0.0 mm 0.00 in0.0 mm 0.00 in0.0 mm
06:52 AM 48.9°F9.4°C 48.4°F9.1°C 98% 5.6 mph W9.0 kmh W 11.0 mph17.7 kmh 29.71 in1006.1 mb 0.00 in0.0 mm 0.00 in0.0 mm 0.00 in0.0 mm
06:53 AM 48.7°F9.3°C 48.2°F9.0°C 98% 5.6 mph W9.0 kmh W 11.0 mph17.7 kmh 29.71 in1006.1 mb 0.00 in0.0 mm 0.00 in0.0 mm 0.00 in0.0 mm
06:54 AM 48.7°F9.3°C 48.2°F9.0°C 98% 5.5 mph WNW8.9 kmh WNW 11.0 mph17.7 kmh 29.71 in1006.1 mb 0.00 in0.0 mm 0.00 in0.0 mm 0.00 in0.0 mm
06:55 AM 48.7°F9.3°C 48.2°F9.0°C 98% 5.5 mph WNW8.9 kmh WNW 11.0 mph17.7 kmh 29.71 in1006.1 mb 0.00 in0.0 mm 0.00 in0.0 mm 0.00 in0.0 mm
06:56 AM 48.7°F9.3°C 48.2°F9.0°C 98% 5.6 mph W9.0 kmh W 11.0 mph17.7 kmh 29.71 in1006.1 mb 0.00 in0.0 mm 0.00 in0.0 mm 0.00 in0.0 mm
06:57 AM 48.7°F9.3°C 48.2°F9.0°C 98% 6.4 mph W10.3 kmh W 11.0 mph17.7 kmh 29.71 in1006.1 mb 0.00 in0.0 mm 0.00 in0.0 mm 0.00 in0.0 mm
06:58 AM 48.7°F9.3°C 48.2°F9.0°C 98% 5.9 mph WNW9.5 kmh WNW 11.0 mph17.7 kmh 29.71 in1006.1 mb 0.00 in0.0 mm 0.00 in0.0 mm 0.00 in0.0 mm
06:59 AM 48.7°F9.3°C 48.2°F9.0°C 98% 5.5 mph WNW8.9 kmh WNW 10.7 mph17.2 kmh 29.71 in1006.1 mb 0.00 in0.0 mm 0.00 in0.0 mm 0.00 in0.0 mm
07:00 AM 48.7°F9.3°C 48.2°F9.0°C 98% 5.7 mph WNW9.2 kmh WNW 10.7 mph17.2 kmh 29.71 in1006.1 mb 0.00 in0.0 mm 0.00 in0.0 mm 0.00 in0.0 mm
07:01 AM 48.7°F9.3°C 48.2°F9.0°C 98% 5.7 mph WNW9.2 kmh WNW 10.7 mph17.2 kmh 29.71 in1006.1 mb 0.00 in0.0 mm 0.00 in0.0 mm 0.00 in0.0 mm
07:02 AM 48.6°F9.2°C 48.0°F8.9°C 98% 6.0 mph WNW9.7 kmh WNW 10.7 mph17.2 kmh 29.71 in1006.1 mb 0.00 in0.0 mm 0.00 in0.0 mm 0.00 in0.0 mm
07:03 AM 48.6°F9.2°C 48.0°F8.9°C 98% 6.0 mph WNW9.7 kmh WNW 10.7 mph17.2 kmh 29.71 in1006.1 mb 0.00 in0.0 mm 0.00 in0.0 mm 0.00 in0.0 mm
07:04 AM 48.7°F9.3°C 48.2°F9.0°C 98% 6.6 mph WNW10.6 kmh WNW 10.7 mph17.2 kmh 29.71 in1006.1 mb 0.00 in0.0 mm 0.00 in0.0 mm 0.00 in0.0 mm
07:05 AM 48.7°F9.3°C 48.2°F9.0°C 98% 6.6 mph WNW10.6 kmh WNW 10.7 mph17.2 kmh 29.71 in1006.1 mb 0.00 in0.0 mm 0.00 in0.0 mm 0.00 in0.0 mm
07:06 AM 48.6°F9.2°C 48.0°F8.9°C 98% 6.3 mph WNW10.1 kmh WNW 10.7 mph17.2 kmh 29.71 in1006.1 mb 0.00 in0.0 mm 0.00 in0.0 mm 0.00 in0.0 mm
07:07 AM 48.6°F9.2°C 48.0°F8.9°C 98% 5.6 mph WNW9.0 kmh WNW 9.6 mph15.4 kmh 29.71 in1006.1 mb 0.00 in0.0 mm 0.00 in0.0 mm 0.00 in0.0 mm
07:08 AM 48.4°F9.1°C 47.8°F8.8°C 98% 5.7 mph W9.2 kmh W 9.6 mph15.4 kmh 29.71 in1006.1 mb 0.00 in0.0 mm 0.00 in0.0 mm 0.00 in0.0 mm
07:09 AM 48.2°F9.0°C 47.7°F8.7°C 98% 5.7 mph W9.2 kmh W 9.6 mph15.4 kmh 29.71 in1006.1 mb 0.00 in0.0 mm 0.00 in0.0 mm 0.00 in0.0 mm
07:10 AM 48.2°F9.0°C 47.7°F8.7°C 98% 5.5 mph W8.9 kmh W 9.6 mph15.4 kmh 29.71 in1006.1 mb 0.00 in0.0 mm 0.00 in0.0 mm 0.00 in0.0 mm
07:11 AM 48.2°F9.0°C 47.7°F8.7°C 98% 5.5 mph W8.9 kmh W 9.6 mph15.4 kmh 29.71 in1006.1 mb 0.00 in0.0 mm 0.00 in0.0 mm 0.00 in0.0 mm
07:12 AM 48.2°F9.0°C 47.7°F8.7°C 98% 5.3 mph W8.5 kmh W 9.6 mph15.4 kmh 29.71 in1006.1 mb 0.00 in0.0 mm 0.00 in0.0 mm 0.00 in0.0 mm
07:13 AM 48.2°F9.0°C 47.7°F8.7°C 98% 4.7 mph W7.6 kmh W 9.6 mph15.4 kmh 29.71 in1006.1 mb 0.00 in0.0 mm 0.00 in0.0 mm 0.00 in0.0 mm
07:14 AM 48.2°F9.0°C 47.7°F8.7°C 98% 4.7 mph W7.6 kmh W 9.6 mph15.4 kmh 29.71 in1006.1 mb 0.00 in0.0 mm 0.00 in0.0 mm 0.00 in0.0 mm
07:15 AM 48.2°F9.0°C 47.7°F8.7°C 98% 4.5 mph W7.2 kmh W 5.8 mph9.3 kmh 29.71 in1006.1 mb 0.00 in0.0 mm 0.00 in0.0 mm 0.00 in0.0 mm
07:16 AM 48.2°F9.0°C 47.7°F8.7°C 98% 4.6 mph W7.4 kmh W 5.8 mph9.3 kmh 29.71 in1006.1 mb 0.00 in0.0 mm 0.00 in0.0 mm 0.00 in0.0 mm
07:17 AM 48.2°F9.0°C 47.7°F8.7°C 98% 4.5 mph W7.2 kmh W 5.8 mph9.3 kmh 29.71 in1006.1 mb 0.00 in0.0 mm 0.00 in0.0 mm 0.00 in0.0 mm
07:18 AM 48.2°F9.0°C 47.7°F8.7°C 98% 4.3 mph W6.9 kmh W 5.6 mph9.0 kmh 29.71 in1006.1 mb 0.00 in0.0 mm 0.00 in0.0 mm 0.00 in0.0 mm
07:19 AM 48.2°F9.0°C 47.7°F8.7°C 98% 4.3 mph W6.9 kmh W 5.6 mph9.0 kmh 29.71 in1006.1 mb 0.00 in0.0 mm 0.00 in0.0 mm 0.00 in0.0 mm
07:20 AM 48.2°F9.0°C 47.7°F8.7°C 98% 4.9 mph W7.9 kmh W 12.1 mph19.5 kmh 29.71 in1006.1 mb 0.00 in0.0 mm 0.00 in0.0 mm 0.00 in0.0 mm
07:21 AM 48.2°F9.0°C 47.7°F8.7°C 98% 4.9 mph W7.9 kmh W 12.1 mph19.5 kmh 29.71 in1006.1 mb 0.00 in0.0 mm 0.00 in0.0 mm 0.00 in0.0 mm
07:22 AM 48.0°F8.9°C 47.5°F8.6°C 98% 4.9 mph W7.9 kmh W 12.1 mph19.5 kmh 29.71 in1006.1 mb 0.00 in0.0 mm 0.00 in0.0 mm 0.00 in0.0 mm
07:23 AM 48.0°F8.9°C 47.5°F8.6°C 98% 5.2 mph W8.4 kmh W 12.1 mph19.5 kmh 29.71 in1006.1 mb 0.00 in0.0 mm 0.00 in0.0 mm 0.00 in0.0 mm
07:24 AM 48.0°F8.9°C 47.5°F8.6°C 98% 5.1 mph W8.2 kmh W 12.1 mph19.5 kmh 29.71 in1006.1 mb 0.00 in0.0 mm 0.00 in0.0 mm 0.00 in0.0 mm
07:25 AM 47.8°F8.8°C 47.3°F8.5°C 98% 5.0 mph W8.0 kmh W 12.1 mph19.5 kmh 29.71 in1006.1 mb 0.00 in0.0 mm 0.00 in0.0 mm 0.00 in0.0 mm
07:26 AM 47.8°F8.8°C 47.3°F8.5°C 98% 5.0 mph W8.0 kmh W 12.1 mph19.5 kmh 29.71 in1006.1 mb 0.00 in0.0 mm 0.00 in0.0 mm 0.00 in0.0 mm
07:27 AM 48.0°F8.9°C 47.5°F8.6°C 98% 5.3 mph W8.5 kmh W 12.1 mph19.5 kmh 29.71 in1006.1 mb 0.00 in0.0 mm 0.00 in0.0 mm 0.00 in0.0 mm
07:28 AM 48.0°F8.9°C 47.5°F8.6°C 98% 5.3 mph W8.5 kmh W 12.1 mph19.5 kmh 29.71 in1006.1 mb 0.00 in0.0 mm 0.00 in0.0 mm 0.00 in0.0 mm
07:29 AM 47.8°F8.8°C 47.3°F8.5°C 98% 4.9 mph W7.9 kmh W 12.1 mph19.5 kmh 29.71 in1006.1 mb 0.00 in0.0 mm 0.00 in0.0 mm 0.00 in0.0 mm
07:30 AM 47.8°F8.8°C 47.3°F8.5°C 98% 4.2 mph W6.8 kmh W 6.5 mph10.5 kmh 29.71 in1006.1 mb 0.00 in0.0 mm 0.00 in0.0 mm 0.00 in0.0 mm
07:31 AM 47.8°F8.8°C 47.3°F8.5°C 98% 4.2 mph W6.8 kmh W 6.5 mph10.5 kmh 29.71 in1006.1 mb 0.00 in0.0 mm 0.00 in0.0 mm 0.00 in0.0 mm
07:32 AM 47.8°F8.8°C 47.3°F8.5°C 98% 4.5 mph WSW7.2 kmh WSW 10.1 mph16.3 kmh 29.71 in1006.1 mb 0.00 in0.0 mm 0.00 in0.0 mm 0.00 in0.0 mm
07:33 AM 47.8°F8.8°C 47.3°F8.5°C 98% 4.3 mph WSW6.9 kmh WSW 10.1 mph16.3 kmh 29.71 in1006.1 mb 0.00 in0.0 mm 0.00 in0.0 mm 0.00 in0.0 mm
07:34 AM 47.7°F8.7°C 47.1°F8.4°C 98% 4.3 mph WSW6.9 kmh WSW 10.1 mph16.3 kmh 29.71 in1006.1 mb 0.00 in0.0 mm 0.00 in0.0 mm 0.00 in0.0 mm
07:35 AM 47.7°F8.7°C 47.1°F8.4°C 98% 4.3 mph WSW6.9 kmh WSW 10.1 mph16.3 kmh 29.71 in1006.1 mb 0.00 in0.0 mm 0.00 in0.0 mm 0.00 in0.0 mm
07:36 AM 47.8°F8.8°C 47.3°F8.5°C 98% 4.5 mph WSW7.2 kmh WSW 10.1 mph16.3 kmh 29.71 in1006.1 mb 0.00 in0.0 mm 0.00 in0.0 mm 0.00 in0.0 mm
07:37 AM 47.8°F8.8°C 47.3°F8.5°C 98% 4.2 mph WSW6.8 kmh WSW 10.1 mph16.3 kmh 29.71 in1006.1 mb 0.00 in0.0 mm 0.00 in0.0 mm 0.00 in0.0 mm
07:38 AM 47.8°F8.8°C 47.3°F8.5°C 98% 4.6 mph WSW7.4 kmh WSW 10.1 mph16.3 kmh 29.71 in1006.1 mb 0.00 in0.0 mm 0.00 in0.0 mm 0.00 in0.0 mm
07:39 AM 47.8°F8.8°C 47.3°F8.5°C 98% 4.8 mph WSW7.7 kmh WSW 10.1 mph16.3 kmh 29.71 in1006.1 mb 0.00 in0.0 mm 0.00 in0.0 mm 0.00 in0.0 mm
07:40 AM 47.8°F8.8°C 47.3°F8.5°C 98% 4.7 mph WSW7.6 kmh WSW 10.1 mph16.3 kmh 29.71 in1006.1 mb 0.00 in0.0 mm 0.00 in0.0 mm 0.00 in0.0 mm
07:41 AM 47.8°F8.8°C 47.3°F8.5°C 98% 5.0 mph WSW8.0 kmh WSW 10.1 mph16.3 kmh 29.71 in1006.1 mb 0.00 in0.0 mm 0.00 in0.0 mm 0.00 in0.0 mm
07:42 AM 47.8°F8.8°C 47.3°F8.5°C 98% 4.9 mph WSW7.9 kmh WSW 10.1 mph16.3 kmh 29.71 in1006.1 mb 0.00 in0.0 mm 0.00 in0.0 mm 0.00 in0.0 mm
07:43 AM 47.7°F8.7°C 47.1°F8.4°C 98% 4.1 mph WSW6.6 kmh WSW 9.8 mph15.8 kmh 29.71 in1006.1 mb 0.00 in0.0 mm 0.00 in0.0 mm 0.00 in0.0 mm
07:44 AM 47.7°F8.7°C 47.1°F8.4°C 98% 4.4 mph W7.1 kmh W 9.8 mph15.8 kmh 29.71 in1006.1 mb 0.00 in0.0 mm 0.00 in0.0 mm 0.00 in0.0 mm
07:45 AM 47.7°F8.7°C 47.1°F8.4°C 98% 4.6 mph W7.4 kmh W 9.8 mph15.8 kmh 29.71 in1006.1 mb 0.00 in0.0 mm 0.00 in0.0 mm 0.00 in0.0 mm
07:46 AM 47.7°F8.7°C 47.1°F8.4°C 98% 4.5 mph W7.2 kmh W 9.8 mph15.8 kmh 29.71 in1006.1 mb 0.00 in0.0 mm 0.00 in0.0 mm 0.00 in0.0 mm
07:47 AM 47.7°F8.7°C 47.1°F8.4°C 98% 4.5 mph W7.2 kmh W 9.8 mph15.8 kmh 29.71 in1006.1 mb 0.00 in0.0 mm 0.00 in0.0 mm 0.00 in0.0 mm
07:48 AM 47.7°F8.7°C 47.1°F8.4°C 98% 4.0 mph W6.4 kmh W 7.4 mph11.9 kmh 29.71 in1006.1 mb 0.00 in0.0 mm 0.00 in0.0 mm 0.00 in0.0 mm
07:49 AM 47.7°F8.7°C 47.1°F8.4°C 98% 4.1 mph W6.6 kmh W 7.4 mph11.9 kmh 29.71 in1006.1 mb 0.00 in0.0 mm 0.00 in0.0 mm 0.00 in0.0 mm
07:50 AM 47.7°F8.7°C 47.1°F8.4°C 98% 4.3 mph W6.9 kmh W 7.4 mph11.9 kmh 29.71 in1006.1 mb 0.00 in0.0 mm 0.00 in0.0 mm 0.00 in0.0 mm
07:51 AM 47.7°F8.7°C 47.1°F8.4°C 98% 4.5 mph W7.2 kmh W 9.8 mph15.8 kmh 29.71 in1006.1 mb 0.00 in0.0 mm 0.00 in0.0 mm 0.00 in0.0 mm
07:52 AM 47.7°F8.7°C 47.1°F8.4°C 98% 5.0 mph W8.0 kmh W 9.8 mph15.8 kmh 29.71 in1006.1 mb 0.00 in0.0 mm 0.00 in0.0 mm 0.00 in0.0 mm
07:53 AM 47.7°F8.7°C 47.1°F8.4°C 98% 5.9 mph WSW9.5 kmh WSW 9.8 mph15.8 kmh 29.71 in1006.1 mb 0.00 in0.0 mm 0.00 in0.0 mm 0.00 in0.0 mm
07:54 AM 47.7°F8.7°C 47.1°F8.4°C 98% 6.0 mph WSW9.7 kmh WSW 9.8 mph15.8 kmh 29.71 in1006.1 mb 0.00 in0.0 mm 0.00 in0.0 mm 0.00 in0.0 mm
07:55 AM 47.7°F8.7°C 47.1°F8.4°C 98% 6.1 mph W9.8 kmh W 9.8 mph15.8 kmh 29.71 in1006.1 mb 0.00 in0.0 mm 0.00 in0.0 mm 0.00 in0.0 mm
07:56 AM 47.7°F8.7°C 47.1°F8.4°C 98% 6.0 mph W9.7 kmh W 9.8 mph15.8 kmh 29.71 in1006.1 mb 0.00 in0.0 mm 0.00 in0.0 mm 0.00 in0.0 mm
07:57 AM 47.7°F8.7°C 47.1°F8.4°C 98% 6.0 mph WNW9.7 kmh WNW 9.8 mph15.8 kmh 29.71 in1006.1 mb 0.00 in0.0 mm 0.00 in0.0 mm 0.00 in0.0 mm
07:58 AM 47.7°F8.7°C 47.1°F8.4°C 98% 6.6 mph WNW10.6 kmh WNW 9.8 mph15.8 kmh 29.71 in1006.1 mb 0.00 in0.0 mm 0.00 in0.0 mm 0.00 in0.0 mm
07:59 AM 47.8°F8.8°C 47.3°F8.5°C 98% 6.5 mph WNW10.5 kmh WNW 9.8 mph15.8 kmh 29.71 in1006.1 mb 0.00 in0.0 mm 0.00 in0.0 mm 0.00 in0.0 mm
08:00 AM 47.8°F8.8°C 47.3°F8.5°C 98% 6.7 mph WNW10.8 kmh WNW 9.8 mph15.8 kmh 29.71 in1006.1 mb 0.00 in0.0 mm 0.00 in0.0 mm 0.00 in0.0 mm
08:01 AM 47.8°F8.8°C 47.0°F8.3°C 97% 6.3 mph WNW10.1 kmh WNW 9.8 mph15.8 kmh 29.71 in1006.1 mb 0.00 in0.0 mm 0.00 in0.0 mm 0.00 in0.0 mm
08:02 AM 48.0°F8.9°C 47.2°F8.4°C 97% 6.1 mph NW9.8 kmh NW 8.1 mph13.0 kmh 29.71 in1006.1 mb 0.00 in0.0 mm 0.00 in0.0 mm 0.00 in0.0 mm
08:03 AM 48.0°F8.9°C 47.2°F8.4°C 97% 5.9 mph NW9.5 kmh NW 8.1 mph13.0 kmh 29.71 in1006.1 mb 0.00 in0.0 mm 0.00 in0.0 mm 0.00 in0.0 mm
08:04 AM 48.0°F8.9°C 47.2°F8.4°C 97% 5.9 mph NW9.5 kmh NW 8.1 mph13.0 kmh 29.71 in1006.1 mb 0.00 in0.0 mm 0.00 in0.0 mm 0.00 in0.0 mm
08:05 AM 48.0°F8.9°C 47.2°F8.4°C 97% 5.9 mph NW9.5 kmh NW 9.8 mph15.8 kmh 29.71 in1006.1 mb 0.00 in0.0 mm 0.00 in0.0 mm 0.00 in0.0 mm
08:06 AM 48.6°F9.2°C 47.2°F8.4°C 95% 6.1 mph NW9.8 kmh NW 9.8 mph15.8 kmh 29.71 in1006.1 mb 0.00 in0.0 mm 0.00 in0.0 mm 0.00 in0.0 mm
08:07 AM 48.6°F9.2°C 47.2°F8.4°C 95% 6.3 mph NW10.1 kmh NW 9.8 mph15.8 kmh 29.71 in1006.1 mb 0.00 in0.0 mm 0.00 in0.0 mm 0.00 in0.0 mm
08:08 AM 48.9°F9.4°C 47.3°F8.5°C 94% 6.6 mph NW10.6 kmh NW 9.8 mph15.8 kmh 29.71 in1006.1 mb 0.00 in0.0 mm 0.00 in0.0 mm 0.00 in0.0 mm
08:09 AM 49.1°F9.5°C 47.2°F8.4°C 93% 6.8 mph NW10.9 kmh NW 9.8 mph15.8 kmh 29.71 in1006.1 mb 0.00 in0.0 mm 0.00 in0.0 mm 0.00 in0.0 mm
08:10 AM 49.1°F9.5°C 47.2°F8.4°C 93% 7.4 mph NW11.9 kmh NW 12.3 mph19.8 kmh 29.71 in1006.1 mb 0.00 in0.0 mm 0.00 in0.0 mm 0.00 in0.0 mm
08:11 AM 49.3°F9.6°C 46.8°F8.2°C 91% 7.7 mph NW12.4 kmh NW 12.3 mph19.8 kmh 29.71 in1006.1 mb 0.00 in0.0 mm 0.00 in0.0 mm 0.00 in0.0 mm
08:12 AM 49.3°F9.6°C 46.8°F8.2°C 91% 8.2 mph WNW13.2 kmh WNW 12.3 mph19.8 kmh 29.71 in1006.1 mb 0.00 in0.0 mm 0.00 in0.0 mm 0.00 in0.0 mm
08:13 AM 49.5°F9.7°C 46.6°F8.1°C 90% 8.3 mph WNW13.4 kmh WNW 12.3 mph19.8 kmh 29.71 in1006.1 mb 0.00 in0.0 mm 0.00 in0.0 mm 0.00 in0.0 mm
08:14 AM 49.5°F9.7°C 46.6°F8.1°C 90% 8.3 mph WNW13.4 kmh WNW 12.3 mph19.8 kmh 29.71 in1006.1 mb 0.00 in0.0 mm 0.00 in0.0 mm 0.00 in0.0 mm
08:15 AM 49.6°F9.8°C 46.5°F8.1°C 89% 8.0 mph WNW12.9 kmh WNW 12.3 mph19.8 kmh 29.71 in1006.1 mb 0.00 in0.0 mm 0.00 in0.0 mm 0.00 in0.0 mm
08:16 AM 49.6°F9.8°C 46.5°F8.1°C 89% 7.9 mph WNW12.7 kmh WNW 12.3 mph19.8 kmh 29.71 in1006.1 mb 0.00 in0.0 mm 0.00 in0.0 mm 0.00 in0.0 mm
08:17 AM 49.6°F9.8°C 46.5°F8.1°C 89% 7.8 mph WNW12.6 kmh WNW 12.3 mph19.8 kmh 29.71 in1006.1 mb 0.00 in0.0 mm 0.00 in0.0 mm 0.00 in0.0 mm
08:18 AM 49.6°F9.8°C 46.2°F7.9°C 88% 7.8 mph WNW12.6 kmh WNW 12.3 mph19.8 kmh 29.71 in1006.1 mb 0.00 in0.0 mm 0.00 in0.0 mm 0.00 in0.0 mm
08:19 AM 49.6°F9.8°C 46.2°F7.9°C 88% 7.6 mph WNW12.2 kmh WNW 12.3 mph19.8 kmh 29.71 in1006.1 mb 0.00 in0.0 mm 0.00 in0.0 mm 0.00 in0.0 mm
08:20 AM 49.6°F9.8°C 45.9°F7.7°C 87% 7.2 mph W11.6 kmh W 8.7 mph14.0 kmh 29.71 in1006.1 mb 0.00 in0.0 mm 0.00 in0.0 mm 0.00 in0.0 mm
08:21 AM 49.6°F9.8°C 45.9°F7.7°C 87% 7.0 mph W11.3 kmh W 8.7 mph14.0 kmh 29.71 in1006.1 mb 0.00 in0.0 mm 0.00 in0.0 mm 0.00 in0.0 mm
08:22 AM 49.6°F9.8°C 46.2°F7.9°C 88% 6.6 mph W10.6 kmh W 8.7 mph14.0 kmh 29.71 in1006.1 mb 0.00 in0.0 mm 0.00 in0.0 mm 0.00 in0.0 mm
08:23 AM 49.6°F9.8°C 46.2°F7.9°C 88% 6.3 mph W10.1 kmh W 8.1 mph13.0 kmh 29.71 in1006.1 mb 0.00 in0.0 mm 0.00 in0.0 mm 0.00 in0.0 mm
08:24 AM 49.6°F9.8°C 46.2°F7.9°C 88% 6.3 mph W10.1 kmh W 8.1 mph13.0 kmh 29.71 in1006.1 mb 0.00 in0.0 mm 0.00 in0.0 mm 0.00 in0.0 mm
08:25 AM 49.6°F9.8°C 45.9°F7.7°C 87% 6.5 mph W10.5 kmh W 8.1 mph13.0 kmh 29.71 in1006.1 mb 0.00 in0.0 mm 0.00 in0.0 mm 0.00 in0.0 mm
08:26 AM 49.6°F9.8°C 45.9°F7.7°C 87% 6.5 mph W10.5 kmh W 8.1 mph13.0 kmh 29.71 in1006.1 mb 0.00 in0.0 mm 0.00 in0.0 mm 0.00 in0.0 mm
08:27 AM 49.6°F9.8°C 46.2°F7.9°C 88% 6.4 mph W10.3 kmh W 7.6 mph12.2 kmh 29.71 in1006.1 mb 0.00 in0.0 mm 0.00 in0.0 mm 0.00 in0.0 mm
08:28 AM 49.6°F9.8°C 46.2°F7.9°C 88% 6.3 mph W10.1 kmh W 7.6 mph12.2 kmh 29.71 in1006.1 mb 0.00 in0.0 mm 0.00 in0.0 mm 0.00 in0.0 mm
08:29 AM 49.6°F9.8°C 46.2°F7.9°C 88% 6.0 mph W9.7 kmh W 7.4 mph11.9 kmh 29.71 in1006.1 mb 0.00 in0.0 mm 0.00 in0.0 mm 0.00 in0.0 mm
08:30 AM 49.6°F9.8°C 46.2°F7.9°C 88% 5.5 mph W8.9 kmh W 7.4 mph11.9 kmh 29.71 in1006.1 mb 0.00 in0.0 mm 0.00 in0.0 mm 0.00 in0.0 mm
08:31 AM 49.5°F9.7°C 46.1°F7.8°C 88% 5.2 mph W8.4 kmh W 7.4 mph11.9 kmh 29.71 in1006.1 mb 0.00 in0.0 mm 0.00 in0.0 mm 0.00 in0.0 mm
08:32 AM 49.5°F9.7°C 46.1°F7.8°C 88% 5.2 mph W8.4 kmh W 7.4 mph11.9 kmh 29.71 in1006.1 mb 0.00 in0.0 mm 0.00 in0.0 mm 0.00 in0.0 mm
08:33 AM 49.6°F9.8°C 46.2°F7.9°C 88% 5.0 mph W8.0 kmh W 7.4 mph11.9 kmh 29.71 in1006.1 mb 0.00 in0.0 mm 0.00 in0.0 mm 0.00 in0.0 mm
08:34 AM 49.6°F9.8°C 46.2°F7.9°C 88% 5.0 mph W8.0 kmh W 7.4 mph11.9 kmh 29.71 in1006.1 mb 0.00 in0.0 mm 0.00 in0.0 mm 0.00 in0.0 mm
08:35 AM 49.6°F9.8°C 46.2°F7.9°C 88% 4.8 mph W7.7 kmh W 7.4 mph11.9 kmh 29.71 in1006.1 mb 0.00 in0.0 mm 0.00 in0.0 mm 0.00 in0.0 mm
08:36 AM 49.6°F9.8°C 46.2°F7.9°C 88% 4.6 mph W7.4 kmh W 7.4 mph11.9 kmh 29.71 in1006.1 mb 0.00 in0.0 mm 0.00 in0.0 mm 0.00 in0.0 mm
08:37 AM 49.8°F9.9°C 46.4°F8.0°C 88% 4.7 mph W7.6 kmh W 7.4 mph11.9 kmh 29.71 in1006.1 mb 0.00 in0.0 mm 0.00 in0.0 mm 0.00 in0.0 mm
08:38 AM 49.8°F9.9°C 46.4°F8.0°C 88% 4.6 mph W7.4 kmh W 7.4 mph11.9 kmh 29.71 in1006.1 mb 0.00 in0.0 mm 0.00 in0.0 mm 0.00 in0.0 mm
08:39 AM 50.0°F10.0°C 46.0°F7.8°C 86% 4.6 mph W7.4 kmh W 7.4 mph11.9 kmh 29.71 in1006.1 mb 0.00 in0.0 mm 0.00 in0.0 mm 0.00 in0.0 mm
08:40 AM 50.0°F10.0°C 46.0°F7.8°C 86% 5.1 mph W8.2 kmh W 8.5 mph13.7 kmh 29.71 in1006.1 mb 0.00 in0.0 mm 0.00 in0.0 mm 0.00 in0.0 mm
08:41 AM 50.0°F10.0°C 46.0°F7.8°C 86% 5.7 mph W9.2 kmh W 8.5 mph13.7 kmh 29.71 in1006.1 mb 0.00 in0.0 mm 0.00 in0.0 mm 0.00 in0.0 mm
08:42 AM 50.0°F10.0°C 46.0°F7.8°C 86% 6.0 mph W9.7 kmh W 8.5 mph13.7 kmh 29.71 in1006.1 mb 0.00 in0.0 mm 0.00 in0.0 mm 0.00 in0.0 mm
08:43 AM 50.0°F10.0°C 46.0°F7.8°C 86% 6.8 mph W10.9 kmh W 12.1 mph19.5 kmh 29.71 in1006.1 mb 0.00 in0.0 mm 0.00 in0.0 mm 0.00 in0.0 mm
08:44 AM 50.2°F10.1°C 45.8°F7.7°C 85% 6.5 mph W10.5 kmh W 12.1 mph19.5 kmh 29.74 in1007.1 mb 0.00 in0.0 mm 0.00 in0.0 mm 0.00 in0.0 mm
08:45 AM 50.2°F10.1°C 45.8°F7.7°C 85% 6.7 mph W10.8 kmh W 12.1 mph19.5 kmh 29.74 in1007.1 mb 0.00 in0.0 mm 0.00 in0.0 mm 0.00 in0.0 mm
08:46 AM 50.2°F10.1°C 45.8°F7.7°C 85% 7.0 mph W11.3 kmh W 12.1 mph19.5 kmh 29.74 in1007.1 mb 0.00 in0.0 mm 0.00 in0.0 mm 0.00 in0.0 mm
08:47 AM 50.2°F10.1°C 45.5°F7.5°C 84% 7.2 mph WNW11.6 kmh WNW 12.1 mph19.5 kmh 29.74 in1007.1 mb 0.00 in0.0 mm 0.00 in0.0 mm 0.00 in0.0 mm
08:48 AM 50.2°F10.1°C 45.5°F7.5°C 84% 7.4 mph WNW11.9 kmh WNW 12.1 mph19.5 kmh 29.74 in1007.1 mb 0.00 in0.0 mm 0.00 in0.0 mm 0.00 in0.0 mm
08:49 AM 50.2°F10.1°C 45.5°F7.5°C 84% 8.1 mph WNW13.0 kmh WNW 12.1 mph19.5 kmh 29.74 in1007.1 mb 0.00 in0.0 mm 0.00 in0.0 mm 0.00 in0.0 mm
08:50 AM 50.2°F10.1°C 45.5°F7.5°C 84% 8.0 mph WNW12.9 kmh WNW 12.1 mph19.5 kmh 29.74 in1007.1 mb 0.00 in0.0 mm 0.00 in0.0 mm 0.00 in0.0 mm
08:51 AM 50.2°F10.1°C 45.5°F7.5°C 84% 8.1 mph WNW13.0 kmh WNW 12.1 mph19.5 kmh 29.74 in1007.1 mb 0.00 in0.0 mm 0.00 in0.0 mm 0.00 in0.0 mm
08:52 AM 50.2°F10.1°C 45.5°F7.5°C 84% 8.3 mph WNW13.4 kmh WNW 12.1 mph19.5 kmh 29.74 in1007.1 mb 0.00 in0.0 mm 0.00 in0.0 mm 0.00 in0.0 mm
08:53 AM 50.2°F10.1°C 45.2°F7.3°C 83% 8.1 mph NW13.0 kmh NW 10.7 mph17.2 kmh 29.74 in1007.1 mb 0.00 in0.0 mm 0.00 in0.0 mm 0.00 in0.0 mm
08:54 AM 50.2°F10.1°C 44.9°F7.2°C 82% 8.4 mph NW13.5 kmh NW 10.7 mph17.2 kmh 29.74 in1007.1 mb 0.00 in0.0 mm 0.00 in0.0 mm 0.00 in0.0 mm
08:55 AM 50.2°F10.1°C 44.9°F7.2°C 82% 8.4 mph NW13.5 kmh NW 10.7 mph17.2 kmh 29.74 in1007.1 mb 0.00 in0.0 mm 0.00 in0.0 mm 0.00 in0.0 mm
08:56 AM 50.4°F10.2°C 45.1°F7.3°C 82% 8.1 mph NW13.0 kmh NW 10.7 mph17.2 kmh 29.74 in1007.1 mb 0.00 in0.0 mm 0.00 in0.0 mm 0.00 in0.0 mm
08:57 AM 50.4°F10.2°C 45.1°F7.3°C 82% 7.9 mph NW12.7 kmh NW 10.7 mph17.2 kmh 29.74 in1007.1 mb 0.00 in0.0 mm 0.00 in0.0 mm 0.00 in0.0 mm
08:58 AM 50.4°F10.2°C 44.7°F7.1°C 81% 8.2 mph NW13.2 kmh NW 10.7 mph17.2 kmh 29.74 in1007.1 mb 0.00 in0.0 mm 0.00 in0.0 mm 0.00 in0.0 mm
08:59 AM 50.4°F10.2°C 44.7°F7.1°C 81% 8.3 mph NW13.4 kmh NW 10.7 mph17.2 kmh 29.74 in1007.1 mb 0.00 in0.0 mm 0.00 in0.0 mm 0.00 in0.0 mm
09:00 AM 50.5°F10.3°C 44.3°F6.8°C 79% 8.1 mph NW13.0 kmh NW 10.7 mph17.2 kmh 29.74 in1007.1 mb 0.00 in0.0 mm 0.00 in0.0 mm 0.00 in0.0 mm
09:01 AM 50.5°F10.3°C 44.3°F6.8°C 79% 8.0 mph WNW12.9 kmh WNW 10.7 mph17.2 kmh 29.74 in1007.1 mb 0.00 in0.0 mm 0.00 in0.0 mm 0.00 in0.0 mm
09:02 AM 50.5°F10.3°C 44.3°F6.8°C 79% 7.8 mph WNW12.6 kmh WNW 10.7 mph17.2 kmh 29.74 in1007.1 mb 0.00 in0.0 mm 0.00 in0.0 mm 0.00 in0.0 mm
09:03 AM 50.5°F10.3°C 43.9°F6.6°C 78% 7.4 mph WNW11.9 kmh WNW 10.7 mph17.2 kmh 29.74 in1007.1 mb 0.00 in0.0 mm 0.00 in0.0 mm 0.00 in0.0 mm
09:04 AM 50.5°F10.3°C 43.9°F6.6°C 78% 7.7 mph NW12.4 kmh NW 10.7 mph17.2 kmh 29.74 in1007.1 mb 0.00 in0.0 mm 0.00 in0.0 mm 0.00 in0.0 mm
09:05 AM 50.5°F10.3°C 43.6°F6.4°C 77% 7.7 mph NW12.4 kmh NW 10.7 mph17.2 kmh 29.74 in1007.1 mb 0.00 in0.0 mm 0.00 in0.0 mm 0.00 in0.0 mm
09:06 AM 50.5°F10.3°C 43.6°F6.4°C 77% 8.2 mph WNW13.2 kmh WNW 12.1 mph19.5 kmh 29.74 in1007.1 mb 0.00 in0.0 mm 0.00 in0.0 mm 0.00 in0.0 mm
09:07 AM 50.5°F10.3°C 43.3°F6.3°C 76% 8.3 mph NW13.4 kmh NW 12.1 mph19.5 kmh 29.74 in1007.1 mb 0.00 in0.0 mm 0.00 in0.0 mm 0.00 in0.0 mm
09:08 AM 50.5°F10.3°C 43.3°F6.3°C 76% 7.9 mph NW12.7 kmh NW 12.1 mph19.5 kmh 29.74 in1007.1 mb 0.00 in0.0 mm 0.00 in0.0 mm 0.00 in0.0 mm
09:09 AM 50.5°F10.3°C 43.6°F6.4°C 77% 7.8 mph NW12.6 kmh NW 12.1 mph19.5 kmh 29.74 in1007.1 mb 0.00 in0.0 mm 0.00 in0.0 mm 0.00 in0.0 mm
09:10 AM 50.7°F10.4°C 43.4°F6.3°C 76% 7.7 mph NW12.4 kmh NW 12.1 mph19.5 kmh 29.74 in1007.1 mb 0.00 in0.0 mm 0.00 in0.0 mm 0.00 in0.0 mm
09:11 AM 50.7°F10.4°C 43.4°F6.3°C 76% 7.7 mph NW12.4 kmh NW 12.1 mph19.5 kmh 29.74 in1007.1 mb 0.00 in0.0 mm 0.00 in0.0 mm 0.00 in0.0 mm
09:12 AM 50.7°F10.4°C 43.1°F6.2°C 75% 7.8 mph NW12.6 kmh NW 12.1 mph19.5 kmh 29.74 in1007.1 mb 0.00 in0.0 mm 0.00 in0.0 mm 0.00 in0.0 mm
09:13 AM 50.7°F10.4°C 43.1°F6.2°C 75% 7.8 mph NW12.6 kmh NW 12.1 mph19.5 kmh 29.74 in1007.1 mb 0.00 in0.0 mm 0.00 in0.0 mm 0.00 in0.0 mm
09:14 AM 50.9°F10.5°C 43.3°F6.3°C 75% 7.8 mph NW12.6 kmh NW 12.1 mph19.5 kmh 29.74 in1007.1 mb 0.00 in0.0 mm 0.00 in0.0 mm 0.00 in0.0 mm
09:15 AM 50.9°F10.5°C 42.9°F6.1°C 74% 7.6 mph NW12.2 kmh NW 12.1 mph19.5 kmh 29.74 in1007.1 mb 0.00 in0.0 mm 0.00 in0.0 mm 0.00 in0.0 mm
09:16 AM 50.9°F10.5°C 42.9°F6.1°C 74% 7.6 mph NW12.2 kmh NW 12.1 mph19.5 kmh 29.74 in1007.1 mb 0.00 in0.0 mm 0.00 in0.0 mm 0.00 in0.0 mm
09:17 AM 51.1°F10.6°C 43.1°F6.2°C 74% 7.4 mph NW11.9 kmh NW 12.1 mph19.5 kmh 29.74 in1007.1 mb 0.00 in0.0 mm 0.00 in0.0 mm 0.00 in0.0 mm
09:18 AM 51.3°F10.7°C 42.9°F6.1°C 73% 7.8 mph NW12.6 kmh NW 11.0 mph17.7 kmh 29.74 in1007.1 mb 0.00 in0.0 mm 0.00 in0.0 mm 0.00 in0.0 mm
09:19 AM 51.3°F10.7°C 42.9°F6.1°C 73% 7.9 mph WNW12.7 kmh WNW 11.0 mph17.7 kmh 29.74 in1007.1 mb 0.00 in0.0 mm 0.00 in0.0 mm 0.00 in0.0 mm
09:20 AM 51.4°F10.8°C 43.1°F6.2°C 73% 8.0 mph W12.9 kmh W 11.0 mph17.7 kmh 29.74 in1007.1 mb 0.00 in0.0 mm 0.00 in0.0 mm 0.00 in0.0 mm
09:21 AM 51.4°F10.8°C 43.1°F6.2°C 73% 8.1 mph W13.0 kmh W 11.0 mph17.7 kmh 29.74 in1007.1 mb 0.00 in0.0 mm 0.00 in0.0 mm 0.00 in0.0 mm
09:22 AM 51.6°F10.9°C 43.2°F6.2°C 73% 8.2 mph WSW13.2 kmh WSW 11.0 mph17.7 kmh 29.74 in1007.1 mb 0.00 in0.0 mm 0.00 in0.0 mm 0.00 in0.0 mm
09:23 AM 51.6°F10.9°C 43.2°F6.2°C 73% 8.2 mph WSW13.2 kmh WSW 11.0 mph17.7 kmh 29.74 in1007.1 mb 0.00 in0.0 mm 0.00 in0.0 mm 0.00 in0.0 mm
09:24 AM 51.6°F10.9°C 42.9°F6.1°C 72% 8.0 mph WSW12.9 kmh WSW 11.0 mph17.7 kmh 29.74 in1007.1 mb 0.00 in0.0 mm 0.00 in0.0 mm 0.00 in0.0 mm
09:25 AM 51.8°F11.0°C 42.7°F5.9°C 71% 8.2 mph W13.2 kmh W 11.0 mph17.7 kmh 29.74 in1007.1 mb 0.00 in0.0 mm 0.00 in0.0 mm 0.00 in0.0 mm
09:26 AM 51.8°F11.0°C 42.7°F5.9°C 71% 8.0 mph W12.9 kmh W 11.0 mph17.7 kmh 29.74 in1007.1 mb 0.00 in0.0 mm 0.00 in0.0 mm 0.00 in0.0 mm
09:27 AM 51.8°F11.0°C 42.7°F5.9°C 71% 8.3 mph WSW13.4 kmh WSW 13.2 mph21.2 kmh 29.74 in1007.1 mb 0.00 in0.0 mm 0.00 in0.0 mm 0.00 in0.0 mm
09:28 AM 51.8°F11.0°C 42.7°F5.9°C 71% 8.5 mph W13.7 kmh W 14.1 mph22.7 kmh 29.74 in1007.1 mb 0.00 in0.0 mm 0.00 in0.0 mm 0.00 in0.0 mm
09:29 AM 52.0°F11.1°C 42.5°F5.8°C 70% 8.4 mph WSW13.5 kmh WSW 14.1 mph22.7 kmh 29.74 in1007.1 mb 0.00 in0.0 mm 0.00 in0.0 mm 0.00 in0.0 mm
09:30 AM 52.0°F11.1°C 42.5°F5.8°C 70% 8.2 mph W13.2 kmh W 14.1 mph22.7 kmh 29.74 in1007.1 mb 0.00 in0.0 mm 0.00 in0.0 mm 0.00 in0.0 mm
09:31 AM 52.2°F11.2°C 43.0°F6.1°C 71% 7.7 mph W12.4 kmh W 14.1 mph22.7 kmh 29.74 in1007.1 mb 0.00 in0.0 mm 0.00 in0.0 mm 0.00 in0.0 mm
09:32 AM 52.3°F11.3°C 43.2°F6.2°C 71% 7.5 mph W12.1 kmh W 14.1 mph22.7 kmh 29.74 in1007.1 mb 0.00 in0.0 mm 0.00 in0.0 mm 0.00 in0.0 mm
09:33 AM 52.3°F11.3°C 43.2°F6.2°C 71% 7.5 mph WNW12.1 kmh WNW 14.1 mph22.7 kmh 29.74 in1007.1 mb 0.00 in0.0 mm 0.00 in0.0 mm 0.00 in0.0 mm
09:34 AM 52.2°F11.2°C 42.3°F5.7°C 69% 7.7 mph W12.4 kmh W 14.1 mph22.7 kmh 29.74 in1007.1 mb 0.00 in0.0 mm 0.00 in0.0 mm 0.00 in0.0 mm
09:35 AM 52.2°F11.2°C 42.3°F5.7°C 69% 7.7 mph W12.4 kmh W 14.1 mph22.7 kmh 29.74 in1007.1 mb 0.00 in0.0 mm 0.00 in0.0 mm 0.00 in0.0 mm
09:36 AM 52.3°F11.3°C 42.1°F5.6°C 68% 8.2 mph W13.2 kmh W 14.1 mph22.7 kmh 29.74 in1007.1 mb 0.00 in0.0 mm 0.00 in0.0 mm 0.00 in0.0 mm
09:37 AM 52.3°F11.3°C 42.1°F5.6°C 68% 7.6 mph W12.2 kmh W 14.1 mph22.7 kmh 29.74 in1007.1 mb 0.00 in0.0 mm 0.00 in0.0 mm 0.00 in0.0 mm
09:38 AM 52.7°F11.5°C 42.8°F6.0°C 69% 6.8 mph W10.9 kmh W 10.7 mph17.2 kmh 29.74 in1007.1 mb 0.00 in0.0 mm 0.00 in0.0 mm 0.00 in0.0 mm
09:39 AM 52.7°F11.5°C 42.8°F6.0°C 69% 7.1 mph W11.4 kmh W 12.8 mph20.6 kmh 29.74 in1007.1 mb 0.00 in0.0 mm 0.00 in0.0 mm 0.00 in0.0 mm
09:40 AM 52.9°F11.6°C 42.6°F5.9°C 68% 7.6 mph WNW12.2 kmh WNW 16.1 mph25.9 kmh 29.74 in1007.1 mb 0.00 in0.0 mm 0.00 in0.0 mm 0.00 in0.0 mm
09:41 AM 52.9°F11.6°C 42.2°F5.7°C 67% 8.6 mph WNW13.8 kmh WNW 16.1 mph25.9 kmh 29.74 in1007.1 mb 0.00 in0.0 mm 0.00 in0.0 mm 0.00 in0.0 mm
09:42 AM 52.9°F11.6°C 42.2°F5.7°C 67% 8.5 mph WNW13.7 kmh WNW 16.1 mph25.9 kmh 29.74 in1007.1 mb 0.00 in0.0 mm 0.00 in0.0 mm 0.00 in0.0 mm
09:43 AM 52.9°F11.6°C 42.2°F5.7°C 67% 8.4 mph W13.5 kmh W 16.1 mph25.9 kmh 29.74 in1007.1 mb 0.00 in0.0 mm 0.00 in0.0 mm 0.00 in0.0 mm
09:44 AM 52.9°F11.6°C 42.2°F5.7°C 67% 8.8 mph WNW14.2 kmh WNW 16.1 mph25.9 kmh 29.74 in1007.1 mb 0.00 in0.0 mm 0.00 in0.0 mm 0.00 in0.0 mm
09:45 AM 53.1°F11.7°C 41.6°F5.3°C 65% 9.0 mph WNW14.5 kmh WNW 16.1 mph25.9 kmh 29.74 in1007.1 mb 0.00 in0.0 mm 0.00 in0.0 mm 0.00 in0.0 mm
09:46 AM 53.1°F11.7°C 41.6°F5.3°C 65% 9.1 mph WNW14.6 kmh WNW 16.1 mph25.9 kmh 29.74 in1007.1 mb 0.00 in0.0 mm 0.00 in0.0 mm 0.00 in0.0 mm
09:47 AM 53.1°F11.7°C 41.6°F5.3°C 65% 9.2 mph WNW14.8 kmh WNW 16.1 mph25.9 kmh 29.74 in1007.1 mb 0.00 in0.0 mm 0.00 in0.0 mm 0.00 in0.0 mm
09:48 AM 53.1°F11.7°C 41.6°F5.3°C 65% 10.1 mph WNW16.3 kmh WNW 16.1 mph25.9 kmh 29.74 in1007.1 mb 0.00 in0.0 mm 0.00 in0.0 mm 0.00 in0.0 mm
09:49 AM 53.1°F11.7°C 41.6°F5.3°C 65% 10.0 mph WNW16.1 kmh WNW 16.1 mph25.9 kmh 29.74 in1007.1 mb 0.00 in0.0 mm 0.00 in0.0 mm 0.00 in0.0 mm
09:50 AM 53.6°F12.0°C 41.3°F5.2°C 63% 10.3 mph WNW16.6 kmh WNW 16.1 mph25.9 kmh 29.74 in1007.1 mb 0.00 in0.0 mm 0.00 in0.0 mm 0.00 in0.0 mm
09:51 AM 53.6°F12.0°C 41.3°F5.2°C 63% 10.1 mph WNW16.3 kmh WNW 16.1 mph25.9 kmh 29.74 in1007.1 mb 0.00 in0.0 mm 0.00 in0.0 mm 0.00 in0.0 mm
09:52 AM 53.6°F12.0°C 40.0°F4.4°C 60% 9.4 mph NW15.1 kmh NW 13.0 mph20.9 kmh 29.74 in1007.1 mb 0.00 in0.0 mm 0.00 in0.0 mm 0.00 in0.0 mm
09:53 AM 53.6°F12.0°C 40.0°F4.4°C 60% 10.1 mph NW16.3 kmh NW 15.2 mph24.5 kmh 29.74 in1007.1 mb 0.00 in0.0 mm 0.00 in0.0 mm 0.00 in0.0 mm
09:54 AM 54.0°F12.2°C 40.4°F4.7°C 60% 10.6 mph NW17.1 kmh NW 15.2 mph24.5 kmh 29.74 in1007.1 mb 0.00 in0.0 mm 0.00 in0.0 mm 0.00 in0.0 mm
09:55 AM 54.3°F12.4°C 40.7°F4.8°C 60% 11.1 mph NW17.9 kmh NW 15.2 mph24.5 kmh 29.74 in1007.1 mb 0.00 in0.0 mm 0.00 in0.0 mm 0.00 in0.0 mm
09:56 AM 54.3°F12.4°C 40.7°F4.8°C 60% 11.1 mph NW17.9 kmh NW 15.2 mph24.5 kmh 29.74 in1007.1 mb 0.00 in0.0 mm 0.00 in0.0 mm 0.00 in0.0 mm
09:57 AM 54.5°F12.5°C 40.0°F4.4°C 58% 11.2 mph NW18.0 kmh NW 15.2 mph24.5 kmh 29.74 in1007.1 mb 0.00 in0.0 mm 0.00 in0.0 mm 0.00 in0.0 mm
09:58 AM 54.5°F12.5°C 40.0°F4.4°C 58% 11.8 mph WNW19.0 kmh WNW 17.2 mph27.7 kmh 29.74 in1007.1 mb 0.00 in0.0 mm 0.00 in0.0 mm 0.00 in0.0 mm
09:59 AM 54.3°F12.4°C 39.4°F4.1°C 57% 12.4 mph WNW20.0 kmh WNW 17.2 mph27.7 kmh 29.74 in1007.1 mb 0.00 in0.0 mm 0.00 in0.0 mm 0.00 in0.0 mm
10:00 AM 54.3°F12.4°C 39.4°F4.1°C 57% 12.1 mph W19.5 kmh W 17.2 mph27.7 kmh 29.74 in1007.1 mb 0.00 in0.0 mm 0.00 in0.0 mm 0.00 in0.0 mm
10:01 AM 54.3°F12.4°C 39.4°F4.1°C 57% 12.0 mph W19.3 kmh W 17.2 mph27.7 kmh 29.74 in1007.1 mb 0.00 in0.0 mm 0.00 in0.0 mm 0.00 in0.0 mm
10:02 AM 54.5°F12.5°C 37.7°F3.2°C 53% 11.8 mph W19.0 kmh W 17.2 mph27.7 kmh 29.74 in1007.1 mb 0.00 in0.0 mm 0.00 in0.0 mm 0.00 in0.0 mm
10:03 AM 54.5°F12.5°C 37.7°F3.2°C 53% 11.4 mph WSW18.3 kmh WSW 17.2 mph27.7 kmh 29.74 in1007.1 mb 0.00 in0.0 mm 0.00 in0.0 mm 0.00 in0.0 mm
10:04 AM 54.5°F12.5°C 37.7°F3.2°C 53% 11.0 mph WSW17.7 kmh WSW 17.2 mph27.7 kmh 29.74 in1007.1 mb 0.00 in0.0 mm 0.00 in0.0 mm 0.00 in0.0 mm
10:05 AM 54.5°F12.5°C 37.7°F3.2°C 53% 10.9 mph WSW17.5 kmh WSW 17.2 mph27.7 kmh 29.74 in1007.1 mb 0.00 in0.0 mm 0.00 in0.0 mm 0.00 in0.0 mm
10:06 AM 54.5°F12.5°C 37.2°F2.9°C 52% 10.2 mph WSW16.4 kmh WSW 17.2 mph27.7 kmh 29.74 in1007.1 mb 0.00 in0.0 mm 0.00 in0.0 mm 0.00 in0.0 mm
10:07 AM 54.5°F12.5°C 37.2°F2.9°C 52% 10.2 mph WSW16.4 kmh WSW 17.2 mph27.7 kmh 29.74 in1007.1 mb 0.00 in0.0 mm 0.00 in0.0 mm 0.00 in0.0 mm
10:08 AM 54.7°F12.6°C 36.9°F2.7°C 51% 8.7 mph WSW14.0 kmh WSW 17.2 mph27.7 kmh 29.74 in1007.1 mb 0.00 in0.0 mm 0.00 in0.0 mm 0.00 in0.0 mm
10:09 AM 54.7°F12.6°C 36.9°F2.7°C 51% 8.1 mph W13.0 kmh W 17.0 mph27.4 kmh 29.74 in1007.1 mb 0.00 in0.0 mm 0.00 in0.0 mm 0.00 in0.0 mm
10:10 AM 54.5°F12.5°C 36.2°F2.3°C 50% 8.3 mph W13.4 kmh W 17.0 mph27.4 kmh 29.74 in1007.1 mb 0.00 in0.0 mm 0.00 in0.0 mm 0.00 in0.0 mm
10:11 AM 54.5°F12.5°C 35.2°F1.8°C 48% 8.1 mph WNW13.0 kmh WNW 13.4 mph21.6 kmh 29.74 in1007.1 mb 0.00 in0.0 mm 0.00 in0.0 mm 0.00 in0.0 mm
10:12 AM 54.5°F12.5°C 35.2°F1.8°C 48% 8.6 mph WNW13.8 kmh WNW 14.3 mph23.0 kmh 29.74 in1007.1 mb 0.00 in0.0 mm 0.00 in0.0 mm 0.00 in0.0 mm
10:13 AM 54.5°F12.5°C 34.7°F1.5°C 47% 9.4 mph WNW15.1 kmh WNW 14.3 mph23.0 kmh 29.74 in1007.1 mb 0.00 in0.0 mm 0.00 in0.0 mm 0.00 in0.0 mm
10:14 AM 54.5°F12.5°C 34.7°F1.5°C 47% 9.4 mph WNW15.1 kmh WNW 14.3 mph23.0 kmh 29.77 in1008.1 mb 0.00 in0.0 mm 0.00 in0.0 mm 0.00 in0.0 mm
10:15 AM 54.7°F12.6°C 34.8°F1.6°C 47% 9.6 mph WNW15.4 kmh WNW 14.3 mph23.0 kmh 29.77 in1008.1 mb 0.00 in0.0 mm 0.00 in0.0 mm 0.00 in0.0 mm
10:16 AM 54.7°F12.6°C 34.8°F1.6°C 47% 9.7 mph WNW15.6 kmh WNW 14.3 mph23.0 kmh 29.77 in1008.1 mb 0.00 in0.0 mm 0.00 in0.0 mm 0.00 in0.0 mm
10:17 AM 54.7°F12.6°C 34.8°F1.6°C 47% 9.8 mph NW15.8 kmh NW 14.3 mph23.0 kmh 29.77 in1008.1 mb 0.00 in0.0 mm 0.00 in0.0 mm 0.00 in0.0 mm
10:18 AM 54.7°F12.6°C 34.3°F1.3°C 46% 10.0 mph NW16.1 kmh NW 14.3 mph23.0 kmh 29.77 in1008.1 mb 0.00 in0.0 mm 0.00 in0.0 mm 0.00 in0.0 mm
10:19 AM 54.7°F12.6°C 34.3°F1.3°C 46% 10.2 mph NW16.4 kmh NW 14.3 mph23.0 kmh 29.77 in1008.1 mb 0.00 in0.0 mm 0.00 in0.0 mm 0.00 in0.0 mm
10:20 AM 54.5°F12.5°C 33.6°F0.9°C 45% 11.4 mph WNW18.3 kmh WNW 16.3 mph26.2 kmh 29.77 in1008.1 mb 0.00 in0.0 mm 0.00 in0.0 mm 0.00 in0.0 mm
10:21 AM 54.5°F12.5°C 33.6°F0.9°C 45% 11.5 mph WNW18.5 kmh WNW 17.4 mph28.0 kmh 29.77 in1008.1 mb 0.00 in0.0 mm 0.00 in0.0 mm 0.00 in0.0 mm
10:22 AM 54.3°F12.4°C 32.3°F0.2°C 43% 11.7 mph WNW18.8 kmh WNW 17.4 mph28.0 kmh 29.77 in1008.1 mb 0.00 in0.0 mm 0.00 in0.0 mm 0.00 in0.0 mm
10:23 AM 54.3°F12.4°C 32.3°F0.2°C 43% 11.4 mph WNW18.3 kmh WNW 17.4 mph28.0 kmh 29.77 in1008.1 mb 0.00 in0.0 mm 0.00 in0.0 mm 0.00 in0.0 mm
10:24 AM 54.1°F12.3°C 31.5°F-0.3°C 42% 11.2 mph WNW18.0 kmh WNW 17.4 mph28.0 kmh 29.77 in1008.1 mb 0.00 in0.0 mm 0.00 in0.0 mm 0.00 in0.0 mm
10:25 AM 54.5°F12.5°C 32.4°F0.2°C 43% 11.2 mph WNW18.0 kmh WNW 17.4 mph28.0 kmh 29.77 in1008.1 mb 0.00 in0.0 mm 0.00 in0.0 mm 0.00 in0.0 mm
10:26 AM 54.5°F12.5°C 32.4°F0.2°C 43% 11.1 mph WNW17.9 kmh WNW 17.4 mph28.0 kmh 29.77 in1008.1 mb 0.00 in0.0 mm 0.00 in0.0 mm 0.00 in0.0 mm
10:27 AM 54.1°F12.3°C 31.5°F-0.3°C 42% 11.8 mph WNW19.0 kmh WNW 17.4 mph28.0 kmh 29.77 in1008.1 mb 0.00 in0.0 mm 0.00 in0.0 mm 0.00 in0.0 mm
10:28 AM 54.1°F12.3°C 31.5°F-0.3°C 42% 12.3 mph WNW19.8 kmh WNW 17.4 mph28.0 kmh 29.77 in1008.1 mb 0.00 in0.0 mm 0.00 in0.0 mm 0.00 in0.0 mm
10:29 AM 53.8°F12.1°C 30.6°F-0.8°C 41% 12.7 mph WNW20.4 kmh WNW 17.4 mph28.0 kmh 29.77 in1008.1 mb 0.00 in0.0 mm 0.00 in0.0 mm 0.00 in0.0 mm
10:30 AM 53.8°F12.1°C 30.6°F-0.8°C 41% 13.0 mph WNW20.9 kmh WNW 21.5 mph34.6 kmh 29.77 in1008.1 mb 0.00 in0.0 mm 0.00 in0.0 mm 0.00 in0.0 mm
10:31 AM 53.6°F12.0°C 30.4°F-0.9°C 41% 13.2 mph W21.2 kmh W 21.5 mph34.6 kmh 29.77 in1008.1 mb 0.00 in0.0 mm 0.00 in0.0 mm 0.00 in0.0 mm
10:32 AM 53.6°F12.0°C 30.4°F-0.9°C 41% 12.8 mph W20.6 kmh W 21.5 mph34.6 kmh 29.77 in1008.1 mb 0.00 in0.0 mm 0.00 in0.0 mm 0.00 in0.0 mm
10:33 AM 53.4°F11.9°C 30.9°F-0.6°C 42% 13.1 mph W21.1 kmh W 23.3 mph37.5 kmh 29.77 in1008.1 mb 0.00 in0.0 mm 0.00 in0.0 mm 0.00 in0.0 mm
10:34 AM 53.1°F11.7°C 30.0°F-1.1°C 41% 12.7 mph W20.4 kmh W 23.3 mph37.5 kmh 29.77 in1008.1 mb 0.00 in0.0 mm 0.00 in0.0 mm 0.00 in0.0 mm
10:35 AM 53.1°F11.7°C 30.0°F-1.1°C 41% 13.7 mph W22.0 kmh W 23.3 mph37.5 kmh 29.77 in1008.1 mb 0.00 in0.0 mm 0.00 in0.0 mm 0.00 in0.0 mm
10:36 AM 53.1°F11.7°C 30.0°F-1.1°C 41% 13.8 mph W22.2 kmh W 23.3 mph37.5 kmh 29.77 in1008.1 mb 0.00 in0.0 mm 0.00 in0.0 mm 0.00 in0.0 mm
10:37 AM 53.1°F11.7°C 30.0°F-1.1°C 41% 13.7 mph W22.0 kmh W 23.3 mph37.5 kmh 29.77 in1008.1 mb 0.00 in0.0 mm 0.00 in0.0 mm 0.00 in0.0 mm
10:38 AM 52.9°F11.6°C 29.8°F-1.2°C 41% 13.7 mph WNW22.0 kmh WNW 23.3 mph37.5 kmh 29.77 in1008.1 mb 0.00 in0.0 mm 0.00 in0.0 mm 0.00 in0.0 mm
10:39 AM 52.9°F11.6°C 29.8°F-1.2°C 41% 14.1 mph W22.7 kmh W 23.3 mph37.5 kmh 29.77 in1008.1 mb 0.00 in0.0 mm 0.00 in0.0 mm 0.00 in0.0 mm
10:40 AM 52.7°F11.5°C 29.6°F-1.3°C 41% 13.0 mph WNW20.9 kmh WNW 23.3 mph37.5 kmh 29.77 in1008.1 mb 0.00 in0.0 mm 0.00 in0.0 mm 0.00 in0.0 mm
10:41 AM 52.7°F11.5°C 30.8°F-0.7°C 43% 12.1 mph WNW19.5 kmh WNW 23.3 mph37.5 kmh 29.77 in1008.1 mb 0.00 in0.0 mm 0.00 in0.0 mm 0.00 in0.0 mm
10:42 AM 52.7°F11.5°C 30.8°F-0.7°C 43% 12.2 mph WNW19.6 kmh WNW 23.3 mph37.5 kmh 29.77 in1008.1 mb 0.00 in0.0 mm 0.00 in0.0 mm 0.00 in0.0 mm
10:43 AM 52.7°F11.5°C 30.8°F-0.7°C 43% 11.0 mph NW17.7 kmh NW 19.2 mph30.9 kmh 29.77 in1008.1 mb 0.00 in0.0 mm 0.00 in0.0 mm 0.00 in0.0 mm
10:44 AM 52.7°F11.5°C 30.8°F-0.7°C 43% 11.3 mph NW18.2 kmh NW 19.2 mph30.9 kmh 29.77 in1008.1 mb 0.00 in0.0 mm 0.00 in0.0 mm 0.00 in0.0 mm
10:45 AM 52.5°F11.4°C 30.1°F-1.1°C 42% 10.5 mph NW16.9 kmh NW 16.1 mph25.9 kmh 29.77 in1008.1 mb 0.00 in0.0 mm 0.00 in0.0 mm 0.00 in0.0 mm
10:46 AM 52.5°F11.4°C 30.1°F-1.1°C 42% 10.1 mph NW16.3 kmh NW 16.1 mph25.9 kmh 29.77 in1008.1 mb 0.00 in0.0 mm 0.00 in0.0 mm 0.00 in0.0 mm
10:47 AM 52.3°F11.3°C 29.9°F-1.2°C 42% 10.0 mph NW16.1 kmh NW 16.1 mph25.9 kmh 29.77 in1008.1 mb 0.00 in0.0 mm 0.00 in0.0 mm 0.00 in0.0 mm
10:48 AM 52.2°F11.2°C 28.5°F-1.9°C 40% 8.9 mph NW14.3 kmh NW 14.3 mph23.0 kmh 29.77 in1008.1 mb 0.00 in0.0 mm 0.00 in0.0 mm 0.00 in0.0 mm
10:49 AM 52.2°F11.2°C 28.5°F-1.9°C 40% 8.3 mph NW13.4 kmh NW 14.3 mph23.0 kmh 29.77 in1008.1 mb 0.00 in0.0 mm 0.00 in0.0 mm 0.00 in0.0 mm
10:50 AM 52.2°F11.2°C 28.5°F-1.9°C 40% 7.9 mph NW12.7 kmh NW 13.2 mph21.2 kmh 29.77 in1008.1 mb 0.00 in0.0 mm 0.00 in0.0 mm 0.00 in0.0 mm
10:51 AM 52.2°F11.2°C 28.5°F-1.9°C 40% 8.9 mph NW14.3 kmh NW 22.8 mph36.7 kmh 29.77 in1008.1 mb 0.00 in0.0 mm 0.00 in0.0 mm 0.00 in0.0 mm
10:52 AM 51.8°F11.0°C 27.0°F-2.8°C 38% 9.4 mph NW15.1 kmh NW 22.8 mph36.7 kmh 29.77 in1008.1 mb 0.00 in0.0 mm 0.00 in0.0 mm 0.00 in0.0 mm
10:53 AM 51.8°F11.0°C 27.0°F-2.8°C 38% 10.0 mph NW16.1 kmh NW 22.8 mph36.7 kmh 29.77 in1008.1 mb 0.00 in0.0 mm 0.00 in0.0 mm 0.00 in0.0 mm
10:54 AM 51.6°F10.9°C 26.2°F-3.2°C 37% 10.2 mph NW16.4 kmh NW 22.8 mph36.7 kmh 29.77 in1008.1 mb 0.00 in0.0 mm 0.00 in0.0 mm 0.00 in0.0 mm
10:55 AM 51.6°F10.9°C 26.2°F-3.2°C 37% 10.3 mph WNW16.6 kmh WNW 22.8 mph36.7 kmh 29.77 in1008.1 mb 0.00 in0.0 mm 0.00 in0.0 mm 0.00 in0.0 mm
10:56 AM 51.4°F10.8°C 26.6°F-3.0°C 38% 10.6 mph WNW17.1 kmh WNW 22.8 mph36.7 kmh 29.77 in1008.1 mb 0.00 in0.0 mm 0.00 in0.0 mm 0.00 in0.0 mm
10:57 AM 51.3°F10.7°C 26.5°F-3.1°C 38% 10.1 mph WNW16.3 kmh WNW 22.8 mph36.7 kmh 29.77 in1008.1 mb 0.00 in0.0 mm 0.00 in0.0 mm 0.00 in0.0 mm
10:58 AM 51.3°F10.7°C 26.5°F-3.1°C 38% 10.1 mph WNW16.3 kmh WNW 22.8 mph36.7 kmh 29.77 in1008.1 mb 0.00 in0.0 mm 0.00 in0.0 mm 0.00 in0.0 mm
10:59 AM 51.1°F10.6°C 26.3°F-3.2°C 38% 10.4 mph WNW16.7 kmh WNW 22.8 mph36.7 kmh 29.80 in1009.1 mb 0.00 in0.0 mm 0.00 in0.0 mm 0.00 in0.0 mm
11:00 AM 51.1°F10.6°C 26.3°F-3.2°C 38% 10.9 mph WNW17.5 kmh WNW 22.8 mph36.7 kmh 29.80 in1009.1 mb 0.00 in0.0 mm 0.00 in0.0 mm 0.00 in0.0 mm
11:01 AM 50.9°F10.5°C 25.5°F-3.6°C 37% 11.5 mph WNW18.5 kmh WNW 22.8 mph36.7 kmh 29.80 in1009.1 mb 0.00 in0.0 mm 0.00 in0.0 mm 0.00 in0.0 mm
11:02 AM 50.9°F10.5°C 25.5°F-3.6°C 37% 10.6 mph WNW17.1 kmh WNW 22.8 mph36.7 kmh 29.80 in1009.1 mb 0.00 in0.0 mm 0.00 in0.0 mm 0.00 in0.0 mm
11:03 AM 50.7°F10.4°C 26.0°F-3.3°C 38% 9.6 mph WNW15.4 kmh WNW 15.2 mph24.5 kmh 29.80 in1009.1 mb 0.00 in0.0 mm 0.00 in0.0 mm 0.00 in0.0 mm
11:04 AM 50.5°F10.3°C 25.2°F-3.8°C 37% 9.2 mph WNW14.8 kmh WNW 15.2 mph24.5 kmh 29.80 in1009.1 mb 0.00 in0.0 mm 0.00 in0.0 mm 0.00 in0.0 mm
11:05 AM 50.5°F10.3°C 25.2°F-3.8°C 37% 9.5 mph WNW15.3 kmh WNW 15.2 mph24.5 kmh 29.80 in1009.1 mb 0.00 in0.0 mm 0.00 in0.0 mm 0.00 in0.0 mm
11:06 AM 50.7°F10.4°C 25.4°F-3.7°C 37% 9.7 mph WNW15.6 kmh WNW 15.2 mph24.5 kmh 29.80 in1009.1 mb 0.00 in0.0 mm 0.00 in0.0 mm 0.00 in0.0 mm
11:07 AM 50.7°F10.4°C 25.4°F-3.7°C 37% 10.1 mph WNW16.3 kmh WNW 15.2 mph24.5 kmh 29.80 in1009.1 mb 0.00 in0.0 mm 0.00 in0.0 mm 0.00 in0.0 mm
11:08 AM 50.4°F10.2°C 25.0°F-3.9°C 37% 10.5 mph W16.9 kmh W 15.2 mph24.5 kmh 29.80 in1009.1 mb 0.00 in0.0 mm 0.00 in0.0 mm 0.00 in0.0 mm
11:09 AM 50.4°F10.2°C 25.0°F-3.9°C 37% 10.3 mph WNW16.6 kmh WNW 15.2 mph24.5 kmh 29.80 in1009.1 mb 0.00 in0.0 mm 0.00 in0.0 mm 0.00 in0.0 mm
11:10 AM 50.4°F10.2°C 25.0°F-3.9°C 37% 9.8 mph W15.8 kmh W 12.1 mph19.5 kmh 29.80 in1009.1 mb 0.00 in0.0 mm 0.00 in0.0 mm 0.00 in0.0 mm
11:11 AM 50.4°F10.2°C 25.0°F-3.9°C 37% 11.1 mph WNW17.9 kmh WNW 19.9 mph32.0 kmh 29.80 in1009.1 mb 0.00 in0.0 mm 0.00 in0.0 mm 0.00 in0.0 mm
11:12 AM 50.4°F10.2°C 25.0°F-3.9°C 37% 11.5 mph WNW18.5 kmh WNW 19.9 mph32.0 kmh 29.80 in1009.1 mb 0.00 in0.0 mm 0.00 in0.0 mm 0.00 in0.0 mm
11:13 AM 50.4°F10.2°C 25.0°F-3.9°C 37% 11.8 mph W19.0 kmh W 19.9 mph32.0 kmh 29.80 in1009.1 mb 0.00 in0.0 mm 0.00 in0.0 mm 0.00 in0.0 mm
11:14 AM 50.4°F10.2°C 25.0°F-3.9°C 37% 11.8 mph W19.0 kmh W 19.9 mph32.0 kmh 29.80 in1009.1 mb 0.00 in0.0 mm 0.00 in0.0 mm 0.00 in0.0 mm
11:15 AM 50.2°F10.1°C 24.9°F-3.9°C 37% 11.6 mph W18.7 kmh W 19.9 mph32.0 kmh 29.80 in1009.1 mb 0.00 in0.0 mm 0.00 in0.0 mm 0.00 in0.0 mm
11:16 AM 50.2°F10.1°C 24.9°F-3.9°C 37% 11.5 mph WNW18.5 kmh WNW 19.9 mph32.0 kmh 29.80 in1009.1 mb 0.00 in0.0 mm 0.00 in0.0 mm 0.00 in0.0 mm
11:17 AM 50.2°F10.1°C 24.9°F-3.9°C 37% 11.0 mph W17.7 kmh W 19.9 mph32.0 kmh 29.80 in1009.1 mb 0.00 in0.0 mm 0.00 in0.0 mm 0.00 in0.0 mm
11:18 AM 50.4°F10.2°C 25.0°F-3.9°C 37% 10.2 mph W16.4 kmh W 19.9 mph32.0 kmh 29.80 in1009.1 mb 0.00 in0.0 mm 0.00 in0.0 mm 0.00 in0.0 mm
11:19 AM 50.4°F10.2°C 25.0°F-3.9°C 37% 10.1 mph W16.3 kmh W 19.9 mph32.0 kmh 29.80 in1009.1 mb 0.00 in0.0 mm 0.00 in0.0 mm 0.00 in0.0 mm
11:20 AM 50.5°F10.3°C 25.2°F-3.8°C 37% 10.2 mph WNW16.4 kmh WNW 19.9 mph32.0 kmh 29.80 in1009.1 mb 0.00 in0.0 mm 0.00 in0.0 mm 0.00 in0.0 mm
11:21 AM 50.5°F10.3°C 25.2°F-3.8°C 37% 9.2 mph WNW14.8 kmh WNW 19.9 mph32.0 kmh 29.80 in1009.1 mb 0.00 in0.0 mm 0.00 in0.0 mm 0.00 in0.0 mm
11:22 AM 50.7°F10.4°C 25.4°F-3.7°C 37% 7.7 mph WNW12.4 kmh WNW 13.2 mph21.2 kmh 29.80 in1009.1 mb 0.00 in0.0 mm 0.00 in0.0 mm 0.00 in0.0 mm
11:23 AM 50.7°F10.4°C 25.4°F-3.7°C 37% 7.9 mph W12.7 kmh W 13.2 mph21.2 kmh 29.80 in1009.1 mb 0.00 in0.0 mm 0.00 in0.0 mm 0.00 in0.0 mm
11:24 AM 50.9°F10.5°C 25.5°F-3.6°C 37% 7.8 mph W12.6 kmh W 12.8 mph20.6 kmh 29.80 in1009.1 mb 0.00 in0.0 mm 0.00 in0.0 mm 0.00 in0.0 mm
11:25 AM 50.9°F10.5°C 25.5°F-3.6°C 37% 8.0 mph WNW12.9 kmh WNW 12.8 mph20.6 kmh 29.80 in1009.1 mb 0.00 in0.0 mm 0.00 in0.0 mm 0.00 in0.0 mm
11:26 AM 51.1°F10.6°C 25.7°F-3.5°C 37% 8.2 mph WNW13.2 kmh WNW 12.8 mph20.6 kmh 29.80 in1009.1 mb 0.00 in0.0 mm 0.00 in0.0 mm 0.00 in0.0 mm
11:27 AM 51.3°F10.7°C 25.8°F-3.4°C 37% 8.0 mph WNW12.9 kmh WNW 12.8 mph20.6 kmh 29.80 in1009.1 mb 0.00 in0.0 mm 0.00 in0.0 mm 0.00 in0.0 mm
11:28 AM 51.3°F10.7°C 25.8°F-3.4°C 37% 8.4 mph WNW13.5 kmh WNW 12.8 mph20.6 kmh 29.80 in1009.1 mb 0.00 in0.0 mm 0.00 in0.0 mm 0.00 in0.0 mm
11:29 AM 50.9°F10.5°C 25.5°F-3.6°C 37% 8.9 mph W14.3 kmh W 12.8 mph20.6 kmh 29.77 in1008.1 mb 0.00 in0.0 mm 0.00 in0.0 mm 0.00 in0.0 mm
11:30 AM 50.9°F10.5°C 25.5°F-3.6°C 37% 9.0 mph W14.5 kmh W 12.8 mph20.6 kmh 29.77 in1008.1 mb 0.00 in0.0 mm 0.00 in0.0 mm 0.00 in0.0 mm
11:31 AM 50.9°F10.5°C 25.5°F-3.6°C 37% 10.2 mph W16.4 kmh W 17.2 mph27.7 kmh 29.77 in1008.1 mb 0.00 in0.0 mm 0.00 in0.0 mm 0.00 in0.0 mm
11:32 AM 50.9°F10.5°C 25.5°F-3.6°C 37% 11.0 mph W17.7 kmh W 17.2 mph27.7 kmh 29.77 in1008.1 mb 0.00 in0.0 mm 0.00 in0.0 mm 0.00 in0.0 mm
11:33 AM 51.3°F10.7°C 25.8°F-3.4°C 37% 11.0 mph W17.7 kmh W 17.2 mph27.7 kmh 29.77 in1008.1 mb 0.00 in0.0 mm 0.00 in0.0 mm 0.00 in0.0 mm
11:34 AM 51.6°F10.9°C 26.2°F-3.2°C 37% 10.9 mph W17.5 kmh W 17.2 mph27.7 kmh 29.77 in1008.1 mb 0.00 in0.0 mm 0.00 in0.0 mm 0.00 in0.0 mm
11:35 AM 51.6°F10.9°C 26.2°F-3.2°C 37% 11.0 mph W17.7 kmh W 17.2 mph27.7 kmh 29.77 in1008.1 mb 0.00 in0.0 mm 0.00 in0.0 mm 0.00 in0.0 mm
11:36 AM 51.6°F10.9°C 25.5°F-3.6°C 36% 11.0 mph WSW17.7 kmh WSW 17.2 mph27.7 kmh 29.77 in1008.1 mb 0.00 in0.0 mm 0.00 in0.0 mm 0.00 in0.0 mm
11:37 AM 51.6°F10.9°C 25.5°F-3.6°C 36% 11.1 mph WSW17.9 kmh WSW 17.2 mph27.7 kmh 29.77 in1008.1 mb 0.00 in0.0 mm 0.00 in0.0 mm 0.00 in0.0 mm
11:38 AM 51.8°F11.0°C 25.7°F-3.5°C 36% 11.0 mph W17.7 kmh W 17.2 mph27.7 kmh 29.77 in1008.1 mb 0.00 in0.0 mm 0.00 in0.0 mm 0.00 in0.0 mm
11:39 AM 51.8°F11.0°C 25.7°F-3.5°C 36% 11.4 mph W18.3 kmh W 17.2 mph27.7 kmh 29.77 in1008.1 mb 0.00 in0.0 mm 0.00 in0.0 mm 0.00 in0.0 mm
11:40 AM 52.2°F11.2°C 26.0°F-3.3°C 36% 12.0 mph W19.3 kmh W 17.2 mph27.7 kmh 29.77 in1008.1 mb 0.00 in0.0 mm 0.00 in0.0 mm 0.00 in0.0 mm
11:41 AM 52.0°F11.1°C 25.8°F-3.4°C 36% 10.5 mph W16.9 kmh W 17.0 mph27.4 kmh 29.77 in1008.1 mb 0.00 in0.0 mm 0.00 in0.0 mm 0.00 in0.0 mm
11:42 AM 52.0°F11.1°C 25.8°F-3.4°C 36% 10.7 mph W17.2 kmh W 17.0 mph27.4 kmh 29.77 in1008.1 mb 0.00 in0.0 mm 0.00 in0.0 mm 0.00 in0.0 mm
11:43 AM 52.5°F11.4°C 26.3°F-3.2°C 36% 10.9 mph WNW17.5 kmh WNW 17.0 mph27.4 kmh 29.77 in1008.1 mb 0.00 in0.0 mm 0.00 in0.0 mm 0.00 in0.0 mm
11:44 AM 52.5°F11.4°C 26.3°F-3.2°C 36% 11.2 mph W18.0 kmh W 17.0 mph27.4 kmh 29.77 in1008.1 mb 0.00 in0.0 mm 0.00 in0.0 mm 0.00 in0.0 mm
11:45 AM 52.5°F11.4°C 26.3°F-3.2°C 36% 11.7 mph WNW18.8 kmh WNW 17.0 mph27.4 kmh 29.77 in1008.1 mb 0.00 in0.0 mm 0.00 in0.0 mm 0.00 in0.0 mm
11:46 AM 52.5°F11.4°C 26.3°F-3.2°C 36% 11.6 mph WNW18.7 kmh WNW 17.0 mph27.4 kmh 29.77 in1008.1 mb 0.00 in0.0 mm 0.00 in0.0 mm 0.00 in0.0 mm
11:47 AM 52.5°F11.4°C 26.3°F-3.2°C 36% 11.9 mph WNW19.2 kmh WNW 17.0 mph27.4 kmh 29.77 in1008.1 mb 0.00 in0.0 mm 0.00 in0.0 mm 0.00 in0.0 mm
11:48 AM 52.5°F11.4°C 26.3°F-3.2°C 36% 12.3 mph WNW19.8 kmh WNW 17.0 mph27.4 kmh 29.77 in1008.1 mb 0.00 in0.0 mm 0.00 in0.0 mm 0.00 in0.0 mm
11:49 AM 52.5°F11.4°C 26.3°F-3.2°C 36% 11.9 mph WNW19.2 kmh WNW 17.0 mph27.4 kmh 29.77 in1008.1 mb 0.00 in0.0 mm 0.00 in0.0 mm 0.00 in0.0 mm
11:50 AM 52.3°F11.3°C 26.1°F-3.3°C 36% 11.5 mph WNW18.5 kmh WNW 15.4 mph24.8 kmh 29.77 in1008.1 mb 0.00 in0.0 mm 0.00 in0.0 mm 0.00 in0.0 mm
11:51 AM 52.3°F11.3°C 26.1°F-3.3°C 36% 12.2 mph WNW19.6 kmh WNW 15.4 mph24.8 kmh 29.77 in1008.1 mb 0.00 in0.0 mm 0.00 in0.0 mm 0.00 in0.0 mm
11:52 AM 52.3°F11.3°C 26.1°F-3.3°C 36% 12.7 mph WNW20.4 kmh WNW 15.4 mph24.8 kmh 29.77 in1008.1 mb 0.00 in0.0 mm 0.00 in0.0 mm 0.00 in0.0 mm
11:53 AM 52.3°F11.3°C 26.1°F-3.3°C 36% 12.6 mph NW20.3 kmh NW 15.4 mph24.8 kmh 29.77 in1008.1 mb 0.00 in0.0 mm 0.00 in0.0 mm 0.00 in0.0 mm
11:54 AM 52.5°F11.4°C 26.3°F-3.2°C 36% 12.1 mph NW19.5 kmh NW 15.4 mph24.8 kmh 29.77 in1008.1 mb 0.00 in0.0 mm 0.00 in0.0 mm 0.00 in0.0 mm
11:55 AM 52.5°F11.4°C 26.3°F-3.2°C 36% 11.6 mph NW18.7 kmh NW 15.4 mph24.8 kmh 29.77 in1008.1 mb 0.00 in0.0 mm 0.00 in0.0 mm 0.00 in0.0 mm
11:56 AM 52.5°F11.4°C 26.3°F-3.2°C 36% 11.6 mph NW18.7 kmh NW 15.4 mph24.8 kmh 29.77 in1008.1 mb 0.00 in0.0 mm 0.00 in0.0 mm 0.00 in0.0 mm
11:57 AM 52.3°F11.3°C 25.5°F-3.6°C 35% 11.8 mph NW19.0 kmh NW 15.4 mph24.8 kmh 29.77 in1008.1 mb 0.00 in0.0 mm 0.00 in0.0 mm 0.00 in0.0 mm
11:58 AM 52.3°F11.3°C 25.5°F-3.6°C 35% 11.6 mph NW18.7 kmh NW 15.4 mph24.8 kmh 29.77 in1008.1 mb 0.00 in0.0 mm 0.00 in0.0 mm 0.00 in0.0 mm
11:59 AM 52.3°F11.3°C 25.5°F-3.6°C 35% 11.1 mph NW17.9 kmh NW 15.4 mph24.8 kmh 29.80 in1009.1 mb 0.00 in0.0 mm 0.00 in0.0 mm 0.00 in0.0 mm
12:00 PM 52.3°F11.3°C 25.5°F-3.6°C 35% 11.6 mph NW18.7 kmh NW 17.2 mph27.7 kmh 29.80 in1009.1 mb 0.00 in0.0 mm 0.00 in0.0 mm 0.00 in0.0 mm
12:01 PM 52.5°F11.4°C 26.3°F-3.2°C 36% 11.9 mph NW19.2 kmh NW 17.2 mph27.7 kmh 29.80 in1009.1 mb 0.00 in0.0 mm 0.00 in0.0 mm 0.00 in0.0 mm
12:02 PM 52.5°F11.4°C 26.3°F-3.2°C 36% 11.5 mph NW18.5 kmh NW 17.2 mph27.7 kmh 29.80 in1009.1 mb 0.00 in0.0 mm 0.00 in0.0 mm 0.00 in0.0 mm
12:03 PM 52.7°F11.5°C 26.5°F-3.1°C 36% 10.9 mph NW17.5 kmh NW 17.2 mph27.7 kmh 29.80 in1009.1 mb 0.00 in0.0 mm 0.00 in0.0 mm 0.00 in0.0 mm
12:04 PM 52.7°F11.5°C 26.5°F-3.1°C 36% 10.6 mph NW17.1 kmh NW 17.2 mph27.7 kmh 29.80 in1009.1 mb 0.00 in0.0 mm 0.00 in0.0 mm 0.00 in0.0 mm
12:05 PM 52.7°F11.5°C 26.5°F-3.1°C 36% 10.9 mph WNW17.5 kmh WNW 17.2 mph27.7 kmh 29.80 in1009.1 mb 0.00 in0.0 mm 0.00 in0.0 mm 0.00 in0.0 mm
12:06 PM 52.7°F11.5°C 25.8°F-3.4°C 35% 10.8 mph WNW17.4 kmh WNW 17.2 mph27.7 kmh 29.80 in1009.1 mb 0.00 in0.0 mm 0.00 in0.0 mm 0.00 in0.0 mm
12:07 PM 52.7°F11.5°C 25.8°F-3.4°C 35% 10.5 mph WNW16.9 kmh WNW 17.2 mph27.7 kmh 29.80 in1009.1 mb 0.00 in0.0 mm 0.00 in0.0 mm 0.00 in0.0 mm
12:08 PM 52.7°F11.5°C 24.4°F-4.2°C 33% 10.1 mph W16.3 kmh W 17.2 mph27.7 kmh 29.80 in1009.1 mb 0.00 in0.0 mm 0.00 in0.0 mm 0.00 in0.0 mm
12:09 PM 52.7°F11.5°C 24.4°F-4.2°C 33% 10.3 mph W16.6 kmh W 17.2 mph27.7 kmh 29.80 in1009.1 mb 0.00 in0.0 mm 0.00 in0.0 mm 0.00 in0.0 mm
12:10 PM 52.7°F11.5°C 25.1°F-3.8°C 34% 10.4 mph W16.7 kmh W 16.8 mph27.0 kmh 29.80 in1009.1 mb 0.00 in0.0 mm 0.00 in0.0 mm 0.00 in0.0 mm
12:11 PM 52.7°F11.5°C 25.1°F-3.8°C 34% 10.2 mph W16.4 kmh W 16.8 mph27.0 kmh 29.80 in1009.1 mb 0.00 in0.0 mm 0.00 in0.0 mm 0.00 in0.0 mm
12:12 PM 52.5°F11.4°C 24.2°F-4.3°C 33% 10.4 mph W16.7 kmh W 16.8 mph27.0 kmh 29.80 in1009.1 mb 0.00 in0.0 mm 0.00 in0.0 mm 0.00 in0.0 mm
12:13 PM 52.7°F11.5°C 24.4°F-4.2°C 33% 10.3 mph W16.6 kmh W 16.8 mph27.0 kmh 29.80 in1009.1 mb 0.00 in0.0 mm 0.00 in0.0 mm 0.00 in0.0 mm
12:14 PM 52.7°F11.5°C 24.4°F-4.2°C 33% 10.4 mph W16.7 kmh W 16.8 mph27.0 kmh 29.77 in1008.1 mb 0.00 in0.0 mm 0.00 in0.0 mm 0.00 in0.0 mm
12:15 PM 52.5°F11.4°C 24.2°F-4.3°C 33% 11.3 mph W18.2 kmh W 16.8 mph27.0 kmh 29.77 in1008.1 mb 0.00 in0.0 mm 0.00 in0.0 mm 0.00 in0.0 mm
12:16 PM 52.5°F11.4°C 24.2°F-4.3°C 33% 11.0 mph W17.7 kmh W 16.8 mph27.0 kmh 29.77 in1008.1 mb 0.00 in0.0 mm 0.00 in0.0 mm 0.00 in0.0 mm
12:17 PM 52.5°F11.4°C 22.7°F-5.2°C 31% 12.1 mph WNW19.5 kmh WNW 17.4 mph28.0 kmh 29.77 in1008.1 mb 0.00 in0.0 mm 0.00 in0.0 mm 0.00 in0.0 mm
12:18 PM 52.5°F11.4°C 22.7°F-5.2°C 31% 12.3 mph NW19.8 kmh NW 17.4 mph28.0 kmh 29.77 in1008.1 mb 0.00 in0.0 mm 0.00 in0.0 mm 0.00 in0.0 mm
12:19 PM 52.3°F11.3°C 22.6°F-5.2°C 31% 11.8 mph NW19.0 kmh NW 17.4 mph28.0 kmh 29.77 in1008.1 mb 0.00 in0.0 mm 0.00 in0.0 mm 0.00 in0.0 mm
12:20 PM 52.2°F11.2°C 21.6°F-5.8°C 30% 11.3 mph NW18.2 kmh NW 17.4 mph28.0 kmh 29.77 in1008.1 mb 0.00 in0.0 mm 0.00 in0.0 mm 0.00 in0.0 mm
12:21 PM 52.2°F11.2°C 21.6°F-5.8°C 30% 11.0 mph NW17.7 kmh NW 17.4 mph28.0 kmh 29.77 in1008.1 mb 0.00 in0.0 mm 0.00 in0.0 mm 0.00 in0.0 mm
12:22 PM 52.5°F11.4°C 22.7°F-5.2°C 31% 10.8 mph NW17.4 kmh NW 17.4 mph28.0 kmh 29.77 in1008.1 mb 0.00 in0.0 mm 0.00 in0.0 mm 0.00 in0.0 mm
12:23 PM 52.5°F11.4°C 22.7°F-5.2°C 31% 10.9 mph NW17.5 kmh NW 17.4 mph28.0 kmh 29.77 in1008.1 mb 0.00 in0.0 mm 0.00 in0.0 mm 0.00 in0.0 mm
12:24 PM 52.3°F11.3°C 22.6°F-5.2°C 31% 10.8 mph NW17.4 kmh NW 17.4 mph28.0 kmh 29.77 in1008.1 mb 0.00 in0.0 mm 0.00 in0.0 mm 0.00 in0.0 mm
12:25 PM 52.3°F11.3°C 22.6°F-5.2°C 31% 10.4 mph NW16.7 kmh NW 17.4 mph28.0 kmh 29.77 in1008.1 mb 0.00 in0.0 mm 0.00 in0.0 mm 0.00 in0.0 mm
12:26 PM 52.3°F11.3°C 22.6°F-5.2°C 31% 9.8 mph NW15.8 kmh NW 17.4 mph28.0 kmh 29.77 in1008.1 mb 0.00 in0.0 mm 0.00 in0.0 mm 0.00 in0.0 mm
12:27 PM 52.3°F11.3°C 21.0°F-6.1°C 29% 8.9 mph WNW14.3 kmh WNW 11.9 mph19.2 kmh 29.77 in1008.1 mb 0.00 in0.0 mm 0.00 in0.0 mm 0.00 in0.0 mm
12:28 PM 52.3°F11.3°C 21.0°F-6.1°C 29% 8.7 mph WNW14.0 kmh WNW 11.9 mph19.2 kmh 29.77 in1008.1 mb 0.00 in0.0 mm 0.00 in0.0 mm 0.00 in0.0 mm
12:29 PM 52.2°F11.2°C 20.0°F-6.7°C 28% 8.7 mph W14.0 kmh W 11.9 mph19.2 kmh 29.80 in1009.1 mb 0.00 in0.0 mm 0.00 in0.0 mm 0.00 in0.0 mm
12:30 PM 52.2°F11.2°C 20.0°F-6.7°C 28% 8.9 mph W14.3 kmh W 11.9 mph19.2 kmh 29.80 in1009.1 mb 0.00 in0.0 mm 0.00 in0.0 mm 0.00 in0.0 mm
12:31 PM 51.8°F11.0°C 19.7°F-6.8°C 28% 9.2 mph WNW14.8 kmh WNW 11.9 mph19.2 kmh 29.80 in1009.1 mb 0.00 in0.0 mm 0.00 in0.0 mm 0.00 in0.0 mm
12:32 PM 51.8°F11.0°C 19.7°F-6.8°C 28% 9.4 mph WNW15.1 kmh WNW 12.5 mph20.1 kmh 29.80 in1009.1 mb 0.00 in0.0 mm 0.00 in0.0 mm 0.00 in0.0 mm
12:33 PM 51.6°F10.9°C 19.5°F-6.9°C 28% 9.2 mph NW14.8 kmh NW 12.5 mph20.1 kmh 29.80 in1009.1 mb 0.00 in0.0 mm 0.00 in0.0 mm 0.00 in0.0 mm
12:34 PM 52.0°F11.1°C 19.8°F-6.8°C 28% 9.1 mph WNW14.6 kmh WNW 12.5 mph20.1 kmh 29.80 in1009.1 mb 0.00 in0.0 mm 0.00 in0.0 mm 0.00 in0.0 mm
12:35 PM 52.0°F11.1°C 19.8°F-6.8°C 28% 9.6 mph WNW15.4 kmh WNW 14.8 mph23.8 kmh 29.80 in1009.1 mb 0.00 in0.0 mm 0.00 in0.0 mm 0.00 in0.0 mm
12:36 PM 52.3°F11.3°C 20.2°F-6.6°C 28% 9.6 mph WNW15.4 kmh WNW 14.8 mph23.8 kmh 29.80 in1009.1 mb 0.00 in0.0 mm 0.00 in0.0 mm 0.00 in0.0 mm
12:37 PM 52.3°F11.3°C 20.2°F-6.6°C 28% 9.7 mph WNW15.6 kmh WNW 14.8 mph23.8 kmh 29.80 in1009.1 mb 0.00 in0.0 mm 0.00 in0.0 mm 0.00 in0.0 mm
12:38 PM 52.7°F11.5°C 20.5°F-6.4°C 28% 9.7 mph WNW15.6 kmh WNW 14.8 mph23.8 kmh 29.80 in1009.1 mb 0.00 in0.0 mm 0.00 in0.0 mm 0.00 in0.0 mm
12:39 PM 52.7°F11.5°C 20.5°F-6.4°C 28% 9.8 mph WNW15.8 kmh WNW 14.8 mph23.8 kmh 29.80 in1009.1 mb 0.00 in0.0 mm 0.00 in0.0 mm 0.00 in0.0 mm
12:40 PM 53.1°F11.7°C 21.6°F-5.8°C 29% 9.8 mph WNW15.8 kmh WNW 14.8 mph23.8 kmh 29.80 in1009.1 mb 0.00 in0.0 mm 0.00 in0.0 mm 0.00 in0.0 mm
12:41 PM 53.1°F11.7°C 21.6°F-5.8°C 29% 9.5 mph W15.3 kmh W 14.8 mph23.8 kmh 29.80 in1009.1 mb 0.00 in0.0 mm 0.00 in0.0 mm 0.00 in0.0 mm
12:42 PM 52.7°F11.5°C 20.5°F-6.4°C 28% 8.9 mph W14.3 kmh W 14.8 mph23.8 kmh 29.80 in1009.1 mb 0.00 in0.0 mm 0.00 in0.0 mm 0.00 in0.0 mm
12:43 PM 52.3°F11.3°C 19.3°F-7.1°C 27% 8.6 mph W13.8 kmh W 14.8 mph23.8 kmh 29.80 in1009.1 mb 0.00 in0.0 mm 0.00 in0.0 mm 0.00 in0.0 mm
12:44 PM 52.3°F11.3°C 19.3°F-7.1°C 27% 9.0 mph W14.5 kmh W 14.8 mph23.8 kmh 29.80 in1009.1 mb 0.00 in0.0 mm 0.00 in0.0 mm 0.00 in0.0 mm
12:45 PM 51.4°F10.8°C 17.6°F-8.0°C 26% 10.4 mph WNW16.7 kmh WNW 19.5 mph31.4 kmh 29.80 in1009.1 mb 0.00 in0.0 mm 0.00 in0.0 mm 0.00 in0.0 mm
12:46 PM 51.4°F10.8°C 17.6°F-8.0°C 26% 10.7 mph WNW17.2 kmh WNW 19.5 mph31.4 kmh 29.80 in1009.1 mb 0.00 in0.0 mm 0.00 in0.0 mm 0.00 in0.0 mm
12:47 PM 51.6°F10.9°C 17.8°F-7.9°C 26% 10.9 mph WNW17.5 kmh WNW 19.5 mph31.4 kmh 29.80 in1009.1 mb 0.00 in0.0 mm 0.00 in0.0 mm 0.00 in0.0 mm
12:48 PM 51.6°F10.9°C 17.8°F-7.9°C 26% 11.1 mph WNW17.9 kmh WNW 19.5 mph31.4 kmh 29.80 in1009.1 mb 0.00 in0.0 mm 0.00 in0.0 mm 0.00 in0.0 mm
12:49 PM 51.6°F10.9°C 15.9°F-8.9°C 24% 11.2 mph NW18.0 kmh NW 19.5 mph31.4 kmh 29.80 in1009.1 mb 0.00 in0.0 mm 0.00 in0.0 mm 0.00 in0.0 mm
12:50 PM 51.6°F10.9°C 15.9°F-8.9°C 24% 11.5 mph NW18.5 kmh NW 19.5 mph31.4 kmh 29.80 in1009.1 mb 0.00 in0.0 mm 0.00 in0.0 mm 0.00 in0.0 mm
12:51 PM 51.6°F10.9°C 15.9°F-8.9°C 24% 11.6 mph WNW18.7 kmh WNW 19.5 mph31.4 kmh 29.80 in1009.1 mb 0.00 in0.0 mm 0.00 in0.0 mm 0.00 in0.0 mm
12:52 PM 51.6°F10.9°C 12.9°F-10.6°C 21% 12.5 mph WNW20.1 kmh WNW 19.5 mph31.4 kmh 29.80 in1009.1 mb 0.00 in0.0 mm 0.00 in0.0 mm 0.00 in0.0 mm
12:53 PM 51.6°F10.9°C 12.9°F-10.6°C 21% 12.2 mph WNW19.6 kmh WNW 19.5 mph31.4 kmh 29.80 in1009.1 mb 0.00 in0.0 mm 0.00 in0.0 mm 0.00 in0.0 mm
12:54 PM 51.4°F10.8°C 10.5°F-11.9°C 19% 12.1 mph WNW19.5 kmh WNW 19.5 mph31.4 kmh 29.80 in1009.1 mb 0.00 in0.0 mm 0.00 in0.0 mm 0.00 in0.0 mm
12:55 PM 51.4°F10.8°C 10.5°F-11.9°C 19% 11.6 mph WNW18.7 kmh WNW 19.5 mph31.4 kmh 29.80 in1009.1 mb 0.00 in0.0 mm 0.00 in0.0 mm 0.00 in0.0 mm
12:56 PM 51.4°F10.8°C 10.5°F-11.9°C 19% 10.5 mph WNW16.9 kmh WNW 15.4 mph24.8 kmh 29.80 in1009.1 mb 0.00 in0.0 mm 0.00 in0.0 mm 0.00 in0.0 mm
12:57 PM 51.6°F10.9°C 15.9°F-8.9°C 24% 10.2 mph WNW16.4 kmh WNW 15.4 mph24.8 kmh 29.80 in1009.1 mb 0.00 in0.0 mm 0.00 in0.0 mm 0.00 in0.0 mm
12:58 PM 51.6°F10.9°C 12.9°F-10.6°C 21% 9.6 mph WNW15.4 kmh WNW 13.2 mph21.2 kmh 29.80 in1009.1 mb 0.00 in0.0 mm 0.00 in0.0 mm 0.00 in0.0 mm
12:59 PM 51.6°F10.9°C 12.9°F-10.6°C 21% 9.8 mph WNW15.8 kmh WNW 13.2 mph21.2 kmh 29.80 in1009.1 mb 0.00 in0.0 mm 0.00 in0.0 mm 0.00 in0.0 mm
01:00 PM 51.4°F10.8°C 10.5°F-11.9°C 19% 10.1 mph WNW16.3 kmh WNW 15.4 mph24.8 kmh 29.80 in1009.1 mb 0.00 in0.0 mm 0.00 in0.0 mm 0.00 in0.0 mm
01:01 PM 51.4°F10.8°C 10.5°F-11.9°C 19% 10.5 mph WNW16.9 kmh WNW 15.4 mph24.8 kmh 29.80 in1009.1 mb 0.00 in0.0 mm 0.00 in0.0 mm 0.00 in0.0 mm
01:02 PM 51.1°F10.6°C 10.2°F-12.1°C 19% 10.3 mph W16.6 kmh W 15.4 mph24.8 kmh 29.80 in1009.1 mb 0.00 in0.0 mm 0.00 in0.0 mm 0.00 in0.0 mm
01:03 PM 51.1°F10.6°C 10.2°F-12.1°C 19% 10.4 mph W16.7 kmh W 15.4 mph24.8 kmh 29.80 in1009.1 mb 0.00 in0.0 mm 0.00 in0.0 mm 0.00 in0.0 mm
01:04 PM 50.9°F10.5°C 10.0°F-12.2°C 19% 10.6 mph W17.1 kmh W 15.4 mph24.8 kmh 29.80 in1009.1 mb 0.00 in0.0 mm 0.00 in0.0 mm 0.00 in0.0 mm
01:05 PM 50.5°F10.3°C 9.7°F-12.4°C 19% 10.8 mph W17.4 kmh W 15.4 mph24.8 kmh 29.80 in1009.1 mb 0.00 in0.0 mm 0.00 in0.0 mm 0.00 in0.0 mm
01:06 PM 50.5°F10.3°C 9.7°F-12.4°C 19% 11.0 mph W17.7 kmh W 15.4 mph24.8 kmh 29.80 in1009.1 mb 0.00 in0.0 mm 0.00 in0.0 mm 0.00 in0.0 mm
01:07 PM 50.9°F10.5°C 12.3°F-10.9°C 21% 10.4 mph W16.7 kmh W 15.4 mph24.8 kmh 29.80 in1009.1 mb 0.00 in0.0 mm 0.00 in0.0 mm 0.00 in0.0 mm
01:08 PM 50.9°F10.5°C 12.3°F-10.9°C 21% 10.6 mph W17.1 kmh W 15.4 mph24.8 kmh 29.80 in1009.1 mb 0.00 in0.0 mm 0.00 in0.0 mm 0.00 in0.0 mm
01:09 PM 50.9°F10.5°C 12.3°F-10.9°C 21% 10.5 mph WSW16.9 kmh WSW 15.4 mph24.8 kmh 29.80 in1009.1 mb 0.00 in0.0 mm 0.00 in0.0 mm 0.00 in0.0 mm
01:10 PM 50.9°F10.5°C 12.3°F-10.9°C 21% 10.6 mph WSW17.1 kmh WSW 15.4 mph24.8 kmh 29.80 in1009.1 mb 0.00 in0.0 mm 0.00 in0.0 mm 0.00 in0.0 mm
01:11 PM 51.1°F10.6°C 12.4°F-10.9°C 21% 10.0 mph WSW16.1 kmh WSW 15.2 mph24.5 kmh 29.80 in1009.1 mb 0.00 in0.0 mm 0.00 in0.0 mm 0.00 in0.0 mm
01:12 PM 50.9°F10.5°C 15.3°F-9.3°C 24% 9.4 mph W15.1 kmh W 15.2 mph24.5 kmh 29.80 in1009.1 mb 0.00 in0.0 mm 0.00 in0.0 mm 0.00 in0.0 mm
01:13 PM 50.9°F10.5°C 15.3°F-9.3°C 24% 9.4 mph W15.1 kmh W 15.2 mph24.5 kmh 29.80 in1009.1 mb 0.00 in0.0 mm 0.00 in0.0 mm 0.00 in0.0 mm
01:14 PM 51.3°F10.7°C 17.5°F-8.1°C 26% 8.8 mph W14.2 kmh W 12.8 mph20.6 kmh 29.80 in1009.1 mb 0.00 in0.0 mm 0.00 in0.0 mm 0.00 in0.0 mm
01:15 PM 51.3°F10.7°C 17.5°F-8.1°C 26% 8.8 mph W14.2 kmh W 12.8 mph20.6 kmh 29.80 in1009.1 mb 0.00 in0.0 mm 0.00 in0.0 mm 0.00 in0.0 mm
01:16 PM 51.1°F10.6°C 12.4°F-10.9°C 21% 8.8 mph WSW14.2 kmh WSW 12.8 mph20.6 kmh 29.80 in1009.1 mb 0.00 in0.0 mm 0.00 in0.0 mm 0.00 in0.0 mm
01:17 PM 51.1°F10.6°C 12.4°F-10.9°C 21% 9.4 mph WSW15.1 kmh WSW 12.8 mph20.6 kmh 29.80 in1009.1 mb 0.00 in0.0 mm 0.00 in0.0 mm 0.00 in0.0 mm
01:18 PM 51.3°F10.7°C 15.6°F-9.1°C 24% 9.4 mph WSW15.1 kmh WSW 13.0 mph20.9 kmh 29.80 in1009.1 mb 0.00 in0.0 mm 0.00 in0.0 mm 0.00 in0.0 mm
01:19 PM 51.3°F10.7°C 15.6°F-9.1°C 24% 9.8 mph W15.8 kmh W 16.6 mph26.7 kmh 29.80 in1009.1 mb 0.00 in0.0 mm 0.00 in0.0 mm 0.00 in0.0 mm
01:20 PM 51.4°F10.8°C 17.6°F-8.0°C 26% 9.3 mph WSW15.0 kmh WSW 16.6 mph26.7 kmh 29.80 in1009.1 mb 0.00 in0.0 mm 0.00 in0.0 mm 0.00 in0.0 mm
01:21 PM 51.8°F11.0°C 18.0°F-7.8°C 26% 9.3 mph W15.0 kmh W 16.6 mph26.7 kmh 29.80 in1009.1 mb 0.00 in0.0 mm 0.00 in0.0 mm 0.00 in0.0 mm
01:22 PM 51.8°F11.0°C 18.0°F-7.8°C 26% 9.6 mph W15.4 kmh W 16.6 mph26.7 kmh 29.80 in1009.1 mb 0.00 in0.0 mm 0.00 in0.0 mm 0.00 in0.0 mm
01:23 PM 51.4°F10.8°C 17.6°F-8.0°C 26% 9.6 mph W15.4 kmh W 16.6 mph26.7 kmh 29.80 in1009.1 mb 0.00 in0.0 mm 0.00 in0.0 mm 0.00 in0.0 mm
01:24 PM 51.4°F10.8°C 17.6°F-8.0°C 26% 10.0 mph WNW16.1 kmh WNW 16.6 mph26.7 kmh 29.80 in1009.1 mb 0.00 in0.0 mm 0.00 in0.0 mm 0.00 in0.0 mm
01:25 PM 51.4°F10.8°C 15.8°F-9.0°C 24% 10.3 mph WNW16.6 kmh WNW 16.6 mph26.7 kmh 29.80 in1009.1 mb 0.00 in0.0 mm 0.00 in0.0 mm 0.00 in0.0 mm
01:26 PM 51.4°F10.8°C 15.8°F-9.0°C 24% 10.3 mph NW16.6 kmh NW 16.6 mph26.7 kmh 29.80 in1009.1 mb 0.00 in0.0 mm 0.00 in0.0 mm 0.00 in0.0 mm
01:27 PM 51.4°F10.8°C 15.8°F-9.0°C 24% 10.2 mph NW16.4 kmh NW 16.6 mph26.7 kmh 29.80 in1009.1 mb 0.00 in0.0 mm 0.00 in0.0 mm 0.00 in0.0 mm
01:28 PM 51.6°F10.9°C 12.9°F-10.6°C 21% 9.8 mph NW15.8 kmh NW 16.6 mph26.7 kmh 29.80 in1009.1 mb 0.00 in0.0 mm 0.00 in0.0 mm 0.00 in0.0 mm
01:29 PM 51.6°F10.9°C 12.9°F-10.6°C 21% 10.2 mph NW16.4 kmh NW 16.6 mph26.7 kmh 29.80 in1009.1 mb 0.00 in0.0 mm 0.00 in0.0 mm 0.00 in0.0 mm
01:30 PM 51.1°F10.6°C 10.2°F-12.1°C 19% 10.1 mph NW16.3 kmh NW 16.6 mph26.7 kmh 29.80 in1009.1 mb 0.00 in0.0 mm 0.00 in0.0 mm 0.00 in0.0 mm
01:31 PM 51.1°F10.6°C 10.2°F-12.1°C 19% 10.5 mph NW16.9 kmh NW 16.6 mph26.7 kmh 29.80 in1009.1 mb 0.00 in0.0 mm 0.00 in0.0 mm 0.00 in0.0 mm
01:32 PM 50.9°F10.5°C 10.0°F-12.2°C 19% 10.7 mph NW17.2 kmh NW 16.6 mph26.7 kmh 29.80 in1009.1 mb 0.00 in0.0 mm 0.00 in0.0 mm 0.00 in0.0 mm
01:33 PM 50.9°F10.5°C 10.0°F-12.2°C 19% 10.3 mph NW16.6 kmh NW 16.6 mph26.7 kmh 29.80 in1009.1 mb 0.00 in0.0 mm 0.00 in0.0 mm 0.00 in0.0 mm
01:34 PM 51.3°F10.7°C 12.6°F-10.8°C 21% 9.5 mph NW15.3 kmh NW 16.6 mph26.7 kmh 29.80 in1009.1 mb 0.00 in0.0 mm 0.00 in0.0 mm 0.00 in0.0 mm
01:35 PM 51.4°F10.8°C 12.7°F-10.7°C 21% 8.9 mph NW14.3 kmh NW 16.6 mph26.7 kmh 29.80 in1009.1 mb 0.00 in0.0 mm 0.00 in0.0 mm 0.00 in0.0 mm
01:36 PM 51.4°F10.8°C 12.7°F-10.7°C 21% 8.7 mph NW14.0 kmh NW 16.6 mph26.7 kmh 29.80 in1009.1 mb 0.00 in0.0 mm 0.00 in0.0 mm 0.00 in0.0 mm
01:37 PM 51.3°F10.7°C 12.6°F-10.8°C 21% 8.9 mph NW14.3 kmh NW 16.6 mph26.7 kmh 29.80 in1009.1 mb 0.00 in0.0 mm 0.00 in0.0 mm 0.00 in0.0 mm
01:38 PM 51.3°F10.7°C 12.6°F-10.8°C 21% 8.9 mph NW14.3 kmh NW 16.6 mph26.7 kmh 29.80 in1009.1 mb 0.00 in0.0 mm 0.00 in0.0 mm 0.00 in0.0 mm
01:39 PM 51.1°F10.6°C 10.2°F-12.1°C 19% 9.0 mph NW14.5 kmh NW 17.7 mph28.5 kmh 29.80 in1009.1 mb 0.00 in0.0 mm 0.00 in0.0 mm 0.00 in0.0 mm
01:40 PM 51.1°F10.6°C 10.2°F-12.1°C 19% 8.8 mph NW14.2 kmh NW 17.7 mph28.5 kmh 29.80 in1009.1 mb 0.00 in0.0 mm 0.00 in0.0 mm 0.00 in0.0 mm
01:41 PM 51.3°F10.7°C 10.3°F-12.1°C 19% 8.4 mph WNW13.5 kmh WNW 17.7 mph28.5 kmh 29.80 in1009.1 mb 0.00 in0.0 mm 0.00 in0.0 mm 0.00 in0.0 mm
01:42 PM 51.3°F10.7°C 10.3°F-12.1°C 19% 8.4 mph W13.5 kmh W 17.7 mph28.5 kmh 29.80 in1009.1 mb 0.00 in0.0 mm 0.00 in0.0 mm 0.00 in0.0 mm
01:43 PM 51.4°F10.8°C 12.7°F-10.7°C 21% 8.7 mph W14.0 kmh W 17.7 mph28.5 kmh 29.80 in1009.1 mb 0.00 in0.0 mm 0.00 in0.0 mm 0.00 in0.0 mm
01:44 PM 51.6°F10.9°C 15.9°F-8.9°C 24% 8.7 mph W14.0 kmh W 17.7 mph28.5 kmh 29.80 in1009.1 mb 0.00 in0.0 mm 0.00 in0.0 mm 0.00 in0.0 mm
01:45 PM 51.6°F10.9°C 15.9°F-8.9°C 24% 9.1 mph W14.6 kmh W 17.7 mph28.5 kmh 29.80 in1009.1 mb 0.00 in0.0 mm 0.00 in0.0 mm 0.00 in0.0 mm
01:46 PM 51.6°F10.9°C 15.9°F-8.9°C 24% 9.6 mph W15.4 kmh W 17.7 mph28.5 kmh 29.80 in1009.1 mb 0.00 in0.0 mm 0.00 in0.0 mm 0.00 in0.0 mm
01:47 PM 51.6°F10.9°C 15.9°F-8.9°C 24% 9.8 mph W15.8 kmh W 17.7 mph28.5 kmh 29.80 in1009.1 mb 0.00 in0.0 mm 0.00 in0.0 mm 0.00 in0.0 mm
01:48 PM 51.4°F10.8°C 15.8°F-9.0°C 24% 10.9 mph WNW17.5 kmh WNW 17.7 mph28.5 kmh 29.80 in1009.1 mb 0.00 in0.0 mm 0.00 in0.0 mm 0.00 in0.0 mm
01:49 PM 51.4°F10.8°C 15.8°F-9.0°C 24% 10.6 mph WNW17.1 kmh WNW 15.4 mph24.8 kmh 29.80 in1009.1 mb 0.00 in0.0 mm 0.00 in0.0 mm 0.00 in0.0 mm
01:50 PM 51.1°F10.6°C 12.4°F-10.9°C 21% 10.3 mph WNW16.6 kmh WNW 15.4 mph24.8 kmh 29.80 in1009.1 mb 0.00 in0.0 mm 0.00 in0.0 mm 0.00 in0.0 mm
01:51 PM 51.4°F10.8°C 12.7°F-10.7°C 21% 11.1 mph WNW17.9 kmh WNW 15.4 mph24.8 kmh 29.80 in1009.1 mb 0.00 in0.0 mm 0.00 in0.0 mm 0.00 in0.0 mm
01:52 PM 51.4°F10.8°C 12.7°F-10.7°C 21% 11.0 mph WNW17.7 kmh WNW 15.4 mph24.8 kmh 29.80 in1009.1 mb 0.00 in0.0 mm 0.00 in0.0 mm 0.00 in0.0 mm
01:53 PM 51.3°F10.7°C 10.3°F-12.1°C 19% 11.0 mph WNW17.7 kmh WNW 15.4 mph24.8 kmh 29.80 in1009.1 mb 0.00 in0.0 mm 0.00 in0.0 mm 0.00 in0.0 mm
01:54 PM 51.3°F10.7°C 10.3°F-12.1°C 19% 11.5 mph NW18.5 kmh NW 16.6 mph26.7 kmh 29.80 in1009.1 mb 0.00 in0.0 mm 0.00 in0.0 mm 0.00 in0.0 mm
01:55 PM 51.1°F10.6°C 10.2°F-12.1°C 19% 12.2 mph NW19.6 kmh NW 16.6 mph26.7 kmh 29.80 in1009.1 mb 0.00 in0.0 mm 0.00 in0.0 mm 0.00 in0.0 mm
01:56 PM 51.1°F10.6°C 10.2°F-12.1°C 19% 11.9 mph NW19.2 kmh NW 16.6 mph26.7 kmh 29.80 in1009.1 mb 0.00 in0.0 mm 0.00 in0.0 mm 0.00 in0.0 mm
01:57 PM 51.6°F10.9°C 12.9°F-10.6°C 21% 11.3 mph WNW18.2 kmh WNW 16.6 mph26.7 kmh 29.80 in1009.1 mb 0.00 in0.0 mm 0.00 in0.0 mm 0.00 in0.0 mm
01:58 PM 51.6°F10.9°C 12.9°F-10.6°C 21% 10.9 mph WNW17.5 kmh WNW 16.6 mph26.7 kmh 29.80 in1009.1 mb 0.00 in0.0 mm 0.00 in0.0 mm 0.00 in0.0 mm
01:59 PM 51.6°F10.9°C 12.9°F-10.6°C 21% 10.3 mph WNW16.6 kmh WNW 16.6 mph26.7 kmh 29.80 in1009.1 mb 0.00 in0.0 mm 0.00 in0.0 mm 0.00 in0.0 mm
02:00 PM 52.2°F11.2°C 13.3°F-10.4°C 21% 10.4 mph WNW16.7 kmh WNW 16.6 mph26.7 kmh 29.80 in1009.1 mb 0.00 in0.0 mm 0.00 in0.0 mm 0.00 in0.0 mm
02:01 PM 52.2°F11.2°C 13.3°F-10.4°C 21% 10.4 mph WNW16.7 kmh WNW 16.6 mph26.7 kmh 29.80 in1009.1 mb 0.00 in0.0 mm 0.00 in0.0 mm 0.00 in0.0 mm
02:02 PM 52.2°F11.2°C 13.3°F-10.4°C 21% 9.0 mph WNW14.5 kmh WNW 16.6 mph26.7 kmh 29.80 in1009.1 mb 0.00 in0.0 mm 0.00 in0.0 mm 0.00 in0.0 mm
02:03 PM 52.2°F11.2°C 13.3°F-10.4°C 21% 8.8 mph WNW14.2 kmh WNW 16.6 mph26.7 kmh 29.80 in1009.1 mb 0.00 in0.0 mm 0.00 in0.0 mm 0.00 in0.0 mm
02:04 PM 52.3°F11.3°C 13.5°F-10.3°C 21% 8.4 mph WNW13.5 kmh WNW 16.6 mph26.7 kmh 29.80 in1009.1 mb 0.00 in0.0 mm 0.00 in0.0 mm 0.00 in0.0 mm
02:05 PM 52.2°F11.2°C 13.3°F-10.4°C 21% 7.1 mph W11.4 kmh W 12.3 mph19.8 kmh 29.80 in1009.1 mb 0.00 in0.0 mm 0.00 in0.0 mm 0.00 in0.0 mm
02:06 PM 52.2°F11.2°C 13.3°F-10.4°C 21% 7.2 mph W11.6 kmh W 12.3 mph19.8 kmh 29.80 in1009.1 mb 0.00 in0.0 mm 0.00 in0.0 mm 0.00 in0.0 mm
02:07 PM 52.2°F11.2°C 13.3°F-10.4°C 21% 7.3 mph WNW11.7 kmh WNW 12.3 mph19.8 kmh 29.80 in1009.1 mb 0.00 in0.0 mm 0.00 in0.0 mm 0.00 in0.0 mm
02:08 PM 52.2°F11.2°C 13.3°F-10.4°C 21% 7.2 mph WNW11.6 kmh WNW 12.3 mph19.8 kmh 29.80 in1009.1 mb 0.00 in0.0 mm 0.00 in0.0 mm 0.00 in0.0 mm
02:09 PM 51.4°F10.8°C 10.5°F-11.9°C 19% 7.3 mph WNW11.7 kmh WNW 10.5 mph16.9 kmh 29.80 in1009.1 mb 0.00 in0.0 mm 0.00 in0.0 mm 0.00 in0.0 mm
02:10 PM 51.4°F10.8°C 10.5°F-11.9°C 19% 7.3 mph NW11.7 kmh NW 10.5 mph16.9 kmh 29.80 in1009.1 mb 0.00 in0.0 mm 0.00 in0.0 mm 0.00 in0.0 mm
02:11 PM 51.1°F10.6°C 12.4°F-10.9°C 21% 7.3 mph NW11.7 kmh NW 10.5 mph16.9 kmh 29.80 in1009.1 mb 0.00 in0.0 mm 0.00 in0.0 mm 0.00 in0.0 mm
02:12 PM 51.1°F10.6°C 12.4°F-10.9°C 21% 7.4 mph NW11.9 kmh NW 10.5 mph16.9 kmh 29.80 in1009.1 mb 0.00 in0.0 mm 0.00 in0.0 mm 0.00 in0.0 mm
02:13 PM 51.4°F10.8°C 10.5°F-11.9°C 19% 7.8 mph NW12.6 kmh NW 13.0 mph20.9 kmh 29.80 in1009.1 mb 0.00 in0.0 mm 0.00 in0.0 mm 0.00 in0.0 mm
02:14 PM 51.3°F10.7°C 6.5°F-14.2°C 16% 8.0 mph NW12.9 kmh NW 13.0 mph20.9 kmh 29.80 in1009.1 mb 0.00 in0.0 mm 0.00 in0.0 mm 0.00 in0.0 mm
02:15 PM 51.3°F10.7°C 6.5°F-14.2°C 16% 8.2 mph NW13.2 kmh NW 13.2 mph21.2 kmh 29.80 in1009.1 mb 0.00 in0.0 mm 0.00 in0.0 mm 0.00 in0.0 mm
02:16 PM 50.9°F10.5°C 12.3°F-10.9°C 21% 9.1 mph NW14.6 kmh NW 13.2 mph21.2 kmh 29.80 in1009.1 mb 0.00 in0.0 mm 0.00 in0.0 mm 0.00 in0.0 mm
02:17 PM 50.9°F10.5°C 12.3°F-10.9°C 21% 9.1 mph NW14.6 kmh NW 13.2 mph21.2 kmh 29.80 in1009.1 mb 0.00 in0.0 mm 0.00 in0.0 mm 0.00 in0.0 mm
02:18 PM 50.5°F10.3°C 3.0°F-16.1°C 14% 9.7 mph NW15.6 kmh NW 13.2 mph21.2 kmh 29.80 in1009.1 mb 0.00 in0.0 mm 0.00 in0.0 mm 0.00 in0.0 mm
02:19 PM 50.5°F10.3°C 3.0°F-16.1°C 14% 9.7 mph NW15.6 kmh NW 13.2 mph21.2 kmh 29.80 in1009.1 mb 0.00 in0.0 mm 0.00 in0.0 mm 0.00 in0.0 mm
02:20 PM 50.5°F10.3°C -6.3°F-21.3°C 9% 10.2 mph NW16.4 kmh NW 13.6 mph21.9 kmh 29.80 in1009.1 mb 0.00 in0.0 mm 0.00 in0.0 mm 0.00 in0.0 mm
02:21 PM 50.5°F10.3°C -2.1°F-18.9°C 11% 10.3 mph NW16.6 kmh NW 13.6 mph21.9 kmh 29.80 in1009.1 mb 0.00 in0.0 mm 0.00 in0.0 mm 0.00 in0.0 mm
02:22 PM 50.5°F10.3°C -2.1°F-18.9°C 11% 10.2 mph NW16.4 kmh NW 13.6 mph21.9 kmh 29.80 in1009.1 mb 0.00 in0.0 mm 0.00 in0.0 mm 0.00 in0.0 mm
02:23 PM 50.5°F10.3°C -6.3°F-21.3°C 9% 10.5 mph NW16.9 kmh NW 13.6 mph21.9 kmh 29.80 in1009.1 mb 0.00 in0.0 mm 0.00 in0.0 mm 0.00 in0.0 mm
02:24 PM 50.5°F10.3°C -6.3°F-21.3°C 9% 10.6 mph NW17.1 kmh NW 13.6 mph21.9 kmh 29.80 in1009.1 mb 0.00 in0.0 mm 0.00 in0.0 mm 0.00 in0.0 mm
02:25 PM 50.2°F10.1°C -2.4°F-19.1°C 11% 10.7 mph NW17.2 kmh NW 13.6 mph21.9 kmh 29.80 in1009.1 mb 0.00 in0.0 mm 0.00 in0.0 mm 0.00 in0.0 mm
02:26 PM 50.2°F10.1°C -2.4°F-19.1°C 11% 10.5 mph NW16.9 kmh NW 13.6 mph21.9 kmh 29.80 in1009.1 mb 0.00 in0.0 mm 0.00 in0.0 mm 0.00 in0.0 mm
02:27 PM 50.4°F10.2°C -2.3°F-19.1°C 11% 10.5 mph NW16.9 kmh NW 13.6 mph21.9 kmh 29.80 in1009.1 mb 0.00 in0.0 mm 0.00 in0.0 mm 0.00 in0.0 mm
02:28 PM 50.5°F10.3°C -2.1°F-18.9°C 11% 9.7 mph NW15.6 kmh NW 13.6 mph21.9 kmh 29.80 in1009.1 mb 0.00 in0.0 mm 0.00 in0.0 mm 0.00 in0.0 mm
02:29 PM 50.5°F10.3°C -2.1°F-18.9°C 11% 9.9 mph NW15.9 kmh NW 13.6 mph21.9 kmh 29.80 in1009.1 mb 0.00 in0.0 mm 0.00 in0.0 mm 0.00 in0.0 mm
02:30 PM 50.5°F10.3°C -2.1°F-18.9°C 11% 9.7 mph NW15.6 kmh NW 13.2 mph21.2 kmh 29.80 in1009.1 mb 0.00 in0.0 mm 0.00 in0.0 mm 0.00 in0.0 mm
02:31 PM 50.5°F10.3°C -2.1°F-18.9°C 11% 9.6 mph NW15.4 kmh NW 13.2 mph21.2 kmh 29.80 in1009.1 mb 0.00 in0.0 mm 0.00 in0.0 mm 0.00 in0.0 mm
02:32 PM 50.0°F10.0°C -6.8°F-21.6°C 9% 10.3 mph NW16.6 kmh NW 17.7 mph28.5 kmh 29.80 in1009.1 mb 0.00 in0.0 mm 0.00 in0.0 mm 0.00 in0.0 mm
02:33 PM 50.0°F10.0°C -6.8°F-21.6°C 9% 9.9 mph NW15.9 kmh NW 17.7 mph28.5 kmh 29.80 in1009.1 mb 0.00 in0.0 mm 0.00 in0.0 mm 0.00 in0.0 mm
02:34 PM 50.2°F10.1°C -2.4°F-19.1°C 11% 9.4 mph NW15.1 kmh NW 17.7 mph28.5 kmh 29.80 in1009.1 mb 0.00 in0.0 mm 0.00 in0.0 mm 0.00 in0.0 mm
02:35 PM 50.2°F10.1°C -2.4°F-19.1°C 11% 8.9 mph NW14.3 kmh NW 17.7 mph28.5 kmh 29.80 in1009.1 mb 0.00 in0.0 mm 0.00 in0.0 mm 0.00 in0.0 mm
02:36 PM 50.5°F10.3°C -2.1°F-18.9°C 11% 8.8 mph NW14.2 kmh NW 17.7 mph28.5 kmh 29.80 in1009.1 mb 0.00 in0.0 mm 0.00 in0.0 mm 0.00 in0.0 mm
02:37 PM 50.5°F10.3°C -6.3°F-21.3°C 9% 9.0 mph NW14.5 kmh NW 17.7 mph28.5 kmh 29.80 in1009.1 mb 0.00 in0.0 mm 0.00 in0.0 mm 0.00 in0.0 mm
02:38 PM 50.5°F10.3°C -6.3°F-21.3°C 9% 9.1 mph NW14.6 kmh NW 17.7 mph28.5 kmh 29.80 in1009.1 mb 0.00 in0.0 mm 0.00 in0.0 mm 0.00 in0.0 mm
02:39 PM 50.9°F10.5°C -1.9°F-18.8°C 11% 8.8 mph NW14.2 kmh NW 17.7 mph28.5 kmh 29.80 in1009.1 mb 0.00 in0.0 mm 0.00 in0.0 mm 0.00 in0.0 mm
02:40 PM 50.9°F10.5°C -1.9°F-18.8°C 11% 8.4 mph NW13.5 kmh NW 17.7 mph28.5 kmh 29.80 in1009.1 mb 0.00 in0.0 mm 0.00 in0.0 mm 0.00 in0.0 mm
02:41 PM 51.6°F10.9°C 3.9°F-15.6°C 14% 7.6 mph NW12.2 kmh NW 17.7 mph28.5 kmh 29.80 in1009.1 mb 0.00 in0.0 mm 0.00 in0.0 mm 0.00 in0.0 mm
02:42 PM 51.6°F10.9°C 3.9°F-15.6°C 14% 8.0 mph NW12.9 kmh NW 17.7 mph28.5 kmh 29.80 in1009.1 mb 0.00 in0.0 mm 0.00 in0.0 mm 0.00 in0.0 mm
02:43 PM 51.3°F10.7°C 6.5°F-14.2°C 16% 7.4 mph NW11.9 kmh NW 11.2 mph18.0 kmh 29.80 in1009.1 mb 0.00 in0.0 mm 0.00 in0.0 mm 0.00 in0.0 mm
02:44 PM 51.3°F10.7°C 6.5°F-14.2°C 16% 7.3 mph NW11.7 kmh NW 11.2 mph18.0 kmh 29.83 in1010.2 mb 0.00 in0.0 mm 0.00 in0.0 mm 0.00 in0.0 mm
02:45 PM 51.3°F10.7°C 6.5°F-14.2°C 16% 7.1 mph NW11.4 kmh NW 11.2 mph18.0 kmh 29.83 in1010.2 mb 0.00 in0.0 mm 0.00 in0.0 mm 0.00 in0.0 mm
02:46 PM 51.3°F10.7°C 3.6°F-15.8°C 14% 6.7 mph NW10.8 kmh NW 11.2 mph18.0 kmh 29.83 in1010.2 mb 0.00 in0.0 mm 0.00 in0.0 mm 0.00 in0.0 mm
02:47 PM 51.3°F10.7°C 3.6°F-15.8°C 14% 6.8 mph NW10.9 kmh NW 12.3 mph19.8 kmh 29.83 in1010.2 mb 0.00 in0.0 mm 0.00 in0.0 mm 0.00 in0.0 mm
02:48 PM 50.9°F10.5°C 3.3°F-15.9°C 14% 6.7 mph NW10.8 kmh NW 12.3 mph19.8 kmh 29.83 in1010.2 mb 0.00 in0.0 mm 0.00 in0.0 mm 0.00 in0.0 mm
02:49 PM 50.9°F10.5°C 3.3°F-15.9°C 14% 6.7 mph NW10.8 kmh NW 12.3 mph19.8 kmh 29.83 in1010.2 mb 0.00 in0.0 mm 0.00 in0.0 mm 0.00 in0.0 mm
02:50 PM 50.7°F10.4°C 3.2°F-16.0°C 14% 7.0 mph NW11.3 kmh NW 12.3 mph19.8 kmh 29.83 in1010.2 mb 0.00 in0.0 mm 0.00 in0.0 mm 0.00 in0.0 mm
02:51 PM 50.5°F10.3°C -2.1°F-18.9°C 11% 8.1 mph NW13.0 kmh NW 12.5 mph20.1 kmh 29.83 in1010.2 mb 0.00 in0.0 mm 0.00 in0.0 mm 0.00 in0.0 mm
02:52 PM 50.5°F10.3°C -2.1°F-18.9°C 11% 7.7 mph NW12.4 kmh NW 12.5 mph20.1 kmh 29.83 in1010.2 mb 0.00 in0.0 mm 0.00 in0.0 mm 0.00 in0.0 mm
02:53 PM 50.9°F10.5°C 3.3°F-15.9°C 14% 8.1 mph NW13.0 kmh NW 12.5 mph20.1 kmh 29.83 in1010.2 mb 0.00 in0.0 mm 0.00 in0.0 mm 0.00 in0.0 mm
02:54 PM 50.9°F10.5°C 3.3°F-15.9°C 14% 8.1 mph NW13.0 kmh NW 12.5 mph20.1 kmh 29.83 in1010.2 mb 0.00 in0.0 mm 0.00 in0.0 mm 0.00 in0.0 mm
02:55 PM 51.1°F10.6°C -1.7°F-18.7°C 11% 7.9 mph NW12.7 kmh NW 12.5 mph20.1 kmh 29.83 in1010.2 mb 0.00 in0.0 mm 0.00 in0.0 mm 0.00 in0.0 mm
02:56 PM 51.1°F10.6°C -1.7°F-18.7°C 11% 7.9 mph NW12.7 kmh NW 12.5 mph20.1 kmh 29.83 in1010.2 mb 0.00 in0.0 mm 0.00 in0.0 mm 0.00 in0.0 mm
02:57 PM 50.9°F10.5°C 3.3°F-15.9°C 14% 8.1 mph WNW13.0 kmh WNW 12.5 mph20.1 kmh 29.83 in1010.2 mb 0.00 in0.0 mm 0.00 in0.0 mm 0.00 in0.0 mm
02:58 PM 50.9°F10.5°C 3.3°F-15.9°C 14% 7.7 mph WNW12.4 kmh WNW 12.5 mph20.1 kmh 29.83 in1010.2 mb 0.00 in0.0 mm 0.00 in0.0 mm 0.00 in0.0 mm
02:59 PM 50.7°F10.4°C 3.2°F-16.0°C 14% 8.2 mph WNW13.2 kmh WNW 12.5 mph20.1 kmh 29.83 in1010.2 mb 0.00 in0.0 mm 0.00 in0.0 mm 0.00 in0.0 mm
03:00 PM 50.5°F10.3°C 3.0°F-16.1°C 14% 8.6 mph WNW13.8 kmh WNW 12.5 mph20.1 kmh 29.83 in1010.2 mb 0.00 in0.0 mm 0.00 in0.0 mm 0.00 in0.0 mm
03:01 PM 50.5°F10.3°C 3.0°F-16.1°C 14% 8.9 mph WNW14.3 kmh WNW 16.8 mph27.0 kmh 29.83 in1010.2 mb 0.00 in0.0 mm 0.00 in0.0 mm 0.00 in0.0 mm
03:02 PM 50.9°F10.5°C -1.9°F-18.8°C 11% 9.2 mph W14.8 kmh W 16.8 mph27.0 kmh 29.83 in1010.2 mb 0.00 in0.0 mm 0.00 in0.0 mm 0.00 in0.0 mm
03:03 PM 50.9°F10.5°C -1.9°F-18.8°C 11% 9.2 mph W14.8 kmh W 16.8 mph27.0 kmh 29.83 in1010.2 mb 0.00 in0.0 mm 0.00 in0.0 mm 0.00 in0.0 mm
03:04 PM 50.7°F10.4°C -2.0°F-18.9°C 11% 8.9 mph WNW14.3 kmh WNW 16.8 mph27.0 kmh 29.83 in1010.2 mb 0.00 in0.0 mm 0.00 in0.0 mm 0.00 in0.0 mm
03:05 PM 50.7°F10.4°C -2.0°F-18.9°C 11% 9.3 mph WNW15.0 kmh WNW 16.8 mph27.0 kmh 29.83 in1010.2 mb 0.00 in0.0 mm 0.00 in0.0 mm 0.00 in0.0 mm
03:06 PM 51.3°F10.7°C -1.6°F-18.7°C 11% 9.1 mph WNW14.6 kmh WNW 16.8 mph27.0 kmh 29.83 in1010.2 mb 0.00 in0.0 mm 0.00 in0.0 mm 0.00 in0.0 mm
03:07 PM 50.7°F10.4°C -8.6°F-22.6°C 8% 9.0 mph WNW14.5 kmh WNW 16.8 mph27.0 kmh 29.83 in1010.2 mb 0.00 in0.0 mm 0.00 in0.0 mm 0.00 in0.0 mm
03:08 PM 50.7°F10.4°C -8.6°F-22.6°C 8% 9.3 mph WNW15.0 kmh WNW 16.8 mph27.0 kmh 29.83 in1010.2 mb 0.00 in0.0 mm 0.00 in0.0 mm 0.00 in0.0 mm
03:09 PM 50.5°F10.3°C -8.8°F-22.7°C 8% 9.2 mph WNW14.8 kmh WNW 16.8 mph27.0 kmh 29.83 in1010.2 mb 0.00 in0.0 mm 0.00 in0.0 mm 0.00 in0.0 mm
03:10 PM 50.5°F10.3°C -8.8°F-22.7°C 8% 9.0 mph WNW14.5 kmh WNW 16.8 mph27.0 kmh 29.83 in1010.2 mb 0.00 in0.0 mm 0.00 in0.0 mm 0.00 in0.0 mm
03:11 PM 50.5°F10.3°C -8.8°F-22.7°C 8% 8.5 mph WNW13.7 kmh WNW 16.8 mph27.0 kmh 29.83 in1010.2 mb 0.00 in0.0 mm 0.00 in0.0 mm 0.00 in0.0 mm
03:12 PM 50.5°F10.3°C -8.8°F-22.7°C 8% 7.9 mph NW12.7 kmh NW 17.0 mph27.4 kmh 29.83 in1010.2 mb 0.00 in0.0 mm 0.00 in0.0 mm 0.00 in0.0 mm
03:13 PM 50.5°F10.3°C -8.8°F-22.7°C 8% 7.8 mph WNW12.6 kmh WNW 17.0 mph27.4 kmh 29.83 in1010.2 mb 0.00 in0.0 mm 0.00 in0.0 mm 0.00 in0.0 mm
03:14 PM 50.5°F10.3°C -8.8°F-22.7°C 8% 8.9 mph WNW14.3 kmh WNW 22.4 mph36.0 kmh 29.83 in1010.2 mb 0.00 in0.0 mm 0.00 in0.0 mm 0.00 in0.0 mm
03:15 PM 50.5°F10.3°C -8.8°F-22.7°C 8% 9.5 mph WNW15.3 kmh WNW 22.4 mph36.0 kmh 29.83 in1010.2 mb 0.00 in0.0 mm 0.00 in0.0 mm 0.00 in0.0 mm
03:16 PM 50.5°F10.3°C -8.8°F-22.7°C 8% 10.1 mph WNW16.3 kmh WNW 22.4 mph36.0 kmh 29.83 in1010.2 mb 0.00 in0.0 mm 0.00 in0.0 mm 0.00 in0.0 mm
03:17 PM 50.5°F10.3°C -8.8°F-22.7°C 8% 10.2 mph WNW16.4 kmh WNW 22.4 mph36.0 kmh 29.83 in1010.2 mb 0.00 in0.0 mm 0.00 in0.0 mm 0.00 in0.0 mm
03:18 PM 49.6°F9.8°C -9.4°F-23.0°C 8% 10.0 mph WNW16.1 kmh WNW 22.4 mph36.0 kmh 29.83 in1010.2 mb 0.00 in0.0 mm 0.00 in0.0 mm 0.00 in0.0 mm
03:19 PM 49.6°F9.8°C -9.4°F-23.0°C 8% 10.9 mph WNW17.5 kmh WNW 22.6 mph36.4 kmh 29.83 in1010.2 mb 0.00 in0.0 mm 0.00 in0.0 mm 0.00 in0.0 mm
03:20 PM 48.7°F9.3°C -10.1°F-23.4°C 8% 12.0 mph W19.3 kmh W 22.6 mph36.4 kmh 29.83 in1010.2 mb 0.00 in0.0 mm 0.00 in0.0 mm 0.00 in0.0 mm
03:21 PM 48.7°F9.3°C -10.1°F-23.4°C 8% 13.7 mph WNW22.0 kmh WNW 22.6 mph36.4 kmh 29.83 in1010.2 mb 0.00 in0.0 mm 0.00 in0.0 mm 0.00 in0.0 mm
03:22 PM 48.4°F9.1°C -10.4°F-23.6°C 8% 13.6 mph W21.9 kmh W 22.6 mph36.4 kmh 29.83 in1010.2 mb 0.00 in0.0 mm 0.00 in0.0 mm 0.00 in0.0 mm
03:23 PM 48.6°F9.2°C -10.3°F-23.5°C 8% 14.7 mph W23.7 kmh W 22.6 mph36.4 kmh 29.83 in1010.2 mb 0.00 in0.0 mm 0.00 in0.0 mm 0.00 in0.0 mm
03:24 PM 48.6°F9.2°C -10.3°F-23.5°C 8% 14.5 mph W23.3 kmh W 22.6 mph36.4 kmh 29.83 in1010.2 mb 0.00 in0.0 mm 0.00 in0.0 mm 0.00 in0.0 mm
03:25 PM 48.4°F9.1°C -10.4°F-23.6°C 8% 12.9 mph W20.8 kmh W 22.6 mph36.4 kmh 29.83 in1010.2 mb 0.00 in0.0 mm 0.00 in0.0 mm 0.00 in0.0 mm
03:26 PM 48.4°F9.1°C -10.4°F-23.6°C 8% 12.4 mph W20.0 kmh W 22.6 mph36.4 kmh 29.83 in1010.2 mb 0.00 in0.0 mm 0.00 in0.0 mm 0.00 in0.0 mm
03:27 PM 48.4°F9.1°C -10.4°F-23.6°C 8% 11.9 mph W19.2 kmh W 22.6 mph36.4 kmh 29.83 in1010.2 mb 0.00 in0.0 mm 0.00 in0.0 mm 0.00 in0.0 mm
03:28 PM 48.4°F9.1°C -10.4°F-23.6°C 8% 12.5 mph W20.1 kmh W 22.6 mph36.4 kmh 29.83 in1010.2 mb 0.00 in0.0 mm 0.00 in0.0 mm 0.00 in0.0 mm
03:29 PM 48.7°F9.3°C -10.1°F-23.4°C 8% 12.4 mph WNW20.0 kmh WNW 22.6 mph36.4 kmh 29.83 in1010.2 mb 0.00 in0.0 mm 0.00 in0.0 mm 0.00 in0.0 mm
03:30 PM 48.7°F9.3°C -10.1°F-23.4°C 8% 10.5 mph WNW16.9 kmh WNW 21.9 mph35.2 kmh 29.83 in1010.2 mb 0.00 in0.0 mm 0.00 in0.0 mm 0.00 in0.0 mm
03:31 PM 48.7°F9.3°C -10.1°F-23.4°C 8% 9.7 mph WNW15.6 kmh WNW 21.9 mph35.2 kmh 29.83 in1010.2 mb 0.00 in0.0 mm 0.00 in0.0 mm 0.00 in0.0 mm
03:32 PM 48.6°F9.2°C -10.3°F-23.5°C 8% 9.0 mph NW14.5 kmh NW 13.4 mph21.6 kmh 29.83 in1010.2 mb 0.00 in0.0 mm 0.00 in0.0 mm 0.00 in0.0 mm
03:33 PM 48.6°F9.2°C -10.3°F-23.5°C 8% 8.7 mph NW14.0 kmh NW 13.4 mph21.6 kmh 29.83 in1010.2 mb 0.00 in0.0 mm 0.00 in0.0 mm 0.00 in0.0 mm
03:34 PM 48.2°F9.0°C -10.5°F-23.6°C 8% 8.5 mph NW13.7 kmh NW 13.4 mph21.6 kmh 29.83 in1010.2 mb 0.00 in0.0 mm 0.00 in0.0 mm 0.00 in0.0 mm
03:35 PM 48.2°F9.0°C -10.5°F-23.6°C 8% 8.7 mph NW14.0 kmh NW 13.4 mph21.6 kmh 29.83 in1010.2 mb 0.00 in0.0 mm 0.00 in0.0 mm 0.00 in0.0 mm
03:36 PM 48.6°F9.2°C -10.3°F-23.5°C 8% 8.6 mph NW13.8 kmh NW 13.4 mph21.6 kmh 29.83 in1010.2 mb 0.00 in0.0 mm 0.00 in0.0 mm 0.00 in0.0 mm
03:37 PM 48.6°F9.2°C -10.3°F-23.5°C 8% 8.8 mph NW14.2 kmh NW 13.4 mph21.6 kmh 29.83 in1010.2 mb 0.00 in0.0 mm 0.00 in0.0 mm 0.00 in0.0 mm
03:38 PM 48.6°F9.2°C -10.3°F-23.5°C 8% 9.1 mph NW14.6 kmh NW 13.4 mph21.6 kmh 29.83 in1010.2 mb 0.00 in0.0 mm 0.00 in0.0 mm 0.00 in0.0 mm
03:39 PM 48.6°F9.2°C -10.3°F-23.5°C 8% 9.4 mph NW15.1 kmh NW 13.4 mph21.6 kmh 29.83 in1010.2 mb 0.00 in0.0 mm 0.00 in0.0 mm 0.00 in0.0 mm
03:40 PM 48.6°F9.2°C -10.3°F-23.5°C 8% 9.7 mph NW15.6 kmh NW 13.4 mph21.6 kmh 29.83 in1010.2 mb 0.00 in0.0 mm 0.00 in0.0 mm 0.00 in0.0 mm
03:41 PM 48.7°F9.3°C -10.1°F-23.4°C 8% 9.6 mph WNW15.4 kmh WNW 13.4 mph21.6 kmh 29.83 in1010.2 mb 0.00 in0.0 mm 0.00 in0.0 mm 0.00 in0.0 mm
03:42 PM 48.7°F9.3°C -10.1°F-23.4°C 8% 8.9 mph WNW14.3 kmh WNW 13.0 mph20.9 kmh 29.83 in1010.2 mb 0.00 in0.0 mm 0.00 in0.0 mm 0.00 in0.0 mm
03:43 PM 48.6°F9.2°C -10.3°F-23.5°C 8% 8.5 mph WNW13.7 kmh WNW 13.0 mph20.9 kmh 29.83 in1010.2 mb 0.00 in0.0 mm 0.00 in0.0 mm 0.00 in0.0 mm
03:44 PM 48.7°F9.3°C -7.7°F-22.1°C 9% 8.8 mph W14.2 kmh W 13.0 mph20.9 kmh 29.83 in1010.2 mb 0.00 in0.0 mm 0.00 in0.0 mm 0.00 in0.0 mm
03:45 PM 48.7°F9.3°C -7.7°F-22.1°C 9% 9.1 mph W14.6 kmh W 14.1 mph22.7 kmh 29.83 in1010.2 mb 0.00 in0.0 mm 0.00 in0.0 mm 0.00 in0.0 mm
03:46 PM 48.6°F9.2°C -10.3°F-23.5°C 8% 9.5 mph WSW15.3 kmh WSW 14.1 mph22.7 kmh 29.83 in1010.2 mb 0.00 in0.0 mm 0.00 in0.0 mm 0.00 in0.0 mm
03:47 PM 48.6°F9.2°C -10.3°F-23.5°C 8% 9.5 mph WSW15.3 kmh WSW 14.1 mph22.7 kmh 29.83 in1010.2 mb 0.00 in0.0 mm 0.00 in0.0 mm 0.00 in0.0 mm
03:48 PM 48.6°F9.2°C -10.3°F-23.5°C 8% 9.2 mph WSW14.8 kmh WSW 14.1 mph22.7 kmh 29.83 in1010.2 mb 0.00 in0.0 mm 0.00 in0.0 mm 0.00 in0.0 mm
03:49 PM 48.6°F9.2°C -10.3°F-23.5°C 8% 8.8 mph WSW14.2 kmh WSW 14.1 mph22.7 kmh 29.83 in1010.2 mb 0.00 in0.0 mm 0.00 in0.0 mm 0.00 in0.0 mm
03:50 PM 48.6°F9.2°C -10.3°F-23.5°C 8% 8.5 mph WSW13.7 kmh WSW 14.1 mph22.7 kmh 29.83 in1010.2 mb 0.00 in0.0 mm 0.00 in0.0 mm 0.00 in0.0 mm
03:51 PM 48.4°F9.1°C -10.4°F-23.6°C 8% 8.9 mph WSW14.3 kmh WSW 14.1 mph22.7 kmh 29.83 in1010.2 mb 0.00 in0.0 mm 0.00 in0.0 mm 0.00 in0.0 mm
03:52 PM 48.2°F9.0°C -10.5°F-23.6°C 8% 9.0 mph WSW14.5 kmh WSW 14.1 mph22.7 kmh 29.83 in1010.2 mb 0.00 in0.0 mm 0.00 in0.0 mm 0.00 in0.0 mm
03:53 PM 48.2°F9.0°C -10.5°F-23.6°C 8% 9.0 mph WSW14.5 kmh WSW 14.1 mph22.7 kmh 29.83 in1010.2 mb 0.00 in0.0 mm 0.00 in0.0 mm 0.00 in0.0 mm
03:54 PM 48.0°F8.9°C -10.7°F-23.7°C 8% 9.3 mph W15.0 kmh W 14.1 mph22.7 kmh 29.83 in1010.2 mb 0.00 in0.0 mm 0.00 in0.0 mm 0.00 in0.0 mm
03:55 PM 48.0°F8.9°C -10.7°F-23.7°C 8% 9.0 mph WNW14.5 kmh WNW 12.3 mph19.8 kmh 29.83 in1010.2 mb 0.00 in0.0 mm 0.00 in0.0 mm 0.00 in0.0 mm
03:56 PM 48.2°F9.0°C -10.5°F-23.6°C 8% 9.0 mph WNW14.5 kmh WNW 13.0 mph20.9 kmh 29.83 in1010.2 mb 0.00 in0.0 mm 0.00 in0.0 mm 0.00 in0.0 mm
03:57 PM 48.2°F9.0°C -10.5°F-23.6°C 8% 9.2 mph WNW14.8 kmh WNW 13.0 mph20.9 kmh 29.83 in1010.2 mb 0.00 in0.0 mm 0.00 in0.0 mm 0.00 in0.0 mm
03:58 PM 47.8°F8.8°C -10.8°F-23.8°C 8% 9.9 mph W15.9 kmh W 13.0 mph20.9 kmh 29.83 in1010.2 mb 0.00 in0.0 mm 0.00 in0.0 mm 0.00 in0.0 mm
03:59 PM 47.8°F8.8°C -10.8°F-23.8°C 8% 10.4 mph WNW16.7 kmh WNW 13.0 mph20.9 kmh 29.86 in1011.2 mb 0.00 in0.0 mm 0.00 in0.0 mm 0.00 in0.0 mm
04:00 PM 48.0°F8.9°C -10.7°F-23.7°C 8% 10.2 mph WNW16.4 kmh WNW 13.0 mph20.9 kmh 29.86 in1011.2 mb 0.00 in0.0 mm 0.00 in0.0 mm 0.00 in0.0 mm
04:01 PM 48.0°F8.9°C -10.7°F-23.7°C 8% 9.7 mph WNW15.6 kmh WNW 13.0 mph20.9 kmh 29.86 in1011.2 mb 0.00 in0.0 mm 0.00 in0.0 mm 0.00 in0.0 mm
04:02 PM 48.0°F8.9°C -10.7°F-23.7°C 8% 9.9 mph W15.9 kmh W 13.0 mph20.9 kmh 29.86 in1011.2 mb 0.00 in0.0 mm 0.00 in0.0 mm 0.00 in0.0 mm
04:03 PM 48.0°F8.9°C -10.7°F-23.7°C 8% 9.9 mph W15.9 kmh W 13.0 mph20.9 kmh 29.86 in1011.2 mb 0.00 in0.0 mm 0.00 in0.0 mm 0.00 in0.0 mm
04:04 PM 48.0°F8.9°C -10.7°F-23.7°C 8% 9.6 mph W15.4 kmh W 13.0 mph20.9 kmh 29.86 in1011.2 mb 0.00 in0.0 mm 0.00 in0.0 mm 0.00 in0.0 mm
04:05 PM 48.0°F8.9°C -10.7°F-23.7°C 8% 9.9 mph W15.9 kmh W 13.0 mph20.9 kmh 29.86 in1011.2 mb 0.00 in0.0 mm 0.00 in0.0 mm 0.00 in0.0 mm
04:06 PM 48.0°F8.9°C -10.7°F-23.7°C 8% 10.2 mph WNW16.4 kmh WNW 13.9 mph22.4 kmh 29.86 in1011.2 mb 0.00 in0.0 mm 0.00 in0.0 mm 0.00 in0.0 mm
04:07 PM 48.0°F8.9°C -10.7°F-23.7°C 8% 10.3 mph WNW16.6 kmh WNW 13.9 mph22.4 kmh 29.86 in1011.2 mb 0.00 in0.0 mm 0.00 in0.0 mm 0.00 in0.0 mm
04:08 PM 47.7°F8.7°C -10.9°F-23.8°C 8% 10.4 mph NW16.7 kmh NW 13.9 mph22.4 kmh 29.86 in1011.2 mb 0.00 in0.0 mm 0.00 in0.0 mm 0.00 in0.0 mm
04:09 PM 47.7°F8.7°C -10.9°F-23.8°C 8% 10.1 mph NW16.3 kmh NW 13.9 mph22.4 kmh 29.86 in1011.2 mb 0.00 in0.0 mm 0.00 in0.0 mm 0.00 in0.0 mm
04:10 PM 47.5°F8.6°C -11.1°F-23.9°C 8% 10.1 mph NW16.3 kmh NW 13.9 mph22.4 kmh 29.86 in1011.2 mb 0.00 in0.0 mm 0.00 in0.0 mm 0.00 in0.0 mm
04:11 PM 47.5°F8.6°C -11.1°F-23.9°C 8% 10.5 mph NW16.9 kmh NW 13.9 mph22.4 kmh 29.86 in1011.2 mb 0.00 in0.0 mm 0.00 in0.0 mm 0.00 in0.0 mm
04:12 PM 47.5°F8.6°C -11.1°F-23.9°C 8% 10.2 mph NW16.4 kmh NW 13.9 mph22.4 kmh 29.86 in1011.2 mb 0.00 in0.0 mm 0.00 in0.0 mm 0.00 in0.0 mm
04:13 PM 47.5°F8.6°C -11.1°F-23.9°C 8% 10.1 mph NW16.3 kmh NW 13.9 mph22.4 kmh 29.86 in1011.2 mb 0.00 in0.0 mm 0.00 in0.0 mm 0.00 in0.0 mm
04:14 PM 47.5°F8.6°C -11.1°F-23.9°C 8% 9.9 mph NW15.9 kmh NW 13.9 mph22.4 kmh 29.86 in1011.2 mb 0.00 in0.0 mm 0.00 in0.0 mm 0.00 in0.0 mm
04:15 PM 47.5°F8.6°C -11.1°F-23.9°C 8% 9.6 mph NW15.4 kmh NW 13.9 mph22.4 kmh 29.86 in1011.2 mb 0.00 in0.0 mm 0.00 in0.0 mm 0.00 in0.0 mm
04:16 PM 47.5°F8.6°C -11.1°F-23.9°C 8% 9.5 mph NW15.3 kmh NW 13.9 mph22.4 kmh 29.86 in1011.2 mb 0.00 in0.0 mm 0.00 in0.0 mm 0.00 in0.0 mm
04:17 PM 47.5°F8.6°C -11.1°F-23.9°C 8% 8.6 mph NW13.8 kmh NW 13.0 mph20.9 kmh 29.86 in1011.2 mb 0.00 in0.0 mm 0.00 in0.0 mm 0.00 in0.0 mm
04:18 PM 47.5°F8.6°C -11.1°F-23.9°C 8% 8.6 mph NW13.8 kmh NW 13.0 mph20.9 kmh 29.86 in1011.2 mb 0.00 in0.0 mm 0.00 in0.0 mm 0.00 in0.0 mm
04:19 PM 46.9°F8.3°C -9.1°F-22.8°C 9% 8.5 mph WNW13.7 kmh WNW 13.0 mph20.9 kmh 29.86 in1011.2 mb 0.00 in0.0 mm 0.00 in0.0 mm 0.00 in0.0 mm
04:20 PM 46.9°F8.3°C -9.1°F-22.8°C 9% 8.7 mph WNW14.0 kmh WNW 13.0 mph20.9 kmh 29.86 in1011.2 mb 0.00 in0.0 mm 0.00 in0.0 mm 0.00 in0.0 mm
04:21 PM 46.9°F8.3°C -9.1°F-22.8°C 9% 8.3 mph WNW13.4 kmh WNW 13.0 mph20.9 kmh 29.86 in1011.2 mb 0.00 in0.0 mm 0.00 in0.0 mm 0.00 in0.0 mm
04:22 PM 46.6°F8.1°C -3.4°F-19.7°C 12% 8.3 mph WNW13.4 kmh WNW 13.0 mph20.9 kmh 29.86 in1011.2 mb 0.00 in0.0 mm 0.00 in0.0 mm 0.00 in0.0 mm
04:23 PM 46.6°F8.1°C -3.4°F-19.7°C 12% 8.6 mph WNW13.8 kmh WNW 13.0 mph20.9 kmh 29.86 in1011.2 mb 0.00 in0.0 mm 0.00 in0.0 mm 0.00 in0.0 mm
04:24 PM 46.4°F8.0°C -3.6°F-19.8°C 12% 9.5 mph WNW15.3 kmh WNW 16.8 mph27.0 kmh 29.86 in1011.2 mb 0.00 in0.0 mm 0.00 in0.0 mm 0.00 in0.0 mm
04:25 PM 46.4°F8.0°C -3.6°F-19.8°C 12% 9.9 mph WNW15.9 kmh WNW 16.8 mph27.0 kmh 29.86 in1011.2 mb 0.00 in0.0 mm 0.00 in0.0 mm 0.00 in0.0 mm
04:26 PM 46.2°F7.9°C -7.5°F-21.9°C 10% 10.2 mph WNW16.4 kmh WNW 16.8 mph27.0 kmh 29.86 in1011.2 mb 0.00 in0.0 mm 0.00 in0.0 mm 0.00 in0.0 mm
04:27 PM 46.2°F7.9°C -7.5°F-21.9°C 10% 10.6 mph WNW17.1 kmh WNW 16.8 mph27.0 kmh 29.86 in1011.2 mb 0.00 in0.0 mm 0.00 in0.0 mm 0.00 in0.0 mm
04:28 PM 46.2°F7.9°C -3.7°F-19.8°C 12% 10.8 mph WNW17.4 kmh WNW 16.8 mph27.0 kmh 29.86 in1011.2 mb 0.00 in0.0 mm 0.00 in0.0 mm 0.00 in0.0 mm
04:29 PM 46.2°F7.9°C -3.7°F-19.8°C 12% 10.6 mph WNW17.1 kmh WNW 16.8 mph27.0 kmh 29.86 in1011.2 mb 0.00 in0.0 mm 0.00 in0.0 mm 0.00 in0.0 mm
04:30 PM 46.2°F7.9°C -3.7°F-19.8°C 12% 10.7 mph WNW17.2 kmh WNW 16.8 mph27.0 kmh 29.86 in1011.2 mb 0.00 in0.0 mm 0.00 in0.0 mm 0.00 in0.0 mm
04:31 PM 46.0°F7.8°C -7.6°F-22.0°C 10% 10.8 mph WNW17.4 kmh WNW 16.8 mph27.0 kmh 29.86 in1011.2 mb 0.00 in0.0 mm 0.00 in0.0 mm 0.00 in0.0 mm
04:32 PM 46.0°F7.8°C -7.6°F-22.0°C 10% 10.8 mph WNW17.4 kmh WNW 16.8 mph27.0 kmh 29.86 in1011.2 mb 0.00 in0.0 mm 0.00 in0.0 mm 0.00 in0.0 mm
04:33 PM 46.0°F7.8°C -7.6°F-22.0°C 10% 11.2 mph WNW18.0 kmh WNW 16.8 mph27.0 kmh 29.86 in1011.2 mb 0.00 in0.0 mm 0.00 in0.0 mm 0.00 in0.0 mm
04:34 PM 46.0°F7.8°C -7.6°F-22.0°C 10% 11.5 mph WNW18.5 kmh WNW 16.8 mph27.0 kmh 29.86 in1011.2 mb 0.00 in0.0 mm 0.00 in0.0 mm 0.00 in0.0 mm
04:35 PM 45.9°F7.7°C -7.8°F-22.1°C 10% 11.8 mph W19.0 kmh W 15.4 mph24.8 kmh 29.86 in1011.2 mb 0.00 in0.0 mm 0.00 in0.0 mm 0.00 in0.0 mm
04:36 PM 45.9°F7.7°C -7.8°F-22.1°C 10% 10.7 mph W17.2 kmh W 15.4 mph24.8 kmh 29.86 in1011.2 mb 0.00 in0.0 mm 0.00 in0.0 mm 0.00 in0.0 mm
04:37 PM 45.7°F7.6°C -4.1°F-20.1°C 12% 9.8 mph W15.8 kmh W 15.4 mph24.8 kmh 29.86 in1011.2 mb 0.00 in0.0 mm 0.00 in0.0 mm 0.00 in0.0 mm
04:38 PM 45.5°F7.5°C -4.3°F-20.2°C 12% 9.4 mph W15.1 kmh W 15.4 mph24.8 kmh 29.86 in1011.2 mb 0.00 in0.0 mm 0.00 in0.0 mm 0.00 in0.0 mm
04:39 PM 45.5°F7.5°C -4.3°F-20.2°C 12% 8.8 mph W14.2 kmh W 15.4 mph24.8 kmh 29.86 in1011.2 mb 0.00 in0.0 mm 0.00 in0.0 mm 0.00 in0.0 mm
04:40 PM 45.5°F7.5°C -4.3°F-20.2°C 12% 8.2 mph W13.2 kmh W 15.4 mph24.8 kmh 29.86 in1011.2 mb 0.00 in0.0 mm 0.00 in0.0 mm 0.00 in0.0 mm
04:41 PM 45.5°F7.5°C -4.3°F-20.2°C 12% 8.2 mph W13.2 kmh W 15.4 mph24.8 kmh 29.86 in1011.2 mb 0.00 in0.0 mm 0.00 in0.0 mm 0.00 in0.0 mm
04:42 PM 45.1°F7.3°C 0.1°F-17.7°C 15% 8.3 mph W13.4 kmh W 15.4 mph24.8 kmh 29.86 in1011.2 mb 0.00 in0.0 mm 0.00 in0.0 mm 0.00 in0.0 mm
04:43 PM 45.1°F7.3°C 0.1°F-17.7°C 15% 8.0 mph W12.9 kmh W 15.4 mph24.8 kmh 29.86 in1011.2 mb 0.00 in0.0 mm 0.00 in0.0 mm 0.00 in0.0 mm
04:44 PM 45.0°F7.2°C 0.0°F-17.8°C 15% 7.7 mph W12.4 kmh W 15.4 mph24.8 kmh 29.89 in1012.2 mb 0.00 in0.0 mm 0.00 in0.0 mm 0.00 in0.0 mm
04:45 PM 44.8°F7.1°C -0.2°F-17.9°C 15% 6.8 mph WNW10.9 kmh WNW 10.7 mph17.2 kmh 29.89 in1012.2 mb 0.00 in0.0 mm 0.00 in0.0 mm 0.00 in0.0 mm
04:46 PM 44.8°F7.1°C -0.2°F-17.9°C 15% 6.8 mph WNW10.9 kmh WNW 10.7 mph17.2 kmh 29.89 in1012.2 mb 0.00 in0.0 mm 0.00 in0.0 mm 0.00 in0.0 mm
04:47 PM 44.8°F7.1°C -0.2°F-17.9°C 15% 7.8 mph W12.6 kmh W 12.5 mph20.1 kmh 29.89 in1012.2 mb 0.00 in0.0 mm 0.00 in0.0 mm 0.00 in0.0 mm
04:48 PM 44.8°F7.1°C -0.2°F-17.9°C 15% 8.3 mph W13.4 kmh W 12.5 mph20.1 kmh 29.89 in1012.2 mb 0.00 in0.0 mm 0.00 in0.0 mm 0.00 in0.0 mm
04:49 PM 44.6°F7.0°C -0.3°F-17.9°C 15% 9.0 mph W14.5 kmh W 12.5 mph20.1 kmh 29.89 in1012.2 mb 0.00 in0.0 mm 0.00 in0.0 mm 0.00 in0.0 mm
04:50 PM 44.6°F7.0°C -0.3°F-17.9°C 15% 9.7 mph W15.6 kmh W 12.5 mph20.1 kmh 29.89 in1012.2 mb 0.00 in0.0 mm 0.00 in0.0 mm 0.00 in0.0 mm
04:51 PM 44.4°F6.9°C -0.4°F-18.0°C 15% 9.9 mph W15.9 kmh W 12.5 mph20.1 kmh 29.89 in1012.2 mb 0.00 in0.0 mm 0.00 in0.0 mm 0.00 in0.0 mm
04:52 PM 44.4°F6.9°C -0.4°F-18.0°C 15% 10.6 mph W17.1 kmh W 15.2 mph24.5 kmh 29.89 in1012.2 mb 0.00 in0.0 mm 0.00 in0.0 mm 0.00 in0.0 mm
04:53 PM 44.2°F6.8°C -0.6°F-18.1°C 15% 10.6 mph W17.1 kmh W 15.2 mph24.5 kmh 29.89 in1012.2 mb 0.00 in0.0 mm 0.00 in0.0 mm 0.00 in0.0 mm
04:54 PM 43.9°F6.6°C -0.9°F-18.3°C 15% 10.1 mph W16.3 kmh W 15.2 mph24.5 kmh 29.89 in1012.2 mb 0.00 in0.0 mm 0.00 in0.0 mm 0.00 in0.0 mm
04:55 PM 43.9°F6.6°C -0.9°F-18.3°C 15% 10.0 mph W16.1 kmh W 15.2 mph24.5 kmh 29.89 in1012.2 mb 0.00 in0.0 mm 0.00 in0.0 mm 0.00 in0.0 mm
04:56 PM 43.9°F6.6°C 3.0°F-16.1°C 18% 9.5 mph W15.3 kmh W 15.2 mph24.5 kmh 29.89 in1012.2 mb 0.00 in0.0 mm 0.00 in0.0 mm 0.00 in0.0 mm
04:57 PM 43.9°F6.6°C 3.0°F-16.1°C 18% 9.3 mph W15.0 kmh W 15.2 mph24.5 kmh 29.89 in1012.2 mb 0.00 in0.0 mm 0.00 in0.0 mm 0.00 in0.0 mm
04:58 PM 43.7°F6.5°C 2.9°F-16.2°C 18% 9.1 mph WNW14.6 kmh WNW 15.2 mph24.5 kmh 29.89 in1012.2 mb 0.00 in0.0 mm 0.00 in0.0 mm 0.00 in0.0 mm
04:59 PM 43.7°F6.5°C 2.9°F-16.2°C 18% 9.1 mph WNW14.6 kmh WNW 15.2 mph24.5 kmh 29.89 in1012.2 mb 0.00 in0.0 mm 0.00 in0.0 mm 0.00 in0.0 mm
05:00 PM 43.7°F6.5°C 2.9°F-16.2°C 18% 8.8 mph WNW14.2 kmh WNW 15.2 mph24.5 kmh 29.89 in1012.2 mb 0.00 in0.0 mm 0.00 in0.0 mm 0.00 in0.0 mm
05:01 PM 43.5°F6.4°C 2.7°F-16.3°C 18% 8.5 mph WNW13.7 kmh WNW 15.2 mph24.5 kmh 29.89 in1012.2 mb 0.00 in0.0 mm 0.00 in0.0 mm 0.00 in0.0 mm
05:02 PM 43.5°F6.4°C 2.7°F-16.3°C 18% 8.3 mph WNW13.4 kmh WNW 15.2 mph24.5 kmh 29.89 in1012.2 mb 0.00 in0.0 mm 0.00 in0.0 mm 0.00 in0.0 mm
05:03 PM 43.3°F6.3°C 2.6°F-16.3°C 18% 8.3 mph NW13.4 kmh NW 13.0 mph20.9 kmh 29.89 in1012.2 mb 0.00 in0.0 mm 0.00 in0.0 mm 0.00 in0.0 mm
05:04 PM 43.3°F6.3°C 2.6°F-16.3°C 18% 8.4 mph NW13.5 kmh NW 13.0 mph20.9 kmh 29.89 in1012.2 mb 0.00 in0.0 mm 0.00 in0.0 mm 0.00 in0.0 mm
05:05 PM 43.5°F6.4°C 2.7°F-16.3°C 18% 9.1 mph NW14.6 kmh NW 15.2 mph24.5 kmh 29.89 in1012.2 mb 0.00 in0.0 mm 0.00 in0.0 mm 0.00 in0.0 mm
05:06 PM 43.5°F6.4°C 2.7°F-16.3°C 18% 9.5 mph NW15.3 kmh NW 15.2 mph24.5 kmh 29.89 in1012.2 mb 0.00 in0.0 mm 0.00 in0.0 mm 0.00 in0.0 mm
05:07 PM 43.3°F6.3°C 4.9°F-15.1°C 20% 9.9 mph NW15.9 kmh NW 15.4 mph24.8 kmh 29.89 in1012.2 mb 0.00 in0.0 mm 0.00 in0.0 mm 0.00 in0.0 mm
05:08 PM 43.2°F6.2°C 4.7°F-15.2°C 20% 9.9 mph WNW15.9 kmh WNW 15.4 mph24.8 kmh 29.89 in1012.2 mb 0.00 in0.0 mm 0.00 in0.0 mm 0.00 in0.0 mm
05:09 PM 43.2°F6.2°C 4.7°F-15.2°C 20% 9.6 mph WNW15.4 kmh WNW 15.4 mph24.8 kmh 29.89 in1012.2 mb 0.00 in0.0 mm 0.00 in0.0 mm 0.00 in0.0 mm
05:10 PM 43.2°F6.2°C 7.8°F-13.4°C 23% 9.9 mph W15.9 kmh W 15.4 mph24.8 kmh 29.89 in1012.2 mb 0.00 in0.0 mm 0.00 in0.0 mm 0.00 in0.0 mm
05:11 PM 43.2°F6.2°C 7.8°F-13.4°C 23% 9.9 mph W15.9 kmh W 15.4 mph24.8 kmh 29.89 in1012.2 mb 0.00 in0.0 mm 0.00 in0.0 mm 0.00 in0.0 mm
05:12 PM 43.2°F6.2°C 4.7°F-15.2°C 20% 10.4 mph W16.7 kmh W 15.4 mph24.8 kmh 29.89 in1012.2 mb 0.00 in0.0 mm 0.00 in0.0 mm 0.00 in0.0 mm
05:13 PM 43.2°F6.2°C 4.7°F-15.2°C 20% 9.8 mph W15.8 kmh W 15.4 mph24.8 kmh 29.89 in1012.2 mb 0.00 in0.0 mm 0.00 in0.0 mm 0.00 in0.0 mm
05:14 PM 43.0°F6.1°C 7.6°F-13.6°C 23% 9.8 mph W15.8 kmh W 15.4 mph24.8 kmh 29.92 in1013.2 mb 0.00 in0.0 mm 0.00 in0.0 mm 0.00 in0.0 mm
05:15 PM 43.0°F6.1°C 4.6°F-15.2°C 20% 9.3 mph W15.0 kmh W 15.4 mph24.8 kmh 29.92 in1013.2 mb 0.00 in0.0 mm 0.00 in0.0 mm 0.00 in0.0 mm
05:16 PM 43.0°F6.1°C 4.6°F-15.2°C 20% 9.7 mph W15.6 kmh W 15.9 mph25.6 kmh 29.92 in1013.2 mb 0.00 in0.0 mm 0.00 in0.0 mm 0.00 in0.0 mm
05:17 PM 43.0°F6.1°C 4.6°F-15.2°C 20% 9.4 mph W15.1 kmh W 15.9 mph25.6 kmh 29.92 in1013.2 mb 0.00 in0.0 mm 0.00 in0.0 mm 0.00 in0.0 mm
05:18 PM 43.0°F6.1°C 4.6°F-15.2°C 20% 9.7 mph WNW15.6 kmh WNW 15.9 mph25.6 kmh 29.92 in1013.2 mb 0.00 in0.0 mm 0.00 in0.0 mm 0.00 in0.0 mm
05:19 PM 43.0°F6.1°C 4.6°F-15.2°C 20% 9.8 mph WNW15.8 kmh WNW 15.9 mph25.6 kmh 29.92 in1013.2 mb 0.00 in0.0 mm 0.00 in0.0 mm 0.00 in0.0 mm
05:20 PM 43.2°F6.2°C 2.4°F-16.4°C 18% 9.9 mph WNW15.9 kmh WNW 15.9 mph25.6 kmh 29.92 in1013.2 mb 0.00 in0.0 mm 0.00 in0.0 mm 0.00 in0.0 mm
05:21 PM 43.2°F6.2°C 2.4°F-16.4°C 18% 9.9 mph WNW15.9 kmh WNW 15.9 mph25.6 kmh 29.92 in1013.2 mb 0.00 in0.0 mm 0.00 in0.0 mm 0.00 in0.0 mm
05:22 PM 43.0°F6.1°C 4.6°F-15.2°C 20% 9.4 mph WNW15.1 kmh WNW 15.9 mph25.6 kmh 29.92 in1013.2 mb 0.00 in0.0 mm 0.00 in0.0 mm 0.00 in0.0 mm
05:23 PM 43.0°F6.1°C 4.6°F-15.2°C 20% 9.5 mph WNW15.3 kmh WNW 15.9 mph25.6 kmh 29.92 in1013.2 mb 0.00 in0.0 mm 0.00 in0.0 mm 0.00 in0.0 mm
05:24 PM 43.0°F6.1°C 4.6°F-15.2°C 20% 9.7 mph WNW15.6 kmh WNW 15.9 mph25.6 kmh 29.92 in1013.2 mb 0.00 in0.0 mm 0.00 in0.0 mm 0.00 in0.0 mm
05:25 PM 43.0°F6.1°C 4.6°F-15.2°C 20% 9.4 mph WNW15.1 kmh WNW 15.9 mph25.6 kmh 29.92 in1013.2 mb 0.00 in0.0 mm 0.00 in0.0 mm 0.00 in0.0 mm
05:26 PM 43.0°F6.1°C 4.6°F-15.2°C 20% 9.7 mph W15.6 kmh W 15.9 mph25.6 kmh 29.92 in1013.2 mb 0.00 in0.0 mm 0.00 in0.0 mm 0.00 in0.0 mm
05:27 PM 42.8°F6.0°C 4.4°F-15.3°C 20% 9.7 mph WNW15.6 kmh WNW 15.9 mph25.6 kmh 29.92 in1013.2 mb 0.00 in0.0 mm 0.00 in0.0 mm 0.00 in0.0 mm
05:28 PM 42.8°F6.0°C 4.4°F-15.3°C 20% 9.2 mph W14.8 kmh W 14.3 mph23.0 kmh 29.92 in1013.2 mb 0.00 in0.0 mm 0.00 in0.0 mm 0.00 in0.0 mm
05:29 PM 42.8°F6.0°C 4.4°F-15.3°C 20% 9.4 mph WNW15.1 kmh WNW 14.3 mph23.0 kmh 29.92 in1013.2 mb 0.00 in0.0 mm 0.00 in0.0 mm 0.00 in0.0 mm
05:30 PM 42.8°F6.0°C 4.4°F-15.3°C 20% 8.9 mph WNW14.3 kmh WNW 13.0 mph20.9 kmh 29.92 in1013.2 mb 0.00 in0.0 mm 0.00 in0.0 mm 0.00 in0.0 mm
05:31 PM 42.8°F6.0°C 4.4°F-15.3°C 20% 8.4 mph WNW13.5 kmh WNW 13.0 mph20.9 kmh 29.92 in1013.2 mb 0.00 in0.0 mm 0.00 in0.0 mm 0.00 in0.0 mm
05:32 PM 42.6°F5.9°C 7.3°F-13.7°C 23% 7.9 mph WNW12.7 kmh WNW 13.0 mph20.9 kmh 29.92 in1013.2 mb 0.00 in0.0 mm 0.00 in0.0 mm 0.00 in0.0 mm
05:33 PM 42.6°F5.9°C 7.3°F-13.7°C 23% 7.5 mph WNW12.1 kmh WNW 13.0 mph20.9 kmh 29.92 in1013.2 mb 0.00 in0.0 mm 0.00 in0.0 mm 0.00 in0.0 mm
05:34 PM 42.6°F5.9°C 7.3°F-13.7°C 23% 7.2 mph WNW11.6 kmh WNW 13.0 mph20.9 kmh 29.92 in1013.2 mb 0.00 in0.0 mm 0.00 in0.0 mm 0.00 in0.0 mm
05:35 PM 42.6°F5.9°C 7.3°F-13.7°C 23% 6.8 mph WNW10.9 kmh WNW 13.0 mph20.9 kmh 29.92 in1013.2 mb 0.00 in0.0 mm 0.00 in0.0 mm 0.00 in0.0 mm
05:36 PM 42.4°F5.8°C 9.9°F-12.3°C 26% 6.0 mph WNW9.7 kmh WNW 13.0 mph20.9 kmh 29.92 in1013.2 mb 0.00 in0.0 mm 0.00 in0.0 mm 0.00 in0.0 mm
05:37 PM 42.4°F5.8°C 9.9°F-12.3°C 26% 6.1 mph WNW9.8 kmh WNW 14.8 mph23.8 kmh 29.92 in1013.2 mb 0.00 in0.0 mm 0.00 in0.0 mm 0.00 in0.0 mm
05:38 PM 42.6°F5.9°C 7.3°F-13.7°C 23% 6.8 mph W10.9 kmh W 14.8 mph23.8 kmh 29.92 in1013.2 mb 0.00 in0.0 mm 0.00 in0.0 mm 0.00 in0.0 mm
05:39 PM 42.6°F5.9°C 10.1°F-12.2°C 26% 6.6 mph W10.6 kmh W 14.8 mph23.8 kmh 29.92 in1013.2 mb 0.00 in0.0 mm 0.00 in0.0 mm 0.00 in0.0 mm
05:40 PM 42.6°F5.9°C 10.1°F-12.2°C 26% 6.4 mph W10.3 kmh W 14.8 mph23.8 kmh 29.92 in1013.2 mb 0.00 in0.0 mm 0.00 in0.0 mm 0.00 in0.0 mm
05:41 PM 42.8°F6.0°C 7.5°F-13.6°C 23% 6.7 mph W10.8 kmh W 14.8 mph23.8 kmh 29.92 in1013.2 mb 0.00 in0.0 mm 0.00 in0.0 mm 0.00 in0.0 mm
05:42 PM 42.8°F6.0°C 7.5°F-13.6°C 23% 7.3 mph W11.7 kmh W 14.8 mph23.8 kmh 29.92 in1013.2 mb 0.00 in0.0 mm 0.00 in0.0 mm 0.00 in0.0 mm
05:43 PM 42.6°F5.9°C 7.3°F-13.7°C 23% 7.9 mph W12.7 kmh W 14.8 mph23.8 kmh 29.92 in1013.2 mb 0.00 in0.0 mm 0.00 in0.0 mm 0.00 in0.0 mm
05:44 PM 42.6°F5.9°C 7.3°F-13.7°C 23% 8.1 mph W13.0 kmh W 14.8 mph23.8 kmh 29.95 in1014.2 mb 0.00 in0.0 mm 0.00 in0.0 mm 0.00 in0.0 mm
05:45 PM 42.6°F5.9°C 10.1°F-12.2°C 26% 8.2 mph W13.2 kmh W 14.8 mph23.8 kmh 29.95 in1014.2 mb 0.00 in0.0 mm 0.00 in0.0 mm 0.00 in0.0 mm
05:46 PM 42.6°F5.9°C 10.1°F-12.2°C 26% 9.4 mph W15.1 kmh W 14.8 mph23.8 kmh 29.95 in1014.2 mb 0.00 in0.0 mm 0.00 in0.0 mm 0.00 in0.0 mm
05:47 PM 42.6°F5.9°C 10.1°F-12.2°C 26% 9.1 mph W14.6 kmh W 14.8 mph23.8 kmh 29.95 in1014.2 mb 0.00 in0.0 mm 0.00 in0.0 mm 0.00 in0.0 mm
05:48 PM 42.6°F5.9°C 10.1°F-12.2°C 26% 8.1 mph W13.0 kmh W 14.8 mph23.8 kmh 29.95 in1014.2 mb 0.00 in0.0 mm 0.00 in0.0 mm 0.00 in0.0 mm
05:49 PM 42.6°F5.9°C 10.1°F-12.2°C 26% 7.6 mph W12.2 kmh W 11.9 mph19.2 kmh 29.95 in1014.2 mb 0.00 in0.0 mm 0.00 in0.0 mm 0.00 in0.0 mm
05:50 PM 42.4°F5.8°C 9.9°F-12.3°C 26% 7.3 mph WNW11.7 kmh WNW 11.9 mph19.2 kmh 29.95 in1014.2 mb 0.00 in0.0 mm 0.00 in0.0 mm 0.00 in0.0 mm
05:51 PM 42.4°F5.8°C 9.9°F-12.3°C 26% 6.7 mph W10.8 kmh W 11.9 mph19.2 kmh 29.95 in1014.2 mb 0.00 in0.0 mm 0.00 in0.0 mm 0.00 in0.0 mm
05:52 PM 42.4°F5.8°C 9.9°F-12.3°C 26% 6.2 mph WNW10.0 kmh WNW 11.9 mph19.2 kmh 29.95 in1014.2 mb 0.00 in0.0 mm 0.00 in0.0 mm 0.00 in0.0 mm
05:53 PM 42.4°F5.8°C 5.2°F-14.9°C 21% 6.6 mph NW10.6 kmh NW 12.1 mph19.5 kmh 29.95 in1014.2 mb 0.00 in0.0 mm 0.00 in0.0 mm 0.00 in0.0 mm
05:54 PM 42.4°F5.8°C 5.2°F-14.9°C 21% 6.6 mph WNW10.6 kmh WNW 12.1 mph19.5 kmh 29.95 in1014.2 mb 0.00 in0.0 mm 0.00 in0.0 mm 0.00 in0.0 mm
05:55 PM 42.4°F5.8°C 5.2°F-14.9°C 21% 7.1 mph NW11.4 kmh NW 12.1 mph19.5 kmh 29.95 in1014.2 mb 0.00 in0.0 mm 0.00 in0.0 mm 0.00 in0.0 mm
05:56 PM 42.4°F5.8°C 5.2°F-14.9°C 21% 7.1 mph NW11.4 kmh NW 12.1 mph19.5 kmh 29.95 in1014.2 mb 0.00 in0.0 mm 0.00 in0.0 mm 0.00 in0.0 mm
05:57 PM 42.3°F5.7°C 5.0°F-15.0°C 21% 6.9 mph NW11.1 kmh NW 12.1 mph19.5 kmh 29.95 in1014.2 mb 0.00 in0.0 mm 0.00 in0.0 mm 0.00 in0.0 mm
05:58 PM 42.4°F5.8°C 1.8°F-16.8°C 18% 7.2 mph NW11.6 kmh NW 12.1 mph19.5 kmh 29.95 in1014.2 mb 0.00 in0.0 mm 0.00 in0.0 mm 0.00 in0.0 mm
05:59 PM 42.4°F5.8°C 1.8°F-16.8°C 18% 6.9 mph NW11.1 kmh NW 12.1 mph19.5 kmh 29.95 in1014.2 mb 0.00 in0.0 mm 0.00 in0.0 mm 0.00 in0.0 mm
06:00 PM 42.3°F5.7°C 1.7°F-16.8°C 18% 6.6 mph NW10.6 kmh NW 12.1 mph19.5 kmh 29.95 in1014.2 mb 0.00 in0.0 mm 0.00 in0.0 mm 0.00 in0.0 mm
06:01 PM 42.3°F5.7°C -0.8°F-18.2°C 16% 7.9 mph NW12.7 kmh NW 14.5 mph23.3 kmh 29.95 in1014.2 mb 0.00 in0.0 mm 0.00 in0.0 mm 0.00 in0.0 mm
06:02 PM 42.3°F5.7°C -0.8°F-18.2°C 16% 7.9 mph NW12.7 kmh NW 14.5 mph23.3 kmh 29.95 in1014.2 mb 0.00 in0.0 mm 0.00 in0.0 mm 0.00 in0.0 mm
06:03 PM 42.3°F5.7°C -5.2°F-20.7°C 13% 7.5 mph NW12.1 kmh NW 14.5 mph23.3 kmh 29.95 in1014.2 mb 0.00 in0.0 mm 0.00 in0.0 mm 0.00 in0.0 mm
06:04 PM 42.3°F5.7°C -5.2°F-20.7°C 13% 7.6 mph NW12.2 kmh NW 14.5 mph23.3 kmh 29.95 in1014.2 mb 0.00 in0.0 mm 0.00 in0.0 mm 0.00 in0.0 mm
06:05 PM 42.1°F5.6°C -1.0°F-18.3°C 16% 7.9 mph NW12.7 kmh NW 14.5 mph23.3 kmh 29.95 in1014.2 mb 0.00 in0.0 mm 0.00 in0.0 mm 0.00 in0.0 mm
06:06 PM 42.1°F5.6°C -1.0°F-18.3°C 16% 8.1 mph NW13.0 kmh NW 14.5 mph23.3 kmh 29.95 in1014.2 mb 0.00 in0.0 mm 0.00 in0.0 mm 0.00 in0.0 mm
06:07 PM 42.1°F5.6°C -5.3°F-20.7°C 13% 9.0 mph WNW14.5 kmh WNW 14.5 mph23.3 kmh 29.95 in1014.2 mb 0.00 in0.0 mm 0.00 in0.0 mm 0.00 in0.0 mm
06:08 PM 42.1°F5.6°C -5.3°F-20.7°C 13% 8.4 mph WNW13.5 kmh WNW 14.5 mph23.3 kmh 29.95 in1014.2 mb 0.00 in0.0 mm 0.00 in0.0 mm 0.00 in0.0 mm
06:09 PM 42.1°F5.6°C -1.0°F-18.3°C 16% 8.6 mph WNW13.8 kmh WNW 14.5 mph23.3 kmh 29.95 in1014.2 mb 0.00 in0.0 mm 0.00 in0.0 mm 0.00 in0.0 mm
06:10 PM 42.1°F5.6°C -1.0°F-18.3°C 16% 9.5 mph WNW15.3 kmh WNW 14.5 mph23.3 kmh 29.95 in1014.2 mb 0.00 in0.0 mm 0.00 in0.0 mm 0.00 in0.0 mm
06:11 PM 42.1°F5.6°C -1.0°F-18.3°C 16% 8.9 mph WNW14.3 kmh WNW 14.5 mph23.3 kmh 29.95 in1014.2 mb 0.00 in0.0 mm 0.00 in0.0 mm 0.00 in0.0 mm
06:12 PM 41.9°F5.5°C -1.1°F-18.4°C 16% 8.0 mph WNW12.9 kmh WNW 12.8 mph20.6 kmh 29.95 in1014.2 mb 0.00 in0.0 mm 0.00 in0.0 mm 0.00 in0.0 mm
06:13 PM 41.9°F5.5°C -1.1°F-18.4°C 16% 7.9 mph W12.7 kmh W 12.8 mph20.6 kmh 29.95 in1014.2 mb 0.00 in0.0 mm 0.00 in0.0 mm 0.00 in0.0 mm
06:14 PM 41.7°F5.4°C -1.3°F-18.5°C 16% 8.3 mph WNW13.4 kmh WNW 12.8 mph20.6 kmh 29.95 in1014.2 mb 0.00 in0.0 mm 0.00 in0.0 mm 0.00 in0.0 mm
06:15 PM 41.7°F5.4°C -1.3°F-18.5°C 16% 8.2 mph WNW13.2 kmh WNW 12.8 mph20.6 kmh 29.95 in1014.2 mb 0.00 in0.0 mm 0.00 in0.0 mm 0.00 in0.0 mm
06:16 PM 41.7°F5.4°C -1.3°F-18.5°C 16% 7.5 mph WNW12.1 kmh WNW 12.3 mph19.8 kmh 29.95 in1014.2 mb 0.00 in0.0 mm 0.00 in0.0 mm 0.00 in0.0 mm
06:17 PM 41.7°F5.4°C -1.3°F-18.5°C 16% 6.9 mph NW11.1 kmh NW 12.3 mph19.8 kmh 29.95 in1014.2 mb 0.00 in0.0 mm 0.00 in0.0 mm 0.00 in0.0 mm
06:18 PM 41.7°F5.4°C -1.3°F-18.5°C 16% 7.1 mph NW11.4 kmh NW 12.3 mph19.8 kmh 29.95 in1014.2 mb 0.00 in0.0 mm 0.00 in0.0 mm 0.00 in0.0 mm
06:19 PM 41.7°F5.4°C -1.3°F-18.5°C 16% 7.3 mph NW11.7 kmh NW 12.3 mph19.8 kmh 29.95 in1014.2 mb 0.00 in0.0 mm 0.00 in0.0 mm 0.00 in0.0 mm
06:20 PM 41.7°F5.4°C -1.3°F-18.5°C 16% 6.6 mph NW10.6 kmh NW 11.0 mph17.7 kmh 29.95 in1014.2 mb 0.00 in0.0 mm 0.00 in0.0 mm 0.00 in0.0 mm
06:21 PM 41.7°F5.4°C -1.3°F-18.5°C 16% 6.9 mph NW11.1 kmh NW 11.0 mph17.7 kmh 29.95 in1014.2 mb 0.00 in0.0 mm 0.00 in0.0 mm 0.00 in0.0 mm
06:22 PM 41.7°F5.4°C -1.3°F-18.5°C 16% 7.3 mph NW11.7 kmh NW 11.0 mph17.7 kmh 29.95 in1014.2 mb 0.00 in0.0 mm 0.00 in0.0 mm 0.00 in0.0 mm
06:23 PM 41.5°F5.3°C -1.4°F-18.6°C 16% 7.3 mph NW11.7 kmh NW 11.0 mph17.7 kmh 29.95 in1014.2 mb 0.00 in0.0 mm 0.00 in0.0 mm 0.00 in0.0 mm
06:24 PM 41.5°F5.3°C -5.8°F-21.0°C 13% 7.1 mph NW11.4 kmh NW 15.4 mph24.8 kmh 29.95 in1014.2 mb 0.00 in0.0 mm 0.00 in0.0 mm 0.00 in0.0 mm
06:25 PM 41.5°F5.3°C -5.8°F-21.0°C 13% 7.1 mph NW11.4 kmh NW 15.4 mph24.8 kmh 29.95 in1014.2 mb 0.00 in0.0 mm 0.00 in0.0 mm 0.00 in0.0 mm
06:26 PM 41.7°F5.4°C -5.6°F-20.9°C 13% 8.0 mph NW12.9 kmh NW 15.4 mph24.8 kmh 29.95 in1014.2 mb 0.00 in0.0 mm 0.00 in0.0 mm 0.00 in0.0 mm
06:27 PM 41.7°F5.4°C -5.6°F-20.9°C 13% 7.9 mph NW12.7 kmh NW 15.4 mph24.8 kmh 29.95 in1014.2 mb 0.00 in0.0 mm 0.00 in0.0 mm 0.00 in0.0 mm
06:28 PM 41.7°F5.4°C -5.6°F-20.9°C 13% 7.7 mph NW12.4 kmh NW 15.4 mph24.8 kmh 29.95 in1014.2 mb 0.00 in0.0 mm 0.00 in0.0 mm 0.00 in0.0 mm
06:29 PM 41.7°F5.4°C -5.6°F-20.9°C 13% 7.3 mph NW11.7 kmh NW 15.4 mph24.8 kmh 29.95 in1014.2 mb 0.00 in0.0 mm 0.00 in0.0 mm 0.00 in0.0 mm
06:30 PM 41.5°F5.3°C -1.4°F-18.6°C 16% 6.9 mph NW11.1 kmh NW 15.4 mph24.8 kmh 29.95 in1014.2 mb 0.00 in0.0 mm 0.00 in0.0 mm 0.00 in0.0 mm
06:31 PM 41.5°F5.3°C -1.4°F-18.6°C 16% 7.7 mph NW12.4 kmh NW 15.4 mph24.8 kmh 29.95 in1014.2 mb 0.00 in0.0 mm 0.00 in0.0 mm 0.00 in0.0 mm
06:32 PM 41.5°F5.3°C -1.4°F-18.6°C 16% 7.5 mph NW12.1 kmh NW 15.4 mph24.8 kmh 29.95 in1014.2 mb 0.00 in0.0 mm 0.00 in0.0 mm 0.00 in0.0 mm
06:33 PM 41.5°F5.3°C -1.4°F-18.6°C 16% 7.5 mph NW12.1 kmh NW 15.4 mph24.8 kmh 29.95 in1014.2 mb 0.00 in0.0 mm 0.00 in0.0 mm 0.00 in0.0 mm
06:34 PM 41.5°F5.3°C -1.4°F-18.6°C 16% 8.2 mph NW13.2 kmh NW 15.4 mph24.8 kmh 29.95 in1014.2 mb 0.00 in0.0 mm 0.00 in0.0 mm 0.00 in0.0 mm
06:35 PM 41.5°F5.3°C -1.4°F-18.6°C 16% 7.7 mph NW12.4 kmh NW 15.4 mph24.8 kmh 29.95 in1014.2 mb 0.00 in0.0 mm 0.00 in0.0 mm 0.00 in0.0 mm
06:36 PM 41.5°F5.3°C -1.4°F-18.6°C 16% 7.5 mph NW12.1 kmh NW 15.4 mph24.8 kmh 29.95 in1014.2 mb 0.00 in0.0 mm 0.00 in0.0 mm 0.00 in0.0 mm
06:37 PM 41.4°F5.2°C -1.6°F-18.7°C 16% 6.9 mph NW11.1 kmh NW 15.2 mph24.5 kmh 29.95 in1014.2 mb 0.00 in0.0 mm 0.00 in0.0 mm 0.00 in0.0 mm
06:38 PM 41.4°F5.2°C -1.6°F-18.7°C 16% 6.8 mph NW10.9 kmh NW 15.2 mph24.5 kmh 29.95 in1014.2 mb 0.00 in0.0 mm 0.00 in0.0 mm 0.00 in0.0 mm
06:39 PM 41.4°F5.2°C -1.6°F-18.7°C 16% 6.7 mph NW10.8 kmh NW 15.2 mph24.5 kmh 29.95 in1014.2 mb 0.00 in0.0 mm 0.00 in0.0 mm 0.00 in0.0 mm
06:40 PM 41.2°F5.1°C -1.7°F-18.7°C 16% 6.8 mph WNW10.9 kmh WNW 15.2 mph24.5 kmh 29.95 in1014.2 mb 0.00 in0.0 mm 0.00 in0.0 mm 0.00 in0.0 mm
06:41 PM 41.2°F5.1°C -1.7°F-18.7°C 16% 6.3 mph WNW10.1 kmh WNW 15.2 mph24.5 kmh 29.95 in1014.2 mb 0.00 in0.0 mm 0.00 in0.0 mm 0.00 in0.0 mm
06:42 PM 41.2°F5.1°C -1.7°F-18.7°C 16% 5.9 mph NW9.5 kmh NW 15.2 mph24.5 kmh 29.95 in1014.2 mb 0.00 in0.0 mm 0.00 in0.0 mm 0.00 in0.0 mm
06:43 PM 41.2°F5.1°C -1.7°F-18.7°C 16% 5.6 mph NW9.0 kmh NW 15.2 mph24.5 kmh 29.95 in1014.2 mb 0.00 in0.0 mm 0.00 in0.0 mm 0.00 in0.0 mm
06:44 PM 40.8°F4.9°C -2.0°F-18.9°C 16% 4.8 mph WNW7.7 kmh WNW 7.8 mph12.6 kmh 29.98 in1015.2 mb 0.00 in0.0 mm 0.00 in0.0 mm 0.00 in0.0 mm
06:45 PM 40.8°F4.9°C -2.0°F-18.9°C 16% 4.7 mph WNW7.6 kmh WNW 7.8 mph12.6 kmh 29.98 in1015.2 mb 0.00 in0.0 mm 0.00 in0.0 mm 0.00 in0.0 mm
06:46 PM 40.6°F4.8°C -2.2°F-19.0°C 16% 4.9 mph WNW7.9 kmh WNW 7.8 mph12.6 kmh 29.98 in1015.2 mb 0.00 in0.0 mm 0.00 in0.0 mm 0.00 in0.0 mm
06:47 PM 40.6°F4.8°C 0.4°F-17.6°C 18% 5.0 mph NW8.0 kmh NW 7.8 mph12.6 kmh 29.98 in1015.2 mb 0.00 in0.0 mm 0.00 in0.0 mm 0.00 in0.0 mm
06:48 PM 40.6°F4.8°C 0.4°F-17.6°C 18% 4.8 mph NW7.7 kmh NW 7.8 mph12.6 kmh 29.98 in1015.2 mb 0.00 in0.0 mm 0.00 in0.0 mm 0.00 in0.0 mm
06:49 PM 40.5°F4.7°C 0.2°F-17.7°C 18% 4.7 mph NW7.6 kmh NW 7.8 mph12.6 kmh 29.98 in1015.2 mb 0.00 in0.0 mm 0.00 in0.0 mm 0.00 in0.0 mm
06:50 PM 40.5°F4.7°C 0.2°F-17.7°C 18% 4.5 mph NW7.2 kmh NW 7.8 mph12.6 kmh 29.98 in1015.2 mb 0.00 in0.0 mm 0.00 in0.0 mm 0.00 in0.0 mm
06:51 PM 40.5°F4.7°C 3.5°F-15.8°C 21% 4.3 mph NW6.9 kmh NW 7.8 mph12.6 kmh 29.98 in1015.2 mb 0.00 in0.0 mm 0.00 in0.0 mm 0.00 in0.0 mm
06:52 PM 40.5°F4.7°C 3.5°F-15.8°C 21% 3.9 mph NW6.3 kmh NW 7.8 mph12.6 kmh 29.98 in1015.2 mb 0.00 in0.0 mm 0.00 in0.0 mm 0.00 in0.0 mm
06:53 PM 40.3°F4.6°C 3.4°F-15.9°C 21% 3.9 mph NW6.3 kmh NW 7.8 mph12.6 kmh 29.98 in1015.2 mb 0.00 in0.0 mm 0.00 in0.0 mm 0.00 in0.0 mm
06:54 PM 40.5°F4.7°C 3.5°F-15.8°C 21% 3.7 mph NW6.0 kmh NW 6.3 mph10.1 kmh 29.98 in1015.2 mb 0.00 in0.0 mm 0.00 in0.0 mm 0.00 in0.0 mm
06:55 PM 40.5°F4.7°C 3.5°F-15.8°C 21% 3.7 mph NW6.0 kmh NW 6.3 mph10.1 kmh 29.98 in1015.2 mb 0.00 in0.0 mm 0.00 in0.0 mm 0.00 in0.0 mm
06:56 PM 40.3°F4.6°C 5.4°F-14.8°C 23% 3.7 mph NW6.0 kmh NW 6.0 mph9.7 kmh 29.98 in1015.2 mb 0.00 in0.0 mm 0.00 in0.0 mm 0.00 in0.0 mm
06:57 PM 40.3°F4.6°C 5.4°F-14.8°C 23% 3.7 mph NW6.0 kmh NW 6.0 mph9.7 kmh 29.98 in1015.2 mb 0.00 in0.0 mm 0.00 in0.0 mm 0.00 in0.0 mm
06:58 PM 40.3°F4.6°C 5.4°F-14.8°C 23% 3.5 mph NW5.6 kmh NW 6.0 mph9.7 kmh 29.98 in1015.2 mb 0.00 in0.0 mm 0.00 in0.0 mm 0.00 in0.0 mm
06:59 PM 40.3°F4.6°C 5.4°F-14.8°C 23% 4.0 mph NW6.4 kmh NW 10.5 mph16.9 kmh 29.98 in1015.2 mb 0.00 in0.0 mm 0.00 in0.0 mm 0.00 in0.0 mm
07:00 PM 40.5°F4.7°C 5.5°F-14.7°C 23% 4.7 mph NW7.6 kmh NW 10.5 mph16.9 kmh 29.98 in1015.2 mb 0.00 in0.0 mm 0.00 in0.0 mm 0.00 in0.0 mm
07:01 PM 40.5°F4.7°C 5.5°F-14.7°C 23% 4.8 mph NW7.7 kmh NW 10.5 mph16.9 kmh 29.98 in1015.2 mb 0.00 in0.0 mm 0.00 in0.0 mm 0.00 in0.0 mm
07:02 PM 40.5°F4.7°C 5.5°F-14.7°C 23% 5.2 mph NW8.4 kmh NW 10.5 mph16.9 kmh 29.98 in1015.2 mb 0.00 in0.0 mm 0.00 in0.0 mm 0.00 in0.0 mm
07:03 PM 40.5°F4.7°C 5.5°F-14.7°C 23% 5.6 mph NW9.0 kmh NW 10.5 mph16.9 kmh 29.98 in1015.2 mb 0.00 in0.0 mm 0.00 in0.0 mm 0.00 in0.0 mm
07:04 PM 40.5°F4.7°C 5.5°F-14.7°C 23% 5.8 mph NW9.3 kmh NW 10.5 mph16.9 kmh 29.98 in1015.2 mb 0.00 in0.0 mm 0.00 in0.0 mm 0.00 in0.0 mm
07:05 PM 40.5°F4.7°C 5.5°F-14.7°C 23% 6.2 mph NW10.0 kmh NW 10.5 mph16.9 kmh 29.98 in1015.2 mb 0.00 in0.0 mm 0.00 in0.0 mm 0.00 in0.0 mm
07:06 PM 40.5°F4.7°C 5.5°F-14.7°C 23% 6.4 mph NW10.3 kmh NW 10.5 mph16.9 kmh 29.98 in1015.2 mb 0.00 in0.0 mm 0.00 in0.0 mm 0.00 in0.0 mm
07:07 PM 40.3°F4.6°C 8.1°F-13.3°C 26% 6.4 mph WNW10.3 kmh WNW 10.5 mph16.9 kmh 29.98 in1015.2 mb 0.00 in0.0 mm 0.00 in0.0 mm 0.00 in0.0 mm
07:08 PM 40.3°F4.6°C 8.1°F-13.3°C 26% 6.7 mph WNW10.8 kmh WNW 10.5 mph16.9 kmh 29.98 in1015.2 mb 0.00 in0.0 mm 0.00 in0.0 mm 0.00 in0.0 mm
07:09 PM 40.5°F4.7°C 8.2°F-13.2°C 26% 6.5 mph WNW10.5 kmh WNW 10.5 mph16.9 kmh 29.98 in1015.2 mb 0.00 in0.0 mm 0.00 in0.0 mm 0.00 in0.0 mm
07:10 PM 40.3°F4.6°C 8.1°F-13.3°C 26% 5.9 mph WNW9.5 kmh WNW 6.9 mph11.1 kmh 29.98 in1015.2 mb 0.00 in0.0 mm 0.00 in0.0 mm 0.00 in0.0 mm
07:11 PM 40.3°F4.6°C 8.1°F-13.3°C 26% 5.9 mph WNW9.5 kmh WNW 6.9 mph11.1 kmh 29.98 in1015.2 mb 0.00 in0.0 mm 0.00 in0.0 mm 0.00 in0.0 mm
07:12 PM 40.3°F4.6°C 8.1°F-13.3°C 26% 5.6 mph WNW9.0 kmh WNW 6.9 mph11.1 kmh 29.98 in1015.2 mb 0.00 in0.0 mm 0.00 in0.0 mm 0.00 in0.0 mm
07:13 PM 40.3°F4.6°C 8.1°F-13.3°C 26% 5.7 mph WNW9.2 kmh WNW 7.4 mph11.9 kmh 29.98 in1015.2 mb 0.00 in0.0 mm 0.00 in0.0 mm 0.00 in0.0 mm
07:14 PM 40.3°F4.6°C 8.1°F-13.3°C 26% 5.8 mph W9.3 kmh W 7.4 mph11.9 kmh 29.98 in1015.2 mb 0.00 in0.0 mm 0.00 in0.0 mm 0.00 in0.0 mm
07:15 PM 40.3°F4.6°C 8.1°F-13.3°C 26% 5.8 mph WNW9.3 kmh WNW 7.6 mph12.2 kmh 29.98 in1015.2 mb 0.00 in0.0 mm 0.00 in0.0 mm 0.00 in0.0 mm
07:16 PM 39.9°F4.4°C 7.7°F-13.5°C 26% 6.0 mph WNW9.7 kmh WNW 8.7 mph14.0 kmh 29.98 in1015.2 mb 0.00 in0.0 mm 0.00 in0.0 mm 0.00 in0.0 mm
07:17 PM 40.3°F4.6°C 8.1°F-13.3°C 26% 5.7 mph WNW9.2 kmh WNW 8.7 mph14.0 kmh 29.98 in1015.2 mb 0.00 in0.0 mm 0.00 in0.0 mm 0.00 in0.0 mm
07:18 PM 40.3°F4.6°C 8.1°F-13.3°C 26% 5.8 mph WNW9.3 kmh WNW 8.7 mph14.0 kmh 29.98 in1015.2 mb 0.00 in0.0 mm 0.00 in0.0 mm 0.00 in0.0 mm
07:19 PM 39.9°F4.4°C 7.7°F-13.5°C 26% 5.3 mph NW8.5 kmh NW 8.7 mph14.0 kmh 29.98 in1015.2 mb 0.00 in0.0 mm 0.00 in0.0 mm 0.00 in0.0 mm
07:20 PM 39.9°F4.4°C 7.7°F-13.5°C 26% 5.7 mph WNW9.2 kmh WNW 8.7 mph14.0 kmh 29.98 in1015.2 mb 0.00 in0.0 mm 0.00 in0.0 mm 0.00 in0.0 mm
07:21 PM 40.1°F4.5°C 9.6°F-12.4°C 28% 5.9 mph WNW9.5 kmh WNW 8.7 mph14.0 kmh 29.98 in1015.2 mb 0.00 in0.0 mm 0.00 in0.0 mm 0.00 in0.0 mm
07:22 PM 40.1°F4.5°C 9.6°F-12.4°C 28% 6.3 mph WNW10.1 kmh WNW 8.7 mph14.0 kmh 29.98 in1015.2 mb 0.00 in0.0 mm 0.00 in0.0 mm 0.00 in0.0 mm
07:23 PM 40.1°F4.5°C 9.6°F-12.4°C 28% 6.6 mph WNW10.6 kmh WNW 12.3 mph19.8 kmh 29.98 in1015.2 mb 0.00 in0.0 mm 0.00 in0.0 mm 0.00 in0.0 mm
07:24 PM 40.1°F4.5°C 9.6°F-12.4°C 28% 7.4 mph WNW11.9 kmh WNW 13.2 mph21.2 kmh 29.98 in1015.2 mb 0.00 in0.0 mm 0.00 in0.0 mm 0.00 in0.0 mm
07:25 PM 40.3°F4.6°C 8.1°F-13.3°C 26% 7.2 mph WNW11.6 kmh WNW 13.2 mph21.2 kmh 29.98 in1015.2 mb 0.00 in0.0 mm 0.00 in0.0 mm 0.00 in0.0 mm
07:26 PM 40.3°F4.6°C 8.1°F-13.3°C 26% 6.9 mph WNW11.1 kmh WNW 13.2 mph21.2 kmh 29.98 in1015.2 mb 0.00 in0.0 mm 0.00 in0.0 mm 0.00 in0.0 mm
07:27 PM 40.3°F4.6°C 8.1°F-13.3°C 26% 7.1 mph WNW11.4 kmh WNW 13.2 mph21.2 kmh 29.98 in1015.2 mb 0.00 in0.0 mm 0.00 in0.0 mm 0.00 in0.0 mm
07:28 PM 40.3°F4.6°C 8.1°F-13.3°C 26% 6.9 mph WNW11.1 kmh WNW 13.2 mph21.2 kmh 29.98 in1015.2 mb 0.00 in0.0 mm 0.00 in0.0 mm 0.00 in0.0 mm
07:29 PM 40.3°F4.6°C 8.1°F-13.3°C 26% 7.4 mph WNW11.9 kmh WNW 13.2 mph21.2 kmh 29.98 in1015.2 mb 0.00 in0.0 mm 0.00 in0.0 mm 0.00 in0.0 mm
07:30 PM 40.5°F4.7°C 8.2°F-13.2°C 26% 7.9 mph WNW12.7 kmh WNW 13.2 mph21.2 kmh 29.98 in1015.2 mb 0.00 in0.0 mm 0.00 in0.0 mm 0.00 in0.0 mm
07:31 PM 40.5°F4.7°C 8.2°F-13.2°C 26% 7.9 mph NW12.7 kmh NW 13.2 mph21.2 kmh 29.98 in1015.2 mb 0.00 in0.0 mm 0.00 in0.0 mm 0.00 in0.0 mm
07:32 PM 40.3°F4.6°C 8.1°F-13.3°C 26% 7.7 mph NW12.4 kmh NW 13.2 mph21.2 kmh 29.98 in1015.2 mb 0.00 in0.0 mm 0.00 in0.0 mm 0.00 in0.0 mm
07:33 PM 40.1°F4.5°C 7.9°F-13.4°C 26% 6.9 mph WNW11.1 kmh WNW 13.2 mph21.2 kmh 29.98 in1015.2 mb 0.00 in0.0 mm 0.00 in0.0 mm 0.00 in0.0 mm
07:34 PM 40.1°F4.5°C 7.9°F-13.4°C 26% 6.0 mph NW9.7 kmh NW 10.1 mph16.3 kmh 29.98 in1015.2 mb